ftp/pub/palmer/observations_modified/2017/June/AR170604_BASE.txt

Download

Sample DateTime	Unit Id	WS Avg 2min	WD Avg 2min	WGS 10min	WGD 10min	Air Temp	Rel Humidity	Dew Point	Pyranometer	Quantum	Air Pressure	Snow Level	Rainfall	PW Current	Visibility	CBase 1	CBase 2	CBase 3	Vert Vis
2017/06/04 00:00:00	BASE	8.02	60	11.01	64	1.8	73	-2.5	0	0	988.0	NA	0.0000		9999	7580	0	0	0
2017/06/04 00:01:00	BASE	8.06	60	11.01	64	1.8	73	-2.5	0	0	988.0	NA	0.0000		9999	7580	0	0	0
2017/06/04 00:02:00	BASE	7.04	67	11.01	64	1.8	73	-2.5	0	0	988.1	NA	0.0000		9999	7550	0	0	0
2017/06/04 00:03:00	BASE	5.79	78	11.01	64	1.8	73	-2.5	0	0	988.1	NA	0.0000		9999	7510	0	0	0
2017/06/04 00:04:00	BASE	4.87	79	11.01	64	1.7	74	-2.5	0	0	988.1	NA	0.0000		9999	7550	0	0	0
2017/06/04 00:05:00	BASE	4.39	83	11.01	64	1.7	74	-2.5	0	0	988.1	NA	0.0000		9999	7550	0	0	0
2017/06/04 00:06:00	BASE	4.30	84	10.29	57	1.6	74	-2.5	0	0	988.1	NA	0.0000		9999	7680	0	0	0
2017/06/04 00:07:00	BASE	3.98	81	10.29	57	1.6	74	-2.5	0	0	988.1	NA	0.0000		9999	7550	0	0	0
2017/06/04 00:08:00	BASE	5.39	66	10.24	64	1.6	74	-2.5	0	0	988.1	NA	0.0000		9999	7320	0	0	0
2017/06/04 00:09:00	BASE	6.92	48	9.11	60	1.7	74	-2.5	0	0	988.1	NA	0.0000		9999	7280	0	0	0
2017/06/04 00:10:00	BASE	5.78	49	8.64	53	1.7	74	-2.5	0	0	988.1	NA	0.0000		9999	7120	0	0	0
2017/06/04 00:11:00	BASE	5.90	45	8.64	53	1.7	73	-2.6	0	0	988.0	NA	0.0000		9999	7090	0	0	0
2017/06/04 00:12:00	BASE	6.84	42	8.64	53	1.8	73	-2.6	0	0	988.0	NA	0.0000		9999	7050	0	0	0
2017/06/04 00:13:00	BASE	7.00	44	8.64	53	1.8	72	-2.6	0	0	988.0	NA	0.0000		9999	7090	0	0	0
2017/06/04 00:14:00	BASE	7.45	43	9.41	41	1.8	72	-2.7	0	0	987.9	NA	0.0000		9999	7020	0	0	0
2017/06/04 00:15:00	BASE	7.78	43	9.41	41	1.8	72	-2.7	0	0	988.0	NA	0.0000		9999	6790	0	0	0
2017/06/04 00:16:00	BASE	7.73	41	9.41	41	1.8	72	-2.8	0	0	987.9	NA	0.0000		9999	6790	0	0	0
2017/06/04 00:17:00	BASE	7.18	38	9.41	41	1.8	72	-2.8	0	0	987.9	NA	0.0000		9999	6920	0	0	0
2017/06/04 00:18:00	BASE	7.03	40	9.41	41	1.8	71	-2.8	0	0	987.9	NA	0.0000		9999	6860	0	0	0
2017/06/04 00:19:00	BASE	6.91	41	9.41	41	1.8	71	-2.9	0	0	987.9	NA	0.0000		9999	6790	0	0	0
2017/06/04 00:20:00	BASE	6.71	38	9.41	41	1.8	71	-3.0	0	0	987.9	NA	0.0000		9999	6790	0	0	0
2017/06/04 00:21:00	BASE	6.53	33	9.41	41	1.8	70	-3.0	0	0	987.9	NA	0.0000		9999	6860	0	0	0
2017/06/04 00:22:00	BASE	7.08	30	9.77	37	1.8	70	-3.0	0	0	987.9	NA	0.0000		9999	6820	13290	0	0
2017/06/04 00:23:00	BASE	7.68	30	9.77	37	1.9	70	-3.0	0	0	987.9	NA	0.0000		9999	6690	0	0	0
2017/06/04 00:24:00	BASE	7.58	31	9.77	37	1.9	70	-3.0	0	0	987.9	NA	0.0000		9999	6760	0	0	0
2017/06/04 00:25:00	BASE	7.76	31	9.77	37	1.9	70	-3.0	0	0	987.9	NA	0.0000		9999	6760	0	0	0
2017/06/04 00:26:00	BASE	7.28	31	9.77	37	2.0	70	-3.0	0	0	987.9	NA	0.0000		9999	6660	0	0	0
2017/06/04 00:27:00	BASE	6.57	28	9.77	37	2.0	69	-3.0	0	0	987.9	NA	0.0000		9999	6590	0	0	0
2017/06/04 00:28:00	BASE	6.60	26	9.77	37	2.0	69	-3.1	0	0	987.9	NA	0.0000		9999	6630	0	0	0
2017/06/04 00:29:00	BASE	6.78	27	9.77	37	2.0	69	-3.1	0	0	987.8	NA	0.0000		9999	6660	13120	0	0
2017/06/04 00:30:00	BASE	7.07	27	9.77	37	2.0	69	-3.1	0	0	987.8	NA	0.0000		9999	6660	12990	0	0
2017/06/04 00:31:00	BASE	7.04	27	9.77	37	2.0	69	-3.1	0	0	987.8	NA	0.0000		9999	12960	0	0	0
2017/06/04 00:32:00	BASE	6.75	28	8.95	40	2.0	69	-3.1	0	0	987.8	NA	0.0000		9999	13060	18240	0	0
2017/06/04 00:33:00	BASE	7.04	24	8.95	40	2.0	69	-3.1	0	0	987.8	NA	0.0000		9999	18050	0	0	0
2017/06/04 00:34:00	BASE	7.09	24	8.95	40	2.0	69	-3.1	0	0	987.8	NA	0.0000		9999	18110	0	0	0
2017/06/04 00:35:00	BASE	7.28	23	8.54	19	2.0	69	-3.1	0	0	987.7	NA	0.0000		9999	18730	0	0	0
2017/06/04 00:36:00	BASE	7.37	21	8.54	19	1.9	69	-3.2	0	0	987.7	NA	0.0000		9999	18800	0	0	0
2017/06/04 00:37:00	BASE	7.37	25	9.57	33	1.8	69	-3.2	0	0	987.7	NA	0.0000		9999	18870	0	0	0
2017/06/04 00:38:00	BASE	8.33	25	9.98	16	1.8	69	-3.3	0	0	987.6	NA	0.0000		9999	18960	0	0	0
2017/06/04 00:39:00	BASE	9.02	20	10.96	11	1.8	69	-3.3	0	0	987.5	NA	0.0000		9999	19360	0	0	0
2017/06/04 00:40:00	BASE	9.19	18	11.11	13	1.8	69	-3.3	0	0	987.5	NA	0.0000		9999	0	0	0	0
2017/06/04 00:41:00	BASE	9.73	20	11.11	20	1.9	68	-3.3	0	0	987.5	NA	0.0000		9999	0	0	0	0
2017/06/04 00:42:00	BASE	9.94	22	11.11	20	2.0	68	-3.4	0	0	987.5	NA	0.0000		9999	0	0	0	0
2017/06/04 00:43:00	BASE	10.27	23	11.63	21	2.0	67	-3.4	0	0	987.5	NA	0.0000		9999	0	0	0	0
2017/06/04 00:44:00	BASE	10.43	24	11.63	21	2.1	67	-3.3	0	0	987.5	NA	0.0000		9999	0	0	0	0
2017/06/04 00:45:00	BASE	10.04	24	11.63	21	2.1	67	-3.4	0	0	987.5	NA	0.0000		9999	0	0	0	0
2017/06/04 00:46:00	BASE	10.40	26	11.68	28	2.1	67	-3.4	0	0	987.5	NA	0.0000		9999	0	0	0	0
2017/06/04 00:47:00	BASE	10.62	26	11.68	28	2.1	67	-3.4	0	0	987.5	NA	0.0000		9999	0	0	0	0
2017/06/04 00:48:00	BASE	10.46	25	11.68	28	2.0	67	-3.4	0	0	987.5	NA	0.0000		9999	0	0	0	0
2017/06/04 00:49:00	BASE	10.44	24	11.68	28	1.9	68	-3.4	0	0	987.4	NA	0.0000		9999	0	0	0	0
2017/06/04 00:50:00	BASE	10.92	24	12.45	21	1.8	68	-3.4	0	0	987.4	NA	0.0000		9999	0	0	0	0
2017/06/04 00:51:00	BASE	11.41	25	12.86	29	1.7	69	-3.4	0	0	987.4	NA	0.0000		9999	0	0	0	0
2017/06/04 00:52:00	BASE	11.60	25	12.91	26	1.7	69	-3.4	0	0	987.4	NA	0.0000		9999	0	0	0	0
2017/06/04 00:53:00	BASE	11.59	25	12.91	26	1.6	69	-3.4	0	0	987.4	NA	0.0000		9999	0	0	0	0
2017/06/04 00:54:00	BASE	11.65	25	12.91	27	1.6	70	-3.4	0	0	987.4	NA	0.0000		9999	0	0	0	0
2017/06/04 00:55:00	BASE	11.56	24	12.91	27	1.6	70	-3.3	0	0	987.4	NA	0.0000		9999	0	0	0	0
2017/06/04 00:56:00	BASE	11.17	24	12.91	27	1.6	70	-3.3	0	0	987.4	NA	0.0000		9999	0	0	0	0
2017/06/04 00:57:00	BASE	11.25	24	12.91	27	1.7	70	-3.2	0	0	987.4	NA	0.0000		9999	0	0	0	0
2017/06/04 00:58:00	BASE	11.41	26	12.91	25	1.7	70	-3.1	0	0	987.4	NA	0.0000		9999	0	0	0	0
2017/06/04 00:59:00	BASE	11.60	28	12.91	25	1.8	71	-3.0	0	0	987.4	NA	0.0000		9999	0	0	0	0
2017/06/04 01:00:00	BASE	11.64	28	12.91	25	1.8	71	-2.9	0	0	987.4	NA	0.0000		9999	0	0	0	0
2017/06/04 01:01:00	BASE	11.54	27	12.91	25	1.9	71	-2.9	0	0	987.3	NA	0.0000		9999	0	0	0	0
2017/06/04 01:02:00	BASE	11.67	29	13.17	30	1.9	70	-2.9	0	0	987.3	NA	0.0000		9999	0	0	0	0
2017/06/04 01:03:00	BASE	11.50	29	13.17	30	1.9	70	-2.9	0	0	987.3	NA	0.0000		9999	12600	0	0	0
2017/06/04 01:04:01	BASE	11.47	29	13.17	30	1.9	70	-3.0	0	0	987.3	NA	0.0000		9999	0	0	0	0
2017/06/04 01:05:00	BASE	11.37	29	13.17	30	1.9	70	-3.0	0	0	987.4	NA	0.0000		9999	0	0	0	0
2017/06/04 01:06:00	BASE	11.20	27	13.17	30	1.9	70	-3.0	0	0	987.3	NA	0.0000		9999	0	0	0	0
2017/06/04 01:07:01	BASE	11.15	27	13.17	30	2.0	70	-2.9	0	0	987.3	NA	0.0000		9999	0	0	0	0
2017/06/04 01:08:00	BASE	10.98	27	13.17	30	2.0	70	-2.9	0	0	987.3	NA	0.0000		9999	0	0	0	0
2017/06/04 01:09:01	BASE	10.66	25	13.17	30	2.0	70	-2.9	0	0	987.4	NA	0.0000		9999	0	0	0	0
2017/06/04 01:10:01	BASE	10.69	24	13.17	30	2.0	70	-2.9	0	0	987.3	NA	0.0000		9999	0	0	0	0
2017/06/04 01:11:01	BASE	10.84	26	13.17	30	2.0	70	-2.9	0	0	987.3	NA	0.0000		9999	0	0	0	0
2017/06/04 01:12:01	BASE	10.88	24	13.07	28	2.0	70	-3.0	0	0	987.3	NA	0.0000		9999	0	0	0	0
2017/06/04 01:13:01	BASE	11.13	23	13.07	28	2.0	70	-2.9	0	0	987.3	NA	0.0000		9999	12270	0	0	0
2017/06/04 01:14:01	BASE	10.76	23	13.07	28	2.1	69	-3.0	0	0	987.3	NA	0.0000		9999	12370	0	0	0
2017/06/04 01:15:01	BASE	10.24	18	13.07	28	2.1	69	-3.0	0	0	987.3	NA	0.0000		9999	0	0	0	0
2017/06/04 01:16:01	BASE	10.18	18	12.30	27	2.1	69	-3.1	0	0	987.3	NA	0.0000		9999	0	0	0	0
2017/06/04 01:17:01	BASE	10.07	22	12.30	27	2.0	69	-3.1	0	0	987.3	NA	0.0000		9999	0	0	0	0
2017/06/04 01:18:01	BASE	10.12	22	12.30	27	2.0	69	-3.1	0	0	987.3	NA	0.0000		9999	0	0	0	0
2017/06/04 01:19:01	BASE	10.30	21	12.30	27	2.1	69	-3.1	0	0	987.3	NA	0.0000		9999	0	0	0	0
2017/06/04 01:20:01	BASE	10.42	22	12.35	18	2.1	68	-3.1	0	0	987.3	NA	0.0000		9999	0	0	0	0
2017/06/04 01:21:01	BASE	11.11	24	13.94	25	2.1	68	-3.1	0	0	987.3	NA	0.0000		9999	0	0	0	0
2017/06/04 01:22:01	BASE	11.15	23	13.94	25	2.2	68	-3.1	0	0	987.2	NA	0.0000		9999	0	0	0	0
2017/06/04 01:23:01	BASE	10.65	20	13.94	25	2.2	68	-3.0	0	0	987.3	NA	0.0000		9999	0	0	0	0
2017/06/04 01:24:01	BASE	10.42	21	13.94	25	2.3	69	-2.9	0	0	987.2	NA	0.0000		9999	11710	0	0	0
2017/06/04 01:25:01	BASE	10.03	22	13.94	25	2.3	69	-2.9	0	0	987.2	NA	0.0000		9999	0	0	0	0
2017/06/04 01:26:01	BASE	10.02	22	13.94	25	2.3	69	-2.8	0	0	987.1	NA	0.0000		9999	0	0	0	0
2017/06/04 01:27:01	BASE	9.68	22	13.94	25	2.4	69	-2.8	0	0	987.1	NA	0.0000		9999	0	0	0	0
2017/06/04 01:28:01	BASE	9.80	22	13.94	25	2.4	69	-2.8	0	0	987.1	NA	0.0000		9999	11710	0	0	0
2017/06/04 01:29:01	BASE	10.63	22	13.94	25	2.4	69	-2.8	0	0	987.1	NA	0.0000		9999	11650	0	0	0
2017/06/04 01:30:01	BASE	10.24	22	13.94	25	2.5	68	-2.8	0	0	987.1	NA	0.0000		9999	11580	0	0	0
2017/06/04 01:31:01	BASE	9.66	20	12.04	17	2.4	68	-2.9	0	0	987.1	NA	0.0000		9999	11580	0	0	0
2017/06/04 01:32:01	BASE	10.01	19	12.04	17	2.4	68	-2.9	0	0	987.0	NA	0.0000		9999	0	0	0	0
2017/06/04 01:33:01	BASE	9.96	20	12.04	17	2.4	68	-3.0	0	0	987.0	NA	0.0000		9999	0	0	0	0
2017/06/04 01:34:01	BASE	10.18	20	12.19	19	2.4	68	-3.0	0	0	987.0	NA	0.0000		9999	11610	0	0	0
2017/06/04 01:35:01	BASE	11.26	19	13.38	13	2.4	68	-3.0	0	0	986.9	NA	0.0000		9999	11650	0	0	0
2017/06/04 01:36:01	BASE	11.12	18	13.38	13	2.4	68	-2.9	0	0	987.0	NA	0.0000		9999	11750	0	0	0
2017/06/04 01:37:01	BASE	10.41	17	13.38	13	2.4	68	-2.9	0	0	987.0	NA	0.0000		9999	0	0	0	0
2017/06/04 01:38:01	BASE	10.28	18	13.38	13	2.4	68	-2.8	0	0	987.0	NA	0.0000		9999	0	0	0	0
2017/06/04 01:39:01	BASE	10.40	20	13.38	13	2.5	68	-2.8	0	0	987.0	NA	0.0000		9999	0	0	0	0
2017/06/04 01:40:01	BASE	10.36	21	13.38	13	2.5	68	-2.7	0	0	987.0	NA	0.0000		9999	0	0	0	0
2017/06/04 01:41:01	BASE	10.06	22	13.38	13	2.6	68	-2.7	0	0	987.1	NA	0.0000		9999	0	0	0	0
2017/06/04 01:42:01	BASE	9.91	24	13.38	13	2.6	68	-2.6	0	0	987.1	NA	0.0000		9999	0	0	0	0
2017/06/04 01:43:01	BASE	9.73	24	13.38	13	2.7	68	-2.6	0	0	987.0	NA	0.0000		9999	0	0	0	0
2017/06/04 01:44:01	BASE	9.34	20	13.38	13	2.7	68	-2.6	0	0	987.1	NA	0.0000		9999	0	0	0	0
2017/06/04 01:45:01	BASE	8.38	18	12.19	19	2.7	68	-2.7	0	0	987.1	NA	0.0000		9999	0	0	0	0
2017/06/04 01:46:01	BASE	8.22	22	12.19	19	2.7	67	-2.7	0	0	987.1	NA	0.0000		9999	0	0	0	0
2017/06/04 01:47:01	BASE	8.49	25	12.04	23	2.7	67	-2.8	0	0	987.1	NA	0.0000		9999	0	0	0	0
2017/06/04 01:48:01	BASE	8.30	24	12.04	23	2.6	67	-2.9	0	0	987.1	NA	0.0000		9999	0	0	0	0
2017/06/04 01:49:01	BASE	8.70	25	10.80	18	2.6	67	-3.0	0	0	987.1	NA	0.0000		9999	0	0	0	0
2017/06/04 01:50:01	BASE	9.07	26	10.80	18	2.6	67	-3.0	0	0	987.1	NA	0.0000		9999	0	0	0	0
2017/06/04 01:51:01	BASE	8.84	25	10.80	18	2.5	67	-3.0	0	0	987.1	NA	0.0000		9999	0	0	0	0
2017/06/04 01:52:01	BASE	9.41	23	10.91	27	2.5	67	-3.0	0	0	987.1	NA	0.0000		9999	0	0	0	0
2017/06/04 01:53:01	BASE	9.65	22	10.91	27	2.5	67	-3.1	0	0	987.1	NA	0.0000		9999	0	0	0	0
2017/06/04 01:54:01	BASE	9.00	22	10.91	27	2.5	67	-3.1	0	0	987.1	NA	0.0000		9999	0	0	0	0
2017/06/04 01:55:01	BASE	8.96	24	10.91	27	2.4	67	-3.2	0	0	987.1	NA	0.0000		9999	0	0	0	0
2017/06/04 01:56:01	BASE	8.43	21	10.91	27	2.4	67	-3.1	0	0	987.2	NA	0.0000		9999	0	0	0	0
2017/06/04 01:57:01	BASE	8.31	19	10.91	27	2.5	66	-3.2	0	0	987.2	NA	0.0000		9999	0	0	0	0
2017/06/04 01:58:01	BASE	8.53	19	10.91	27	2.5	66	-3.2	0	0	987.1	NA	0.0000		9999	0	0	0	0
2017/06/04 01:59:01	BASE	7.78	16	10.91	27	2.5	66	-3.2	0	0	987.2	NA	0.0000		9999	0	0	0	0
2017/06/04 02:00:01	BASE	7.84	16	10.91	27	2.4	66	-3.3	0	0	987.2	NA	0.0000		9999	0	0	0	0
2017/06/04 02:01:01	BASE	8.16	17	10.91	27	2.4	66	-3.4	0	0	987.2	NA	0.0000		9999	0	0	0	0
2017/06/04 02:02:01	BASE	7.90	21	10.39	15	2.3	66	-3.4	0	0	987.2	NA	0.0000		9999	0	0	0	0
2017/06/04 02:03:01	BASE	8.14	20	10.39	15	2.2	66	-3.4	0	0	987.1	NA	0.0000		9999	0	0	0	0
2017/06/04 02:04:01	BASE	8.28	16	9.72	19	2.1	67	-3.4	0	0	987.1	NA	0.0000		9999	0	0	0	0
2017/06/04 02:05:01	BASE	7.80	17	9.72	19	2.1	67	-3.4	0	0	987.2	NA	0.0000		9999	0	0	0	0
2017/06/04 02:06:01	BASE	7.52	19	9.72	19	2.2	67	-3.3	0	0	987.2	NA	0.0000		9999	0	0	0	0
2017/06/04 02:07:01	BASE	7.46	18	9.52	17	2.2	67	-3.3	0	0	987.2	NA	0.0000		9999	0	0	0	0
2017/06/04 02:08:01	BASE	7.51	19	9.52	17	2.2	67	-3.3	0	0	987.2	NA	0.0000		9999	0	0	0	0
2017/06/04 02:09:01	BASE	7.47	18	9.52	17	2.2	67	-3.3	0	0	987.2	NA	0.0000		9999	0	0	0	0
2017/06/04 02:10:01	BASE	7.45	20	9.11	20	2.1	67	-3.4	0	0	987.2	NA	0.0000		9999	0	0	0	0
2017/06/04 02:11:01	BASE	7.33	22	9.11	20	2.1	67	-3.5	0	0	987.2	NA	0.0000		9999	0	0	0	0
2017/06/04 02:12:01	BASE	6.97	23	9.11	20	2.0	67	-3.5	0	0	987.2	NA	0.0000		9999	0	0	0	0
2017/06/04 02:13:01	BASE	6.83	25	9.11	20	1.9	67	-3.6	0	0	987.2	NA	0.0000		9999	0	0	0	0
2017/06/04 02:14:01	BASE	7.00	26	9.11	20	1.8	67	-3.6	0	0	987.2	NA	0.0000		9999	0	0	0	0
2017/06/04 02:15:01	BASE	7.48	22	9.11	20	1.7	68	-3.6	0	0	987.2	NA	0.0000		9999	0	0	0	0
2017/06/04 02:16:01	BASE	7.79	22	9.11	20	1.6	68	-3.6	0	0	987.2	NA	0.0000		9999	0	0	0	0
2017/06/04 02:17:01	BASE	7.92	26	9.11	20	1.5	69	-3.6	0	0	987.2	NA	0.0000		9999	0	0	0	0
2017/06/04 02:18:01	BASE	8.32	27	9.16	22	1.5	69	-3.6	0	0	987.1	NA	0.0000		9999	0	0	0	0
2017/06/04 02:19:01	BASE	8.88	27	9.41	32	1.6	68	-3.6	0	0	987.1	NA	0.0000		9999	0	0	0	0
2017/06/04 02:20:01	BASE	9.17	28	9.88	31	1.6	68	-3.6	0	0	987.1	NA	0.0000		9999	0	0	0	0
2017/06/04 02:21:01	BASE	9.47	28	10.44	24	1.6	68	-3.7	0	0	987.1	NA	0.0000		9999	0	0	0	0
2017/06/04 02:22:01	BASE	9.49	27	10.44	24	1.6	68	-3.7	0	0	987.1	NA	0.0000		9999	0	0	0	0
2017/06/04 02:23:01	BASE	9.68	28	10.65	28	1.7	68	-3.6	0	0	987.1	NA	0.0000		9999	0	0	0	0
2017/06/04 02:24:01	BASE	9.98	28	10.65	28	1.7	67	-3.7	0	0	987.1	NA	0.0000		9999	0	0	0	0
2017/06/04 02:25:01	BASE	9.80	27	10.65	28	1.8	67	-3.7	0	0	987.1	NA	0.0000		9999	0	0	0	0
2017/06/04 02:26:01	BASE	9.52	26	10.65	28	1.9	67	-3.7	0	0	987.1	NA	0.0000		9999	0	0	0	0
2017/06/04 02:27:01	BASE	9.25	24	10.65	28	2.0	66	-3.7	0	0	987.1	NA	0.0000		9999	0	0	0	0
2017/06/04 02:28:01	BASE	9.12	24	10.65	28	2.0	66	-3.7	0	0	987.1	NA	0.0000		9999	0	0	0	0
2017/06/04 02:29:01	BASE	9.19	24	10.65	28	2.0	66	-3.8	0	0	987.1	NA	0.0000		9999	0	0	0	0
2017/06/04 02:30:01	BASE	9.03	27	10.65	28	2.0	65	-3.8	0	0	987.1	NA	0.0000		9999	0	0	0	0
2017/06/04 02:31:01	BASE	8.69	29	10.65	28	2.0	65	-3.8	0	0	987.0	NA	0.0000		9999	5910	0	0	0
2017/06/04 02:32:01	BASE	8.79	30	10.65	28	2.0	65	-3.9	0	0	987.1	NA	0.0000		9999	0	0	0	0
2017/06/04 02:33:01	BASE	8.99	31	10.44	26	2.0	65	-3.9	0	0	987.1	NA	0.0000		9999	0	0	0	0
2017/06/04 02:34:01	BASE	9.04	32	10.24	29	1.9	65	-4.0	0	0	987.0	NA	0.0000		9999	0	0	0	0
2017/06/04 02:35:01	BASE	9.06	32	10.13	28	1.8	65	-4.0	0	0	987.0	NA	0.0000		9999	0	0	0	0
2017/06/04 02:36:01	BASE	9.31	32	10.19	35	1.8	66	-3.9	0	0	987.0	NA	0.0000		9999	0	0	0	0
2017/06/04 02:37:01	BASE	9.32	34	10.19	35	1.8	66	-3.9	0	0	987.0	NA	0.0000		9999	0	0	0	0
2017/06/04 02:38:01	BASE	9.31	36	10.24	33	1.8	66	-3.9	0	0	987.0	NA	0.0000		9999	0	0	0	0
2017/06/04 02:39:01	BASE	9.54	36	10.34	35	1.8	66	-3.9	0	0	987.0	NA	0.0000		9999	0	0	0	0
2017/06/04 02:40:01	BASE	9.43	37	10.34	35	1.8	66	-3.9	0	0	987.0	NA	0.0000		9999	0	0	0	0
2017/06/04 02:41:01	BASE	9.56	36	10.65	33	1.9	66	-3.9	0	0	986.9	NA	0.0000		9999	0	0	0	0
2017/06/04 02:42:01	BASE	9.69	35	10.65	33	2.0	65	-3.8	0	0	986.9	NA	0.0000		9999	0	0	0	0
2017/06/04 02:43:01	BASE	9.54	37	10.65	33	2.0	65	-3.8	0	0	986.9	NA	0.0000		9999	0	0	0	0
2017/06/04 02:44:01	BASE	9.45	38	10.65	33	2.1	65	-3.8	0	0	986.9	NA	0.0000		9999	0	0	0	0
2017/06/04 02:45:01	BASE	9.15	38	10.70	39	2.0	65	-3.9	0	0	986.9	NA	0.0000		9999	0	0	0	0
2017/06/04 02:46:01	BASE	8.94	37	10.70	39	2.0	65	-3.9	0	0	986.9	NA	0.0000		9999	0	0	0	0
2017/06/04 02:47:01	BASE	8.81	37	10.70	39	1.9	66	-3.8	0	0	986.8	NA	0.0000		9999	0	0	0	0
2017/06/04 02:48:01	BASE	8.61	36	10.70	39	1.8	66	-3.8	0	0	986.9	NA	0.0000		9999	21790	0	0	0
2017/06/04 02:49:01	BASE	8.71	35	10.70	39	1.8	67	-3.8	0	0	986.8	NA	0.0000		9999	0	0	0	0
2017/06/04 02:50:01	BASE	9.26	35	10.80	33	1.8	67	-3.7	0	0	986.8	NA	0.0000		9999	0	0	0	0
2017/06/04 02:51:01	BASE	9.75	34	10.80	33	1.8	67	-3.7	0	0	986.8	NA	0.0000		9999	0	0	0	0
2017/06/04 02:52:01	BASE	9.63	33	10.80	33	1.9	67	-3.6	0	0	986.8	NA	0.0000		9999	0	0	0	0
2017/06/04 02:53:01	BASE	9.22	32	10.80	33	1.9	67	-3.6	0	0	986.8	NA	0.0000		9999	0	0	0	0
2017/06/04 02:54:00	BASE	8.82	31	10.80	33	1.9	66	-3.7	0	0	986.9	NA	0.0000		9999	5680	0	0	0
2017/06/04 02:55:00	BASE	8.87	30	10.80	33	1.9	66	-3.7	0	0	986.8	NA	0.0000		9999	5350	0	0	0
2017/06/04 02:56:00	BASE	9.17	27	10.80	33	1.9	67	-3.7	0	0	986.9	NA	0.0000		9999	5320	0	0	0
2017/06/04 02:57:00	BASE	8.94	22	10.80	33	1.8	67	-3.6	0	0	986.8	NA	0.0000		9999	4590	0	0	0
2017/06/04 02:58:00	BASE	8.89	19	10.80	33	1.8	67	-3.6	0	0	986.8	NA	0.0000		9999	4460	0	0	0
2017/06/04 02:59:00	BASE	9.19	20	10.80	33	1.8	67	-3.6	0	0	986.8	NA	0.0000		9999	4200	0	0	0
2017/06/04 03:00:00	BASE	9.03	20	10.55	37	1.9	67	-3.6	0	0	986.8	NA	0.0000		9999	3670	0	0	0
2017/06/04 03:01:00	BASE	8.33	19	10.13	18	1.9	67	-3.6	0	0	986.8	NA	0.0000		9999	4990	0	0	0
2017/06/04 03:02:00	BASE	7.97	20	10.13	18	1.9	66	-3.7	0	0	986.8	NA	0.0000		9999	4790	0	0	0
2017/06/04 03:03:00	BASE	8.13	22	10.13	18	1.8	66	-3.8	0	0	986.7	NA	0.0000		9999	0	0	0	0
2017/06/04 03:04:00	BASE	8.25	23	10.13	18	1.7	66	-3.9	0	0	986.7	NA	0.0000		9999	0	0	0	0
2017/06/04 03:05:00	BASE	8.28	21	10.13	18	1.7	67	-3.8	0	0	986.7	NA	0.0000		9999	0	0	0	0
2017/06/04 03:06:00	BASE	8.45	19	10.13	18	1.6	67	-3.9	0	0	986.7	NA	0.0000		9999	0	0	0	0
2017/06/04 03:07:00	BASE	8.71	23	10.13	18	1.6	67	-3.8	0	0	986.7	NA	0.0000		9999	0	0	0	0
2017/06/04 03:08:00	BASE	8.69	32	10.03	27	1.6	68	-3.7	0	0	986.8	NA	0.0000		9999	0	0	0	0
2017/06/04 03:09:00	BASE	8.00	39	9.88	25	1.7	67	-3.7	0	0	986.8	NA	0.0000		9999	0	0	0	0
2017/06/04 03:10:00	BASE	7.42	39	9.36	33	1.8	67	-3.7	0	0	986.8	NA	0.0000		9999	0	0	0	0
2017/06/04 03:11:00	BASE	7.44	35	9.36	33	1.9	67	-3.6	0	0	986.8	NA	0.0000		9999	0	0	0	0
2017/06/04 03:12:00	BASE	7.90	31	9.36	33	2.1	66	-3.6	0	0	986.8	NA	0.0000		9999	0	0	0	0
2017/06/04 03:13:00	BASE	7.87	25	9.36	33	2.1	66	-3.6	0	0	986.8	NA	0.0000		9999	0	0	0	0
2017/06/04 03:14:00	BASE	7.07	23	9.36	33	2.2	66	-3.6	0	0	986.9	NA	0.0000		9999	0	0	0	0
2017/06/04 03:15:00	BASE	6.40	24	9.36	33	2.2	65	-3.6	0	0	986.9	NA	0.0000		9999	0	0	0	0
2017/06/04 03:16:00	BASE	6.27	28	9.36	33	2.3	65	-3.6	0	0	986.9	NA	0.0000		9999	0	0	0	0
2017/06/04 03:17:00	BASE	6.22	32	9.31	33	2.3	65	-3.6	0	0	987.0	NA	0.0000		9999	0	0	0	0
2017/06/04 03:18:00	BASE	6.06	34	8.85	25	2.2	65	-3.7	0	0	987.0	NA	0.0000		9999	4330	0	0	0
2017/06/04 03:19:00	BASE	5.99	36	8.85	25	2.1	66	-3.7	0	0	987.0	NA	0.0000		9999	4360	0	0	0
2017/06/04 03:20:00	BASE	6.14	37	8.85	25	2.0	66	-3.6	0	0	987.0	NA	0.0000		9999	4300	0	0	0
2017/06/04 03:21:00	BASE	6.04	35	8.85	25	2.0	67	-3.6	0	0	987.0	NA	0.0000		9999	4270	0	0	0
2017/06/04 03:22:00	BASE	4.85	39	8.49	28	2.0	67	-3.6	0	0	987.0	NA	0.0000		9999	3670	0	0	0
2017/06/04 03:23:00	BASE	3.16	60	7.51	36	2.0	67	-3.6	0	0	987.0	NA	0.0000		9999	4170	0	0	0
2017/06/04 03:24:00	BASE	2.42	93	7.51	36	1.9	67	-3.6	0	0	987.0	NA	0.0000		9999	0	0	0	0
2017/06/04 03:25:00	BASE	2.67	115	7.31	31	1.8	67	-3.7	0	0	987.0	NA	0.0000		9999	3970	0	0	0
2017/06/04 03:26:00	BASE	2.86	120	7.25	31	1.5	68	-3.8	0	0	987.0	NA	0.0000		9999	3900	0	0	0
2017/06/04 03:27:00	BASE	2.10	101	7.25	31	1.2	69	-3.9	0	0	987.0	NA	0.0000		9999	0	0	0	0
2017/06/04 03:28:00	BASE	1.44	79	7.25	31	0.9	70	-3.9	0	0	987.0	NA	0.0000		9999	0	0	0	0
2017/06/04 03:29:00	BASE	1.56	74	7.25	31	0.8	72	-3.8	0	0	986.9	NA	0.0000		9999	0	0	0	0
2017/06/04 03:30:00	BASE	1.60	82	6.43	33	0.7	73	-3.6	0	0	986.8	NA	0.0000		9999	0	0	0	0
2017/06/04 03:31:00	BASE	1.54	85	5.14	32	0.7	73	-3.6	0	0	986.8	NA	0.0000		9999	5280	0	0	0
2017/06/04 03:32:00	BASE	1.51	69	3.24	122	0.8	73	-3.5	0	0	986.9	NA	0.0000		9999	4890	0	0	0
2017/06/04 03:33:00	BASE	2.04	49	3.86	24	0.8	73	-3.4	0	0	986.9	NA	0.0000		9999	5540	0	0	0
2017/06/04 03:34:00	BASE	3.18	40	6.22	7	0.9	73	-3.4	0	0	986.9	NA	0.0000		9999	9380	0	0	0
2017/06/04 03:35:00	BASE	4.20	25	6.22	7	1.1	73	-3.3	0	0	986.8	NA	0.0000		9999	9120	0	0	0
2017/06/04 03:36:00	BASE	3.92	23	6.22	7	1.4	72	-3.2	0	0	986.8	NA	0.0000		9999	9320	0	0	0
2017/06/04 03:37:00	BASE	3.57	22	6.22	7	1.5	70	-3.3	0	0	986.8	NA	0.0000		9999	9320	0	0	0
2017/06/04 03:38:00	BASE	4.00	4	6.22	7	1.6	70	-3.3	0	0	986.8	NA	0.0000		9999	9420	0	0	0
2017/06/04 03:39:00	BASE	5.22	2	7.72	21	1.7	69	-3.4	0	0	986.7	NA	0.0000		9999	9580	0	0	0
2017/06/04 03:40:00	BASE	7.09	3	8.85	15	1.8	68	-3.5	0	0	986.7	NA	0.0000		9999	9650	0	0	0
2017/06/04 03:41:00	BASE	7.30	4	8.85	15	1.8	68	-3.6	0	0	986.6	NA	0.0000		9999	9710	0	0	0
2017/06/04 03:42:00	BASE	6.71	10	8.85	15	1.9	67	-3.6	0	0	986.6	NA	0.0000		9999	9810	0	0	0
2017/06/04 03:43:00	BASE	6.58	18	8.85	15	2.0	67	-3.6	0	0	986.6	NA	0.0000		9999	10010	0	0	0
2017/06/04 03:44:00	BASE	6.33	20	8.85	15	2.2	65	-3.6	0	0	986.6	NA	0.0000		9999	5050	10070	0	0
2017/06/04 03:45:00	BASE	7.09	25	8.85	40	2.4	64	-3.7	0	0	986.6	NA	0.0000		9999	7320	0	0	0
2017/06/04 03:46:00	BASE	7.54	48	8.85	40	2.4	63	-3.8	0	0	986.6	NA	0.0000		9999	7190	0	0	0
2017/06/04 03:47:00	BASE	6.94	66	8.85	40	2.4	63	-3.9	0	0	986.6	NA	0.0000		9999	5180	5910	0	0
2017/06/04 03:48:00	BASE	6.94	74	8.85	40	2.3	63	-4.0	0	0	986.6	NA	0.0000		9999	5150	0	0	0
2017/06/04 03:49:00	BASE	7.11	82	8.85	40	2.1	64	-4.0	0	0	986.6	NA	0.0000		9999	4990	0	0	0
2017/06/04 03:50:00	BASE	6.71	85	8.85	40	1.9	65	-4.0	0	0	986.7	NA	0.0000		9999	4820	0	0	0
2017/06/04 03:51:00	BASE	6.25	90	8.85	40	1.7	66	-3.9	0	0	986.7	NA	0.0000		9999	4950	0	0	0
2017/06/04 03:52:00	BASE	5.98	99	8.85	40	1.5	68	-3.8	0	0	986.6	NA	0.0000		9999	4920	0	0	0
2017/06/04 03:53:00	BASE	6.03	108	8.85	40	1.3	69	-3.8	0	0	986.6	NA	0.0000		9999	4950	0	0	0
2017/06/04 03:54:00	BASE	5.61	115	8.85	40	1.2	70	-3.7	0	0	986.7	NA	0.0000		9999	4990	0	0	0
2017/06/04 03:55:00	BASE	4.24	120	8.08	86	1.1	71	-3.6	0	0	986.8	NA	0.0000		9999	5090	0	0	0
2017/06/04 03:56:00	BASE	3.24	113	8.08	86	1.0	72	-3.5	0	0	986.8	NA	0.0000		9999	5320	0	0	0
2017/06/04 03:57:00	BASE	3.05	100	8.08	86	0.9	73	-3.4	0	0	986.8	NA	0.0000		9999	5020	0	0	0
2017/06/04 03:58:00	BASE	2.58	89	8.08	86	0.9	74	-3.3	0	0	986.8	NA	0.0000		9999	5220	0	0	0
2017/06/04 03:59:00	BASE	1.83	100	7.25	82	0.8	74	-3.3	0	0	986.9	NA	0.0000		9999	5150	0	0	0
2017/06/04 04:00:00	BASE	1.50	119	6.58	124	0.8	75	-3.2	0	0	986.9	NA	0.0000		9999	4990	0	0	0
2017/06/04 04:01:00	BASE	1.55	126	6.58	124	0.8	75	-3.2	0	0	986.9	NA	0.0000		9999	5320	0	0	0
2017/06/04 04:02:00	BASE	1.76	125	6.58	124	0.8	75	-3.1	0	0	986.9	NA	0.0000		9999	5150	0	0	0
2017/06/04 04:03:00	BASE	1.01	122	6.28	136	0.8	75	-3.1	0	0	986.9	NA	0.0000		9999	5180	0	0	0
2017/06/04 04:04:00	BASE	0.25	130	4.78	130	0.9	75	-3.0	0	0	986.9	NA	0.0000		9999	5020	0	0	0
2017/06/04 04:05:00	BASE	0.76	300	3.91	101	0.9	75	-3.0	0	0	986.8	NA	0.0000		9999	5050	0	0	0
2017/06/04 04:06:00	BASE	1.89	318	4.01	342	1.0	75	-2.9	0	0	986.8	NA	0.0000		9999	5150	0	0	0
2017/06/04 04:07:00	BASE	2.82	328	4.17	330	1.2	75	-2.8	0	0	986.8	NA	0.0000		9999	5050	0	0	0
2017/06/04 04:08:00	BASE	3.50	321	4.58	313	1.4	74	-2.8	0	0	986.7	NA	0.0000		9999	5250	0	0	0
2017/06/04 04:09:00	BASE	3.57	336	4.89	339	1.5	73	-2.8	0	0	986.8	NA	0.0000		9999	5410	0	0	0
2017/06/04 04:10:00	BASE	2.35	27	4.89	339	1.6	72	-2.9	0	0	986.8	NA	0.0000		9999	5510	0	0	0
2017/06/04 04:11:00	BASE	1.37	40	4.89	339	1.8	71	-3.0	0	0	986.7	NA	0.0000		9999	4360	5320	0	0
2017/06/04 04:12:00	BASE	1.06	16	4.89	339	1.9	69	-3.1	0	0	986.7	NA	0.0000		9999	5320	0	0	0
2017/06/04 04:13:00	BASE	1.48	359	4.89	339	1.9	69	-3.3	0	0	986.7	NA	0.0000		9999	5180	0	0	0
2017/06/04 04:14:00	BASE	2.21	360	4.89	339	1.9	68	-3.4	0	0	986.7	NA	0.0000		9999	5120	0	0	0
2017/06/04 04:15:00	BASE	2.94	16	6.28	30	1.9	68	-3.4	0	0	986.7	NA	0.0000		9999	4990	0	0	0
2017/06/04 04:16:00	BASE	4.61	34	6.74	48	1.9	67	-3.5	0	0	986.7	NA	0.0000		9999	4890	0	0	0
2017/06/04 04:17:00	BASE	5.62	39	8.90	46	1.9	67	-3.6	0	0	986.7	NA	0.0000		9999	4990	0	0	0
2017/06/04 04:18:00	BASE	5.07	49	8.90	46	2.0	66	-3.6	0	0	986.7	NA	0.0000		9999	4990	0	0	0
2017/06/04 04:19:00	BASE	4.34	66	8.90	46	2.1	65	-3.7	0	0	986.7	NA	0.0000		9999	4890	0	0	0
2017/06/04 04:20:00	BASE	4.21	75	8.90	46	2.1	65	-3.8	0	0	986.8	NA	0.0000		9999	4820	0	0	0
2017/06/04 04:21:00	BASE	4.25	73	8.90	46	2.1	65	-3.8	0	0	986.8	NA	0.0000		9999	4790	0	0	0
2017/06/04 04:22:00	BASE	3.57	73	8.90	46	1.9	66	-3.7	0	0	986.8	NA	0.0000		9999	4820	0	0	0
2017/06/04 04:23:00	BASE	2.57	82	8.90	46	1.7	68	-3.6	0	0	986.8	NA	0.0000		9999	4720	0	0	0
2017/06/04 04:24:00	BASE	2.52	92	8.90	46	1.5	69	-3.5	0	0	986.8	NA	0.0000		9999	4790	0	0	0
2017/06/04 04:25:00	BASE	2.39	96	8.90	46	1.4	71	-3.4	0	0	986.8	NA	0.0000		9999	4720	0	0	0
2017/06/04 04:26:00	BASE	2.21	94	8.90	46	1.4	71	-3.3	0	0	986.8	NA	0.0000		9999	4630	0	0	0
2017/06/04 04:27:00	BASE	2.32	90	5.25	54	1.3	72	-3.3	0	0	986.8	NA	0.0000		9999	5180	0	0	0
2017/06/04 04:28:00	BASE	2.24	56	5.04	72	1.3	72	-3.2	0	0	986.8	NA	0.0000		9999	4860	0	0	0
2017/06/04 04:29:00	BASE	2.00	14	5.04	72	1.4	71	-3.2	0	0	986.8	NA	0.0000		9999	4890	0	0	0
2017/06/04 04:30:00	BASE	1.25	355	5.04	72	1.6	70	-3.3	0	0	986.7	NA	0.0000		9999	4990	0	0	0
2017/06/04 04:31:00	BASE	0.98	322	3.50	69	1.8	69	-3.4	0	0	986.7	NA	0.0000		9999	4950	0	0	0
2017/06/04 04:32:00	BASE	0.66	313	3.14	75	2.0	67	-3.5	0	0	986.7	NA	0.0000		9999	4990	0	0	0
2017/06/04 04:33:00	BASE	0.14	9	3.14	75	2.1	65	-3.7	0	0	986.8	NA	0.0000		9999	4920	0	0	0
2017/06/04 04:34:00	BASE	0.95	111	2.83	71	2.2	64	-3.9	0	0	986.7	NA	0.0000		9999	4860	0	0	0
2017/06/04 04:35:00	BASE	1.26	58	2.83	71	2.1	64	-4.0	0	0	986.7	NA	0.0000		9999	4760	0	0	0
2017/06/04 04:36:00	BASE	1.19	15	2.83	71	2.0	64	-4.0	0	0	986.7	NA	0.0000		9999	4720	0	0	0
2017/06/04 04:37:00	BASE	0.99	6	2.83	71	1.9	65	-4.0	0	0	986.7	NA	0.0000		9999	4660	15750	16600	0
2017/06/04 04:38:00	BASE	0.43	334	2.83	71	1.7	67	-3.9	0	0	986.7	NA	0.0000		9999	4790	15750	16630	0
2017/06/04 04:39:00	BASE	0.68	283	2.83	71	1.6	68	-3.8	0	0	986.7	NA	0.0000		9999	15750	16630	0	0
2017/06/04 04:40:00	BASE	0.92	251	2.83	71	1.5	68	-3.7	0	0	986.7	NA	0.0000		9999	15780	0	0	0
2017/06/04 04:41:00	BASE	1.82	209	3.96	150	1.6	68	-3.7	0	0	986.7	NA	0.0000		9999	15750	0	0	0
2017/06/04 04:42:00	BASE	3.33	124	4.99	23	1.7	67	-3.8	0	0	986.6	NA	0.0000		9999	15720	0	0	0
2017/06/04 04:43:00	BASE	5.00	65	8.90	67	1.8	66	-3.9	0	0	986.7	NA	0.0000		9999	15850	17290	0	0
2017/06/04 04:44:00	BASE	6.74	71	9.21	79	1.9	65	-3.9	0	0	986.6	NA	0.0000		9999	15780	17290	0	0
2017/06/04 04:45:00	BASE	7.63	78	9.93	92	1.9	65	-4.0	0	0	986.4	NA	0.0000		9999	15580	17290	0	0
2017/06/04 04:46:00	BASE	8.67	84	11.11	72	1.9	65	-4.0	0	0	986.5	NA	0.0000		9999	17260	0	0	0
2017/06/04 04:47:00	BASE	8.97	75	11.11	72	1.9	64	-4.1	0	0	986.6	NA	0.0000		9999	6140	15490	0	0
2017/06/04 04:48:00	BASE	6.81	70	11.11	72	1.9	64	-4.1	0	0	986.6	NA	0.0000		9999	5970	0	0	0
2017/06/04 04:49:00	BASE	6.75	67	11.11	72	1.8	64	-4.2	0	0	986.6	NA	0.0000		9999	5770	0	0	0
2017/06/04 04:50:00	BASE	7.46	62	11.11	72	1.7	65	-4.2	0	0	986.6	NA	0.0000		9999	5610	0	0	0
2017/06/04 04:51:00	BASE	5.89	56	11.11	72	1.6	65	-4.2	0	0	986.6	NA	0.0000		9999	5770	17420	0	0
2017/06/04 04:52:00	BASE	4.84	51	11.11	72	1.6	66	-4.2	0	0	986.6	NA	0.0000		9999	5810	17360	0	0
2017/06/04 04:53:00	BASE	4.34	40	11.11	72	1.5	66	-4.2	0	0	986.7	NA	0.0000		9999	5680	16600	17260	0
2017/06/04 04:54:00	BASE	3.80	29	11.11	72	1.4	67	-4.1	0	0	986.6	NA	0.0000		9999	5910	16700	0	0
2017/06/04 04:55:00	BASE	3.24	21	11.11	72	1.2	67	-4.1	0	0	986.7	NA	0.0000		9999	5910	0	0	0
2017/06/04 04:56:00	BASE	3.36	20	9.93	63	1.1	68	-4.1	0	0	986.7	NA	0.0000		9999	5970	0	0	0
2017/06/04 04:57:00	BASE	3.62	16	9.93	63	0.9	69	-4.2	0	0	986.6	NA	0.0000		9999	15980	0	0	0
2017/06/04 04:58:00	BASE	4.40	355	9.93	63	0.8	70	-4.1	0	0	986.5	NA	0.0000		9999	5940	16080	0	0
2017/06/04 04:59:00	BASE	5.96	347	8.39	341	0.7	70	-4.1	0	0	986.4	NA	0.0000		9999	4170	16040	0	0
2017/06/04 05:00:00	BASE	8.50	355	12.71	346	0.7	71	-4.1	0	0	986.3	NA	0.0000		9999	4070	0	0	0
2017/06/04 05:01:00	BASE	10.30	3	12.71	2	0.7	71	-4.0	0	0	986.2	NA	0.0000		9999	4100	0	0	0
2017/06/04 05:02:00	BASE	9.44	352	12.71	2	0.8	71	-3.9	0	0	986.3	NA	0.0000		9999	4070	0	0	0
2017/06/04 05:03:00	BASE	7.78	343	12.71	2	1.0	70	-3.9	0	0	986.2	NA	0.0000		9999	3640	0	0	0
2017/06/04 05:04:00	BASE	7.42	357	12.71	2	1.2	69	-3.8	0	0	986.2	NA	0.0000		9999	3640	0	0	0
2017/06/04 05:05:00	BASE	7.14	13	12.71	2	1.4	68	-3.9	0	0	986.4	NA	0.0000		9999	3770	4720	0	0
2017/06/04 05:06:00	BASE	6.10	31	12.71	2	1.5	67	-4.0	0	0	986.3	NA	0.0000		9999	4530	0	0	0
2017/06/04 05:07:00	BASE	8.11	32	13.38	15	1.5	67	-4.0	0	0	986.1	NA	0.0000		9999	4230	5020	0	0
2017/06/04 05:08:00	BASE	9.89	15	13.38	15	1.6	67	-4.0	0	0	986.0	NA	0.0000		9999	4100	0	0	0
2017/06/04 05:09:00	BASE	7.35	25	13.38	15	1.6	67	-4.0	0	0	986.1	NA	0.0000		9999	4040	0	0	0
2017/06/04 05:10:00	BASE	4.72	48	13.38	15	1.6	67	-3.9	0	0	986.0	NA	0.0000		9999	4000	0	0	0
2017/06/04 05:11:00	BASE	4.76	52	13.38	15	1.6	67	-3.9	0	0	986.1	NA	0.0000		9999	3310	3970	0	0
2017/06/04 05:12:00	BASE	6.55	54	13.38	15	1.6	67	-3.9	0	0	986.1	NA	0.0000		9999	3970	4690	0	0
2017/06/04 05:13:00	BASE	7.57	57	13.38	15	1.5	68	-3.8	0	0	986.1	NA	0.0000		9999	4300	15750	0	0
2017/06/04 05:14:00	BASE	7.21	64	13.38	15	1.4	68	-3.8	0	0	986.1	NA	0.0000		9999	15360	16240	0	0
2017/06/04 05:15:00	BASE	6.93	73	13.38	15	1.4	69	-3.7	0	0	986.0	NA	0.0000		9999	15030	0	0	0
2017/06/04 05:16:00	BASE	6.72	71	13.38	15	1.3	69	-3.7	0	0	986.1	NA	0.0000		9999	3580	4230	0	0
2017/06/04 05:17:00	BASE	6.82	67	11.47	2	1.3	70	-3.7	0	0	986.1	NA	0.0000		9999	3480	4660	0	0
2017/06/04 05:18:00	BASE	7.46	71	8.85	79	1.2	70	-3.7	0	0	986.2	NA	0.0000		9999	4790	0	0	0
2017/06/04 05:19:00	BASE	7.54	79	8.85	79	1.2	70	-3.6	0	0	986.2	NA	0.0000		9999	4630	14930	0	0
2017/06/04 05:20:00	BASE	7.06	82	8.85	79	1.2	71	-3.6	0	0	986.2	NA	0.0000		9999	15190	0	0	0
2017/06/04 05:21:00	BASE	6.24	76	8.85	79	1.2	71	-3.5	0	0	986.2	NA	0.0000		9999	15320	0	0	0
2017/06/04 05:22:00	BASE	5.86	65	8.85	79	1.2	71	-3.5	0	0	986.2	NA	0.0000		9999	15290	0	0	0
2017/06/04 05:23:00	BASE	6.76	56	8.85	79	1.3	71	-3.4	0	0	986.1	NA	0.0000		9999	15490	0	0	0
2017/06/04 05:24:00	BASE	7.84	55	9.88	71	1.3	70	-3.5	0	0	986.1	NA	0.0000		9999	15420	0	0	0
2017/06/04 05:25:00	BASE	8.44	63	9.88	71	1.5	69	-3.5	0	0	986.1	NA	0.0000		9999	15320	0	0	0
2017/06/04 05:26:00	BASE	7.83	70	9.88	71	1.6	68	-3.6	0	0	986.1	NA	0.0000		9999	15260	0	0	0
2017/06/04 05:27:00	BASE	7.11	69	9.88	71	1.7	67	-3.7	0	0	986.2	NA	0.0000		9999	15490	0	0	0
2017/06/04 05:28:00	BASE	8.23	70	10.34	73	1.7	67	-3.8	0	0	986.2	NA	0.0000		9999	15580	0	0	0
2017/06/04 05:29:00	BASE	9.11	71	10.34	73	1.8	66	-3.9	0	0	986.1	NA	0.0000		9999	15550	0	0	0
2017/06/04 05:30:00	BASE	8.68	76	10.34	73	1.8	66	-3.9	0	0	986.1	NA	0.0000		9999	15450	0	0	0
2017/06/04 05:31:00	BASE	8.26	80	10.34	73	1.8	65	-4.0	0	0	986.1	NA	0.0000		9999	15420	0	0	0
2017/06/04 05:32:00	BASE	7.86	79	10.34	73	1.9	65	-4.0	0	0	986.0	NA	0.0000		9999	15320	0	0	0
2017/06/04 05:33:00	BASE	8.15	86	11.11	97	1.9	65	-4.1	0	0	985.9	NA	0.0000		9999	15220	0	0	0
2017/06/04 05:34:00	BASE	8.64	94	12.09	95	1.9	64	-4.1	0	0	985.8	NA	0.0000		9999	15260	0	0	0
2017/06/04 05:35:00	BASE	9.32	95	12.91	86	1.9	64	-4.2	0	0	985.7	NA	0.0000		9999	15160	0	0	0
2017/06/04 05:36:00	BASE	10.67	87	14.35	83	1.8	64	-4.2	0	0	985.7	NA	0.0000		9999	15160	0	0	0
2017/06/04 05:37:00	BASE	10.48	80	14.35	83	1.8	64	-4.2	0	0	985.8	NA	0.0000		9999	15130	0	0	0
2017/06/04 05:38:00	BASE	9.29	77	14.35	83	1.7	65	-4.3	0	0	985.7	NA	0.0000		9999	15090	0	0	0
2017/06/04 05:39:00	BASE	9.23	76	14.35	83	1.6	65	-4.3	0	0	985.7	NA	0.0000		9999	15130	0	0	0
2017/06/04 05:40:00	BASE	9.25	75	14.35	83	1.6	65	-4.2	0	0	985.8	NA	0.0000		9999	15620	0	0	0
2017/06/04 05:41:00	BASE	8.61	77	14.35	83	1.5	66	-4.2	0	0	985.8	NA	0.0000		9999	15850	0	0	0
2017/06/04 05:42:00	BASE	8.32	78	14.35	83	1.5	66	-4.2	0	0	985.8	NA	0.0000		9999	18700	0	0	0
2017/06/04 05:43:00	BASE	8.77	78	14.35	83	1.4	67	-4.1	0	0	985.8	NA	0.0000		9999	18570	0	0	0
2017/06/04 05:44:00	BASE	8.85	77	14.35	83	1.4	67	-4.1	0	0	985.8	NA	0.0000		9999	18640	0	0	0
2017/06/04 05:45:00	BASE	7.66	78	14.35	83	1.3	67	-4.2	0	0	985.9	NA	0.0000		9999	18700	0	0	0
2017/06/04 05:46:00	BASE	5.82	78	12.40	72	1.3	67	-4.2	0	0	985.9	NA	0.0000		9999	18800	0	0	0
2017/06/04 05:47:00	BASE	5.25	70	11.68	66	1.2	67	-4.2	0	0	985.8	NA	0.0000		9999	18900	0	0	0
2017/06/04 05:48:00	BASE	6.04	68	11.68	66	1.1	67	-4.3	0	0	985.8	NA	0.0000		9999	19390	0	0	0
2017/06/04 05:49:00	BASE	8.43	66	11.68	71	1.0	68	-4.3	0	0	985.7	NA	0.0000		9999	19390	0	0	0
2017/06/04 05:50:00	BASE	10.28	56	11.68	71	0.9	68	-4.3	0	0	985.6	NA	0.0000		9999	19490	0	0	0
2017/06/04 05:51:00	BASE	9.75	54	11.68	71	0.9	69	-4.3	0	0	985.7	NA	0.0000		9999	19460	0	0	0
2017/06/04 05:52:00	BASE	9.24	59	12.04	58	0.9	69	-4.3	0	0	985.7	NA	0.0000		9999	19390	0	0	0
2017/06/04 05:53:00	BASE	9.50	58	12.04	58	0.9	69	-4.2	0	0	985.7	NA	0.0000		9999	0	0	0	0
2017/06/04 05:54:00	BASE	9.59	62	12.14	65	1.1	68	-4.2	0	0	985.7	NA	0.0000		9999	19520	0	0	0
2017/06/04 05:55:00	BASE	9.98	65	12.14	65	1.2	67	-4.1	0	0	985.7	NA	0.0000		9999	19520	0	0	0
2017/06/04 05:56:00	BASE	10.17	61	12.14	65	1.4	67	-4.2	0	0	985.7	NA	0.0000		9999	19550	0	0	0
2017/06/04 05:57:00	BASE	10.12	59	12.14	65	1.4	66	-4.3	0	0	985.7	NA	0.0000		9999	6860	0	0	0
2017/06/04 05:58:00	BASE	10.26	55	12.14	65	1.4	66	-4.4	0	0	985.6	NA	0.0000		9999	6760	0	0	0
2017/06/04 05:59:00	BASE	9.65	54	12.14	65	1.3	66	-4.4	0	0	985.7	NA	0.0000		9999	7480	0	0	0
2017/06/04 06:00:00	BASE	9.63	60	12.14	65	1.2	66	-4.4	0	0	985.6	NA	0.0000		9999	8040	0	0	0
2017/06/04 06:01:00	BASE	9.17	66	12.14	65	1.2	66	-4.4	0	0	985.6	NA	0.0000		9999	4330	0	0	0
2017/06/04 06:02:00	BASE	8.57	72	12.14	65	1.2	66	-4.3	0	0	985.7	NA	0.0000		9999	7420	0	0	0
2017/06/04 06:03:00	BASE	8.35	81	12.14	65	1.3	66	-4.3	0	0	985.6	NA	0.0000		9999	7120	0	0	0
2017/06/04 06:04:00	BASE	8.68	82	11.99	65	1.5	66	-4.2	0	0	985.6	NA	0.0000		9999	6630	7250	0	0
2017/06/04 06:05:00	BASE	8.63	76	11.47	46	1.6	65	-4.2	0	0	985.7	NA	0.0000		9999	7970	0	0	0
2017/06/04 06:06:00	BASE	8.58	74	11.47	46	1.8	64	-4.3	0	0	985.6	NA	0.0000		9999	7280	0	0	0
2017/06/04 06:07:00	BASE	9.29	83	11.21	61	1.9	64	-4.3	0	0	985.7	NA	0.0000		9999	6730	7250	0	0
2017/06/04 06:08:00	BASE	8.08	83	11.21	61	1.9	63	-4.3	0	0	985.8	NA	0.0000		9999	7480	8330	0	0
2017/06/04 06:09:00	BASE	7.73	72	11.21	61	2.0	62	-4.4	0	0	985.7	NA	0.0000		9999	7280	0	0	0
2017/06/04 06:10:00	BASE	8.29	75	11.01	69	2.1	62	-4.4	0	0	985.7	NA	0.0000		9999	2490	0	0	0
2017/06/04 06:11:00	BASE	8.05	70	11.01	69	2.2	61	-4.5	0	0	985.7	NA	0.0000		9999	5350	6730	0	0
2017/06/04 06:12:00	BASE	7.23	65	11.01	69	2.3	61	-4.5	0	0	985.8	NA	0.0000		9999	6920	0	0	0
2017/06/04 06:13:00	BASE	5.53	78	11.01	69	2.3	61	-4.5	0	0	985.8	NA	0.0000		9999	6960	0	0	0
2017/06/04 06:14:00	BASE	5.81	91	11.01	69	2.2	61	-4.4	0	0	985.7	NA	0.0000		9999	6760	0	0	0
2017/06/04 06:15:00	BASE	6.39	103	11.01	69	2.1	62	-4.4	0	0	985.6	NA	0.0000		9999	6860	0	0	0
2017/06/04 06:16:00	BASE	5.75	101	11.01	69	1.9	63	-4.3	0	0	985.6	NA	0.0000		9999	3670	0	0	0
2017/06/04 06:17:00	BASE	6.10	91	11.01	69	1.7	65	-4.2	0	0	985.7	NA	0.0000		9999	4000	0	0	0
2017/06/04 06:18:00	BASE	6.37	89	11.01	69	1.5	66	-4.1	0	0	985.6	NA	0.0000		9999	4490	0	0	0
2017/06/04 06:19:00	BASE	5.84	78	10.03	68	1.4	67	-4.1	0	0	985.6	NA	0.0000		9999	5090	0	0	0
2017/06/04 06:20:00	BASE	5.46	70	9.41	62	1.3	68	-4.0	0	0	985.6	NA	0.0000		9999	3710	0	0	0
2017/06/04 06:21:00	BASE	4.86	63	8.75	76	1.2	68	-3.9	0	0	985.6	NA	0.0000		9999	3770	0	0	0
2017/06/04 06:22:00	BASE	4.14	50	8.54	95	1.2	69	-3.9	0	0	985.6	NA	0.0000		9999	7680	0	0	0
2017/06/04 06:23:00	BASE	4.89	47	8.54	95	1.3	68	-3.8	0	0	985.6	NA	0.0000		9999	7580	0	0	0
2017/06/04 06:24:00	BASE	6.02	67	7.46	93	1.4	68	-3.9	0	0	985.6	NA	0.0000		9999	0	0	0	3540
2017/06/04 06:25:00	BASE	6.12	78	7.51	70	1.6	67	-3.9	0	0	985.6	NA	0.0000		9999	7810	0	0	0
2017/06/04 06:26:00	BASE	5.51	58	7.51	70	1.6	66	-4.0	0	0	985.7	NA	0.0000	UP	9999	1440	7870	0	0
2017/06/04 06:27:00	BASE	4.95	50	7.51	70	1.7	66	-4.1	0	0	985.7	NA	0.0000	UP	9999	1210	0	0	0
2017/06/04 06:28:00	BASE	4.47	69	7.51	70	1.6	65	-4.1	0	0	985.7	NA	0.0000	UP	9999	7580	0	0	0
2017/06/04 06:29:00	BASE	3.86	77	7.51	70	1.6	66	-4.2	0	0	985.7	NA	0.0000	UP	9999	7450	0	0	0
2017/06/04 06:30:00	BASE	4.36	73	7.51	70	1.6	66	-4.2	0	0	985.7	NA	0.0000	UP	9999	7580	0	0	0
2017/06/04 06:31:00	BASE	5.52	70	7.51	70	1.6	66	-4.2	0	0	985.7	NA	0.0000	UP	9999	8070	0	0	0
2017/06/04 06:32:00	BASE	5.96	60	7.51	70	1.6	66	-4.2	0	0	985.7	NA	0.0000	UP	9999	0	0	0	3280
2017/06/04 06:33:00	BASE	6.02	56	7.51	70	1.6	65	-4.2	0	0	985.7	NA	0.0000	UP	9999	8200	0	0	0
2017/06/04 06:34:00	BASE	6.21	56	7.51	70	1.6	65	-4.3	0	0	985.8	NA	0.0000	UP	9999	8330	0	0	0
2017/06/04 06:35:00	BASE	6.21	57	7.25	62	1.6	64	-4.4	0	0	985.8	NA	0.0000	UP	9999	0	0	0	3350
2017/06/04 06:36:00	BASE	6.47	56	7.92	35	1.6	64	-4.4	0	0	985.8	NA	0.0000	UP	9999	0	0	0	3050
2017/06/04 06:37:00	BASE	6.84	50	7.92	35	1.6	65	-4.3	0	0	985.8	NA	0.0000	UP	9999	0	0	0	3150
2017/06/04 06:38:00	BASE	6.93	49	9.00	46	1.5	66	-4.2	0	0	985.7	NA	0.0000	UP	9999	0	0	0	3150
2017/06/04 06:39:00	BASE	7.52	50	9.41	56	1.4	67	-4.1	0	0	985.7	NA	0.0000	UP	9999	0	0	0	2850
2017/06/04 06:40:00	BASE	8.37	50	9.77	52	1.3	68	-3.9	0	0	985.6	NA	0.0000	UP	9999	0	0	0	2590
2017/06/04 06:41:00	BASE	8.60	52	9.77	52	1.3	69	-3.7	0	0	985.6	NA	0.0000	UP	8000	0	0	0	2790
2017/06/04 06:42:00	BASE	8.06	51	9.77	52	1.3	70	-3.5	0	0	985.7	NA	0.0000	UP	8000	0	0	0	3840
2017/06/04 06:43:00	BASE	7.68	48	9.77	52	1.3	71	-3.4	0	0	985.6	NA	0.0000	UP	8000	0	0	0	3640
2017/06/04 06:44:00	BASE	7.91	52	10.60	62	1.3	71	-3.3	0	0	985.6	NA	0.0000	UP	9000	0	0	0	2590
2017/06/04 06:45:00	BASE	8.81	55	11.01	51	1.4	72	-3.2	0	0	985.6	NA	0.0000	UP	9999	0	0	0	2690
2017/06/04 06:46:00	BASE	9.43	55	11.01	51	1.4	72	-3.2	0	0	985.6	NA	0.0000	UP	9000	0	0	0	4590
2017/06/04 06:47:00	BASE	9.47	59	11.01	51	1.4	71	-3.2	0	0	985.6	NA	0.0000	UP	9000	0	0	0	4040
2017/06/04 06:48:00	BASE	9.36	59	11.01	51	1.5	71	-3.2	0	0	985.6	NA	0.0000	UP	9999	0	0	0	4040
2017/06/04 06:49:00	BASE	8.85	55	11.01	51	1.5	70	-3.3	0	0	985.7	NA	0.0000	UP	9999	0	0	0	3580
2017/06/04 06:50:00	BASE	8.06	55	11.01	51	1.5	70	-3.4	0	0	985.7	NA	0.0000	UP	9999	0	0	0	3540
2017/06/04 06:51:00	BASE	7.86	62	11.01	51	1.5	70	-3.5	0	0	985.7	NA	0.0000	UP	9999	1280	0	0	0
2017/06/04 06:52:00	BASE	8.22	66	11.01	51	1.4	70	-3.5	0	0	985.7	NA	0.0000	UP	9999	0	0	0	3410
2017/06/04 06:53:00	BASE	7.78	58	11.01	51	1.4	70	-3.4	0	0	985.7	NA	0.0000	UP	9000	0	0	0	3640
2017/06/04 06:54:00	BASE	7.22	52	11.01	51	1.4	71	-3.3	0	0	985.7	NA	0.0000	UP	8000	0	0	0	2990
2017/06/04 06:55:00	BASE	7.77	55	10.80	62	1.4	71	-3.2	0	0	985.7	NA	0.0000	UP	9000	0	0	0	3050
2017/06/04 06:56:00	BASE	8.26	56	10.34	42	1.4	71	-3.2	0	0	985.6	NA	0.0000	UP	7000	0	0	0	2590
2017/06/04 06:57:00	BASE	8.44	56	10.34	42	1.4	72	-3.2	0	0	985.6	NA	0.0000	UP	5000	300	0	0	0
2017/06/04 06:58:00	BASE	8.31	60	10.34	42	1.3	72	-3.1	0	0	985.6	NA	0.0000	UP	4400	0	0	0	2200
2017/06/04 06:59:00	BASE	8.11	62	10.34	42	1.3	73	-3.1	0	0	985.5	NA	0.0000	-SN	3400	0	0	0	1970
2017/06/04 07:00:00	BASE	8.18	63	10.34	42	1.2	74	-3.0	0	0	985.5	NA	0.0000	-SN	2900	0	0	0	2030
2017/06/04 07:01:00	BASE	8.03	65	10.34	42	1.1	74	-2.9	0	0	985.6	NA	0.0000	-SN	2900	330	0	0	0
2017/06/04 07:02:00	BASE	8.47	66	10.34	42	1.1	75	-2.9	0	0	985.5	NA	0.0000	-SN	3300	330	0	0	0
2017/06/04 07:03:00	BASE	8.88	63	10.34	42	1.1	75	-2.9	0	0	985.4	NA	0.0000	-SN	2700	0	0	0	1710
2017/06/04 07:04:00	BASE	8.84	62	10.34	42	1.0	75	-2.9	0	0	985.4	NA	0.0000	-SN	2100	0	0	0	1940
2017/06/04 07:05:00	BASE	8.81	59	10.34	48	1.0	75	-2.8	0	0	985.5	NA	0.0000	-SN	1600	0	0	0	2070
2017/06/04 07:06:00	BASE	8.75	58	10.34	48	1.0	76	-2.8	0	0	985.4	NA	0.0000	-SN	1600	0	0	0	1900
2017/06/04 07:07:00	BASE	8.76	58	10.34	48	1.0	76	-2.8	0	0	985.4	NA	0.0000	-SN	1800	0	0	0	1800
2017/06/04 07:08:00	BASE	8.41	56	10.34	48	1.0	76	-2.7	0	0	985.4	NA	0.0000	-SN	1500	0	0	0	1800
2017/06/04 07:09:00	BASE	8.25	52	10.34	48	1.0	77	-2.7	0	0	985.4	NA	0.0000	-SN	1500	0	0	0	1510
2017/06/04 07:10:00	BASE	8.57	48	10.34	48	0.9	77	-2.6	0	0	985.4	NA	0.0000	-SN	1200	0	0	0	1350
2017/06/04 07:11:00	BASE	9.05	47	10.55	43	0.9	78	-2.5	0	0	985.4	NA	0.0000	-SN	1200	260	0	0	0
2017/06/04 07:12:00	BASE	9.47	48	10.65	46	0.9	78	-2.5	0	0	985.3	NA	0.0000	-SN	1100	0	0	0	2260
2017/06/04 07:13:00	BASE	10.11	49	12.55	42	0.9	79	-2.4	0	0	985.3	NA	0.0000	-SN	1000	300	0	0	0
2017/06/04 07:14:00	BASE	10.73	48	12.55	59	0.9	79	-2.3	0	0	985.3	NA	0.0000	-SN	1300	0	0	0	1970
2017/06/04 07:15:00	BASE	10.83	48	12.55	59	0.9	80	-2.2	0	0	985.2	NA	0.0000	-SN	1500	0	0	0	1940
2017/06/04 07:16:00	BASE	11.25	47	12.55	45	0.9	80	-2.2	0	0	985.2	NA	0.0000	-SN	1400	260	0	0	0
2017/06/04 07:17:00	BASE	11.33	48	12.60	46	0.9	80	-2.2	0	0	985.2	NA	0.0000	-SN	1300	260	0	0	0
2017/06/04 07:18:00	BASE	11.33	50	12.60	46	0.9	80	-2.2	0	0	985.2	NA	0.0000	-SN	1400	0	0	0	1540
2017/06/04 07:19:00	BASE	11.39	50	12.60	46	0.9	80	-2.2	0	0	985.2	NA	0.0000	-SN	1400	300	0	0	0
2017/06/04 07:20:00	BASE	11.38	49	13.74	43	0.9	80	-2.2	0	0	985.2	NA	0.0000	-SN	1500	0	0	0	1410
2017/06/04 07:21:00	BASE	11.70	48	13.74	43	0.9	80	-2.2	0	0	985.2	NA	0.0000	-SN	2300	330	0	0	0
2017/06/04 07:22:00	BASE	12.00	48	13.74	45	0.9	80	-2.1	0	0	985.2	NA	0.0000	-SN	2000	230	0	0	0
2017/06/04 07:23:00	BASE	11.83	49	13.74	45	0.9	80	-2.1	0	0	985.2	NA	0.0000	-SN	1600	7380	0	0	0
2017/06/04 07:24:00	BASE	11.33	49	13.74	45	0.9	80	-2.1	0	0	985.2	NA	0.0000	-SN	2600	3450	0	0	0
2017/06/04 07:25:00	BASE	10.99	51	13.74	45	0.9	80	-2.1	0	0	985.2	NA	0.0000	-SN	4100	3450	0	0	0
2017/06/04 07:26:00	BASE	11.09	56	13.74	45	0.9	80	-2.1	0	0	985.2	NA	0.0000	-SN	7000	3150	0	0	0
2017/06/04 07:27:00	BASE	11.19	59	13.74	45	0.9	81	-2.0	0	0	985.2	NA	0.0000	-SN	9999	2620	0	0	0
2017/06/04 07:28:00	BASE	10.62	61	13.74	45	0.9	81	-2.0	0	0	985.2	NA	0.0000	-SN	9999	0	0	0	4270
2017/06/04 07:29:00	BASE	10.25	65	13.74	45	0.9	81	-2.0	0	0	985.2	NA	0.0000	-SN	9999	0	0	0	4360
2017/06/04 07:30:00	BASE	9.63	68	13.74	45	0.9	81	-2.0	0	0	985.2	NA	0.0000	-SN	9999	0	0	0	3080
2017/06/04 07:31:00	BASE	8.60	65	13.74	45	0.9	81	-2.1	0	0	985.3	NA	0.0000	-SN	9999	430	0	0	0
2017/06/04 07:32:00	BASE	8.34	55	13.38	39	0.9	80	-2.1	0	0	985.2	NA	0.0000	-SN	9000	0	0	0	950
2017/06/04 07:33:00	BASE	9.60	44	13.12	44	0.9	80	-2.1	0	0	985.1	NA	0.0000	-SN	7000	0	0	0	2950
2017/06/04 07:34:00	BASE	11.97	39	14.40	40	0.9	80	-2.1	0	0	984.9	NA	0.0000	-SN	9999	0	0	0	2590
2017/06/04 07:35:00	BASE	13.06	34	14.40	40	0.9	80	-2.1	0	0	984.9	NA	0.0000	-SN	9999	590	0	0	0
2017/06/04 07:36:00	BASE	12.88	30	14.40	40	1.0	80	-2.1	0	0	984.9	NA	0.0000	-SN	6000	0	0	0	2100
2017/06/04 07:37:00	BASE	13.83	27	18.47	17	1.0	80	-2.1	0	0	984.7	NA	0.0000	-SN	3300	300	0	0	0
2017/06/04 07:38:00	BASE	14.57	24	18.47	17	1.1	80	-2.0	0	0	984.7	NA	0.0000	-SN	2100	260	0	0	0
2017/06/04 07:39:00	BASE	15.03	22	18.47	17	1.1	80	-2.0	0	0	984.6	NA	0.0000	-SN	1500	360	0	0	0
2017/06/04 07:40:00	BASE	15.67	22	18.47	17	1.2	79	-2.0	0	0	984.6	NA	0.0000	-SN	1900	390	0	0	0
2017/06/04 07:41:00	BASE	15.04	23	18.47	17	1.2	79	-2.1	0	0	984.6	NA	0.0000	-SN	2700	330	0	0	0
2017/06/04 07:42:00	BASE	15.08	20	18.47	17	1.2	79	-2.1	0	0	984.5	NA	0.0000	-SN	2600	360	0	0	0
2017/06/04 07:43:00	BASE	14.93	20	18.47	17	1.2	78	-2.1	0	0	984.6	NA	0.0000	-SN	3100	300	0	0	0
2017/06/04 07:44:00	BASE	14.82	20	18.47	17	1.2	78	-2.2	0	0	984.5	NA	0.0000	-SN	3100	0	0	0	1740
2017/06/04 07:45:00	BASE	15.44	19	18.47	17	1.2	78	-2.2	0	0	984.5	NA	0.0000	-SN	4400	9810	0	0	0
2017/06/04 07:46:00	BASE	14.68	18	18.47	17	1.3	78	-2.2	0	0	984.5	NA	0.0000	-SN	9999	9550	0	0	0
2017/06/04 07:47:00	BASE	14.86	18	19.09	14	1.3	78	-2.1	0	0	984.4	NA	0.0000	-SN	7000	9610	12570	0	0
2017/06/04 07:48:00	BASE	16.47	19	20.78	23	1.3	78	-2.2	0	0	984.3	NA	0.0000	-SN	4700	12600	0	0	0
2017/06/04 07:49:00	BASE	16.12	20	20.78	23	1.3	78	-2.1	0	0	984.4	NA	0.0000	-SN	6000	7580	12530	0	0
2017/06/04 07:50:00	BASE	15.75	20	20.78	23	1.3	78	-2.2	0	0	984.3	NA	0.0000	-SN	9000	12600	15390	0	0
2017/06/04 07:51:00	BASE	16.25	21	20.78	23	1.2	78	-2.3	0	0	984.3	NA	0.0000	-SN	9999	12430	15420	0	0
2017/06/04 07:52:00	BASE	16.39	20	20.78	23	1.2	77	-2.3	0	0	984.3	NA	0.0000	-SN	9999	12760	15290	0	0
2017/06/04 07:53:00	BASE	16.55	17	20.78	23	1.2	77	-2.3	0	0	984.3	NA	0.0000	-SN	9999	12890	0	0	0
2017/06/04 07:54:00	BASE	16.47	16	20.78	23	1.2	77	-2.4	0	0	984.3	NA	0.0000	-SN	9999	12860	0	0	0
2017/06/04 07:55:00	BASE	16.27	16	20.78	23	1.2	77	-2.4	0	0	984.3	NA	0.0000	-SN	9999	12990	0	0	0
2017/06/04 07:56:00	BASE	15.64	19	20.78	23	1.2	77	-2.4	0	0	984.3	NA	0.0000	-SN	8000	13350	0	0	0
2017/06/04 07:57:00	BASE	15.38	19	20.78	23	1.2	77	-2.3	0	0	984.3	NA	0.0000	-SN	9999	13290	0	0	0
2017/06/04 07:58:00	BASE	15.74	17	20.27	12	1.2	78	-2.3	0	0	984.2	NA	0.0000	-SN	9999	0	0	0	720
2017/06/04 07:59:00	BASE	15.52	15	20.27	12	1.1	78	-2.3	0	0	984.3	NA	0.0000	-SN	9999	7510	9120	0	0
2017/06/04 08:00:00	BASE	15.19	16	20.27	12	1.1	78	-2.2	0	0	984.3	NA	0.0000	-SN	9999	7510	9420	0	0
2017/06/04 08:01:00	BASE	15.38	19	20.27	12	1.1	79	-2.2	0	0	984.3	NA	0.0000	-SN	9999	7190	0	0	0
2017/06/04 08:02:00	BASE	15.11	19	20.27	12	1.1	79	-2.2	0	0	984.3	NA	0.0000	-SN	9999	14930	0	0	0
2017/06/04 08:03:00	BASE	14.92	17	20.27	12	1.1	79	-2.1	0	0	984.3	NA	0.0000	-SN	9999	7280	0	0	0
2017/06/04 08:04:00	BASE	16.23	18	19.45	23	1.1	79	-2.1	0	0	984.2	NA	0.0000	-SN	9999	14860	0	0	0
2017/06/04 08:05:00	BASE	15.99	18	19.45	23	1.1	79	-2.1	0	0	984.3	NA	0.0000	-SN	5000	300	14760	0	0
2017/06/04 08:06:00	BASE	15.26	18	19.45	23	1.1	79	-2.1	0	0	984.2	NA	0.0000	-SN	4500	14670	0	0	0
2017/06/04 08:07:00	BASE	15.99	20	19.86	23	1.1	79	-2.1	0	0	984.2	NA	0.0000	-SN	7000	9420	14500	0	0
2017/06/04 08:08:00	BASE	15.75	20	19.86	23	1.1	79	-2.1	0	0	984.2	NA	0.0000	-SN	9999	8660	0	0	0
2017/06/04 08:09:00	BASE	16.25	17	19.86	23	1.1	79	-2.1	0	0	984.1	NA	0.0000	-SN	9999	7640	8530	0	0
2017/06/04 08:10:00	BASE	16.26	14	19.86	23	1.1	80	-2.0	0	0	984.1	NA	0.0000	-SN	9999	8530	0	0	0
2017/06/04 08:11:00	BASE	16.13	15	19.86	23	1.1	80	-2.0	0	0	984.1	NA	0.0000	-SN	9999	8560	0	0	0
2017/06/04 08:12:00	BASE	17.22	17	19.86	23	1.1	80	-2.0	0	0	984.1	NA	0.0000	-SN	9999	8370	0	0	0
2017/06/04 08:13:00	BASE	17.51	17	19.86	23	1.1	80	-2.0	0	0	984.1	NA	0.0000	-SN	9999	8270	0	0	0
2017/06/04 08:14:00	BASE	17.10	14	19.86	23	1.1	80	-2.0	0	0	984.1	NA	0.0000	-SN	9999	8200	0	0	0
2017/06/04 08:15:00	BASE	16.64	13	19.86	23	1.1	80	-2.0	0	0	984.1	NA	0.0000	-SN	9999	8270	0	0	0
2017/06/04 08:16:00	BASE	16.46	12	19.86	23	1.1	80	-2.0	0	0	984.1	NA	0.0000	-SN	9999	8040	0	0	0
2017/06/04 08:17:00	BASE	16.54	13	19.70	11	1.1	80	-2.0	0	0	984.1	NA	0.0000	-SN	9999	8400	0	0	0
2017/06/04 08:18:00	BASE	16.48	14	19.70	11	1.1	80	-2.0	0	0	984.1	NA	0.0000	-SN	9999	8370	0	0	0
2017/06/04 08:19:00	BASE	15.95	13	19.70	11	1.1	80	-2.0	0	0	984.1	NA	0.0000	-SN	9999	8400	9150	14240	0
2017/06/04 08:20:00	BASE	16.03	17	19.70	11	1.1	80	-2.0	0	0	984.1	NA	0.0000	-SN	9999	8370	14270	0	0
2017/06/04 08:21:00	BASE	16.01	17	19.70	11	1.1	80	-2.0	0	0	984.1	NA	0.0000	-SN	9999	8430	14830	0	0
2017/06/04 08:22:00	BASE	15.74	15	19.70	11	1.1	80	-2.0	0	0	984.1	NA	0.0000	-SN	9999	8460	0	0	0
2017/06/04 08:23:00	BASE	15.27	13	19.70	11	1.1	79	-2.1	0	0	984.2	NA	0.0000	-SN	9999	8660	15130	0	0
2017/06/04 08:24:00	BASE	14.94	14	19.70	11	1.1	79	-2.1	0	0	984.2	NA	0.0000	-SN	9999	8530	0	0	0
2017/06/04 08:25:00	BASE	15.59	15	19.70	11	1.1	79	-2.1	0	0	984.2	NA	0.0000	-SN	9999	8530	0	0	0
2017/06/04 08:26:00	BASE	15.81	15	19.70	11	1.1	80	-2.1	0	0	984.1	NA	0.0000	-SN	9999	8370	0	0	0
2017/06/04 08:27:00	BASE	14.71	14	18.98	18	1.1	80	-2.0	0	0	984.2	NA	0.0000	-SN	9999	8400	16080	0	0
2017/06/04 08:28:00	BASE	14.09	10	18.98	18	1.1	80	-2.0	0	0	984.2	NA	0.0000	-SN	9999	8660	16080	0	0
2017/06/04 08:29:00	BASE	14.06	10	18.98	18	1.1	80	-2.0	0	0	984.2	NA	0.0000	-SN	9999	8430	0	0	0
2017/06/04 08:30:00	BASE	15.10	10	18.98	18	1.1	80	-2.0	0	0	984.1	NA	0.0000	-SN	9999	8330	0	0	0
2017/06/04 08:31:00	BASE	15.30	10	18.88	17	1.1	80	-2.0	0	0	984.2	NA	0.0000	-SN	9999	8300	0	0	0
2017/06/04 08:32:00	BASE	15.16	7	18.78	20	1.0	80	-2.0	0	0	984.1	NA	0.0000	-SN	9999	8300	16600	0	0
2017/06/04 08:33:00	BASE	16.20	8	18.78	20	1.0	80	-2.0	0	0	984.2	NA	0.0000	-SN	9999	8240	0	0	0
2017/06/04 08:34:00	BASE	15.77	10	18.78	20	1.0	80	-2.0	0	0	984.2	NA	0.0000	-SN	9999	8170	0	0	0
2017/06/04 08:35:00	BASE	15.23	10	18.31	14	1.0	80	-2.0	0	0	984.2	NA	0.0000	-SN	9999	8100	0	0	0
2017/06/04 08:36:00	BASE	15.62	10	18.31	14	1.0	80	-2.1	0	0	984.2	NA	0.0000		9999	8100	17290	0	0
2017/06/04 08:37:00	BASE	15.45	8	18.31	14	1.0	80	-2.0	0	0	984.3	NA	0.0000		9999	7870	0	0	0
2017/06/04 08:38:00	BASE	14.91	8	18.31	14	1.0	80	-2.0	0	0	984.3	NA	0.0000		9999	7870	0	0	0
2017/06/04 08:39:00	BASE	14.80	9	18.31	14	1.0	80	-2.0	0	0	984.3	NA	0.0000		9999	7940	0	0	0
2017/06/04 08:40:00	BASE	14.52	8	18.31	14	1.1	80	-2.0	0	0	984.3	NA	0.0000		9999	0	0	0	0
2017/06/04 08:41:00	BASE	14.67	8	18.31	14	1.1	80	-2.0	0	0	984.3	NA	0.0000		9999	0	0	0	0
2017/06/04 08:42:00	BASE	14.74	6	18.31	14	1.1	80	-2.0	0	0	984.3	NA	0.0000		9999	0	0	0	520
2017/06/04 08:43:01	BASE	15.09	3	18.21	18	1.1	80	-2.0	0	0	984.4	NA	0.0000	-SN	9999	0	0	0	2200
2017/06/04 08:44:00	BASE	15.55	2	18.16	8	1.1	80	-2.0	0	0	984.3	NA	0.0000	-SN	9999	0	0	0	2170
2017/06/04 08:45:00	BASE	15.51	1	18.16	8	1.1	79	-2.1	0	0	984.4	NA	0.0000	-SN	9999	0	0	0	690
2017/06/04 08:46:00	BASE	15.42	0	17.23	12	1.1	79	-2.1	0	0	984.4	NA	0.0000	-SN	9999	0	0	0	560
2017/06/04 08:47:00	BASE	14.85	1	17.23	12	1.1	79	-2.1	0	0	984.4	NA	0.0000	-SN	9999	0	0	0	2920
2017/06/04 08:48:00	BASE	14.16	358	17.23	12	1.0	80	-2.1	0	0	984.5	NA	0.0000	-SN	9999	0	0	0	4720
2017/06/04 08:49:00	BASE	13.55	352	17.23	12	1.0	80	-2.1	0	0	984.5	NA	0.0000	-SN	9999	0	0	0	3810
2017/06/04 08:50:00	BASE	13.00	352	17.18	306	0.9	80	-2.1	0	0	984.6	NA	0.0000	-SN	9999	0	0	0	3450
2017/06/04 08:51:00	BASE	12.64	356	17.18	306	0.9	81	-2.1	0	0	984.6	NA	0.0000	-SN	9999	0	0	0	3810
2017/06/04 08:52:00	BASE	12.82	353	17.18	306	0.8	81	-2.1	0	0	984.6	NA	0.0000	-SN	9999	0	0	0	4360
2017/06/04 08:53:00	BASE	12.93	352	16.51	5	0.8	82	-2.0	0	0	984.6	NA	0.0000		9999	0	0	0	820
2017/06/04 08:54:00	BASE	11.88	351	16.41	6	0.8	82	-1.9	0	0	984.7	NA	0.0000		9999	0	0	0	1610
2017/06/04 08:55:00	BASE	11.37	351	16.41	6	0.8	83	-1.8	0	0	984.7	NA	0.0000		9999	0	0	0	1020
2017/06/04 08:56:00	BASE	11.81	355	15.54	172	0.8	83	-1.7	0	0	984.7	NA	0.0000		9999	0	0	0	890
2017/06/04 08:57:00	BASE	12.19	355	14.87	1	0.8	84	-1.7	0	0	984.7	NA	0.0000		9999	0	0	0	850
2017/06/04 08:58:00	BASE	12.51	351	14.35	349	0.7	84	-1.7	0	0	984.6	NA	0.0000		9999	0	0	0	520
2017/06/04 08:59:00	BASE	12.35	352	14.51	349	0.7	84	-1.7	0	0	984.6	NA	0.0000		9999	0	0	0	0
2017/06/04 09:00:00	BASE	12.35	348	14.51	349	0.7	84	-1.7	0	0	984.6	NA	0.0000		9999	0	0	0	820
2017/06/04 09:01:00	BASE	12.72	350	14.51	349	0.6	84	-1.8	0	0	984.6	NA	0.0000		9999	0	0	0	560
2017/06/04 09:02:00	BASE	13.16	354	14.51	1	0.6	84	-1.8	0	0	984.6	NA	0.0000		9999	0	0	0	2400
2017/06/04 09:03:00	BASE	13.28	352	14.51	1	0.6	84	-1.8	0	0	984.6	NA	0.0000		9999	0	0	0	1280
2017/06/04 09:04:00	BASE	13.03	354	14.51	1	0.6	84	-1.8	0	0	984.6	NA	0.0000		9999	0	0	0	850
2017/06/04 09:05:00	BASE	12.81	353	14.51	1	0.6	84	-1.8	0	0	984.7	NA	0.0000		9999	0	0	0	590
2017/06/04 09:06:00	BASE	12.34	354	14.51	1	0.6	84	-1.8	0	0	984.7	NA	0.0000		9999	0	0	0	1210
2017/06/04 09:07:00	BASE	12.66	355	15.07	2	0.6	84	-1.8	0	0	984.6	NA	0.0000		9999	0	0	0	950
2017/06/04 09:08:00	BASE	13.52	346	15.95	347	0.6	84	-1.8	0	0	984.6	NA	0.0000		9999	0	0	0	620
2017/06/04 09:09:00	BASE	13.38	351	15.95	347	0.6	84	-1.8	0	0	984.7	NA	0.0000		9999	13480	0	0	0
2017/06/04 09:10:00	BASE	13.07	355	15.95	347	0.6	84	-1.8	0	0	984.6	NA	0.0000		9999	13450	0	0	0
2017/06/04 09:11:00	BASE	13.13	350	15.95	347	0.6	84	-1.8	0	0	984.7	NA	0.0000		9999	13420	0	0	0
2017/06/04 09:12:00	BASE	12.90	352	15.95	347	0.6	84	-1.8	0	0	984.7	NA	0.0000		9999	0	0	0	0
2017/06/04 09:13:00	BASE	12.68	354	15.95	347	0.6	84	-1.8	0	0	984.6	NA	0.0000		9999	0	0	0	0
2017/06/04 09:14:00	BASE	12.55	353	15.95	347	0.6	84	-1.8	0	0	984.7	NA	0.0000		9999	12270	13450	0	0
2017/06/04 09:15:00	BASE	12.40	352	15.95	347	0.6	84	-1.8	0	0	984.7	NA	0.0000		9999	12210	13450	0	0
2017/06/04 09:16:00	BASE	11.65	351	15.95	347	0.6	84	-1.8	0	0	984.7	NA	0.0000		9999	12170	13520	0	0
2017/06/04 09:17:00	BASE	11.88	349	15.95	347	0.6	84	-1.8	0	0	984.6	NA	0.0000		9999	12170	13160	0	0
2017/06/04 09:18:00	BASE	13.49	349	15.48	349	0.6	84	-1.8	0	0	984.6	NA	0.0000		9999	12240	0	0	0
2017/06/04 09:19:00	BASE	14.32	355	15.48	349	0.6	84	-1.8	0	0	984.6	NA	0.0000		9999	12270	0	0	0
2017/06/04 09:20:00	BASE	14.16	357	15.48	349	0.6	84	-1.8	0	0	984.6	NA	0.0000		9999	12340	0	0	0
2017/06/04 09:21:00	BASE	13.68	355	15.48	349	0.6	83	-1.9	0	0	984.6	NA	0.0000		9999	12300	0	0	0
2017/06/04 09:22:00	BASE	13.35	357	15.48	349	0.7	83	-1.9	0	0	984.6	NA	0.0000		9999	12210	12730	0	0
2017/06/04 09:23:00	BASE	13.58	359	15.48	349	0.7	83	-1.9	0	0	984.6	NA	0.0000		9999	12170	12760	0	0
2017/06/04 09:24:00	BASE	13.93	358	15.48	349	0.7	83	-1.9	0	0	984.6	NA	0.0000		9999	12170	12760	0	0
2017/06/04 09:25:00	BASE	13.50	352	15.48	349	0.7	83	-1.9	0	0	984.6	NA	0.0000		9999	7870	12430	13390	0
2017/06/04 09:26:00	BASE	12.78	353	15.48	349	0.7	83	-1.9	0	0	984.6	NA	0.0000		9999	7810	12340	13350	0
2017/06/04 09:27:00	BASE	13.04	354	15.74	1	0.7	83	-1.9	0	0	984.6	NA	0.0000		9999	12270	13190	0	0
2017/06/04 09:28:00	BASE	13.64	358	15.74	1	0.7	83	-1.9	0	0	984.6	NA	0.0000		9999	8690	12270	13260	0
2017/06/04 09:29:00	BASE	13.78	2	15.74	1	0.7	83	-1.9	0	0	984.5	NA	0.0000		9999	7940	8560	12240	0
2017/06/04 09:30:00	BASE	13.70	359	15.74	1	0.7	82	-2.0	0	0	984.5	NA	0.0000		9999	7970	8630	0	0
2017/06/04 09:31:00	BASE	13.90	355	15.74	1	0.7	82	-2.0	0	0	984.5	NA	0.0000		9999	8010	8560	11780	0
2017/06/04 09:32:00	BASE	13.70	359	15.74	1	0.7	82	-2.1	0	0	984.5	NA	0.0000		9999	8660	11750	0	0
2017/06/04 09:33:00	BASE	13.80	3	15.74	1	0.6	82	-2.1	0	0	984.5	NA	0.0000		9999	10110	11750	0	0
2017/06/04 09:34:00	BASE	14.63	2	15.84	2	0.6	82	-2.1	0	0	984.4	NA	0.0000		9999	9680	11060	11810	0
2017/06/04 09:35:00	BASE	14.81	2	15.95	344	0.6	82	-2.1	0	0	984.4	NA	0.0000		9999	9380	0	0	0
2017/06/04 09:36:00	BASE	14.39	360	15.95	344	0.6	82	-2.1	0	0	984.5	NA	0.0000		9999	9150	0	0	0
2017/06/04 09:37:00	BASE	14.34	358	16.20	1	0.6	82	-2.1	0	0	984.4	NA	0.0000		9999	9060	0	0	0
2017/06/04 09:38:00	BASE	14.25	357	16.20	1	0.6	82	-2.1	0	0	984.5	NA	0.0000		9999	8920	0	0	0
2017/06/04 09:39:00	BASE	13.77	357	16.20	1	0.6	82	-2.1	0	0	984.5	NA	0.0000		9999	8760	0	0	0
2017/06/04 09:40:00	BASE	14.25	359	16.20	1	0.6	82	-2.1	0	0	984.4	NA	0.0000		9999	8790	0	0	0
2017/06/04 09:41:00	BASE	14.89	3	16.82	4	0.6	82	-2.1	0	0	984.3	NA	0.0000		9999	8690	0	0	0
2017/06/04 09:42:00	BASE	15.28	0	16.87	2	0.6	82	-2.1	0	0	984.3	NA	0.0000		9999	8530	0	0	0
2017/06/04 09:43:00	BASE	15.97	1	17.18	360	0.6	82	-2.2	0	0	984.2	NA	0.0000		9999	7320	0	0	0
2017/06/04 09:44:00	BASE	16.33	4	17.18	360	0.6	82	-2.2	0	0	984.2	NA	0.0000		9999	7450	8990	0	0
2017/06/04 09:45:00	BASE	15.87	2	17.18	360	0.6	81	-2.2	0	0	984.3	NA	0.0000		9999	8240	9220	0	0
2017/06/04 09:46:00	BASE	15.52	358	17.44	324	0.6	81	-2.3	0	0	984.3	NA	0.0000		9999	7780	0	0	0
2017/06/04 09:47:00	BASE	15.50	358	17.44	324	0.6	81	-2.3	0	0	984.3	NA	0.0000		9999	7710	8890	0	0
2017/06/04 09:48:00	BASE	15.59	1	17.44	324	0.6	81	-2.3	0	0	984.4	NA	0.0000		9999	7740	0	0	0
2017/06/04 09:49:00	BASE	15.60	2	17.44	324	0.6	81	-2.3	0	0	984.5	NA	0.0000		9999	7150	0	0	0
2017/06/04 09:50:00	BASE	14.75	5	17.44	324	0.6	81	-2.3	0	0	984.5	NA	0.0000		9999	6990	0	0	0
2017/06/04 09:51:00	BASE	14.38	360	17.44	353	0.6	81	-2.3	0	0	984.5	NA	0.0000		9999	7020	7680	0	0
2017/06/04 09:52:00	BASE	14.41	352	17.44	353	0.6	81	-2.3	0	0	984.5	NA	0.0000		9999	7740	0	0	0
2017/06/04 09:53:00	BASE	14.59	357	17.44	353	0.6	81	-2.3	0	0	984.5	NA	0.0000		9999	8330	8790	0	0
2017/06/04 09:54:00	BASE	15.00	2	17.44	353	0.6	81	-2.3	0	0	984.5	NA	0.0000		9999	7710	0	0	0
2017/06/04 09:55:00	BASE	14.59	1	17.44	353	0.6	81	-2.3	0	0	984.6	NA	0.0000		9999	7550	8240	8790	0
2017/06/04 09:56:00	BASE	14.30	355	17.44	353	0.6	81	-2.3	0	0	984.6	NA	0.0000		9999	8140	0	0	0
2017/06/04 09:57:00	BASE	14.40	349	17.44	353	0.6	81	-2.3	0	0	984.6	NA	0.0000		9999	7550	0	0	0
2017/06/04 09:58:00	BASE	14.16	349	17.44	353	0.6	81	-2.3	0	0	984.6	NA	0.0000		9999	7450	8140	0	0
2017/06/04 09:59:00	BASE	13.83	349	17.44	353	0.6	81	-2.3	0	0	984.6	NA	0.0000		9999	7280	8100	0	0
2017/06/04 10:00:00	BASE	14.06	350	17.44	353	0.6	81	-2.3	0	0	984.6	NA	0.0000		9999	7320	8500	0	0
2017/06/04 10:01:00	BASE	14.14	349	16.82	348	0.6	81	-2.3	0	0	984.7	NA	0.0000		9999	7380	8690	0	0
2017/06/04 10:02:00	BASE	13.58	347	16.82	348	0.6	81	-2.3	0	0	984.7	NA	0.0000		9999	7250	9020	0	0
2017/06/04 10:03:00	BASE	13.83	350	16.31	2	0.7	80	-2.3	0	0	984.6	NA	0.0000		9999	7280	8920	0	0
2017/06/04 10:04:00	BASE	14.09	350	16.20	350	0.7	80	-2.3	0	0	984.7	NA	0.0000		9999	7380	8920	0	0
2017/06/04 10:05:00	BASE	13.14	353	16.20	350	0.7	80	-2.4	0	0	984.7	NA	0.0000		9999	10430	11390	0	0
2017/06/04 10:06:00	BASE	12.81	353	16.20	350	0.7	80	-2.4	0	0	984.7	NA	0.0000		9999	9970	11450	0	0
2017/06/04 10:07:00	BASE	13.18	351	16.20	350	0.6	80	-2.4	0	0	984.7	NA	0.0000		9999	5280	0	0	0
2017/06/04 10:08:00	BASE	13.43	352	16.20	350	0.6	80	-2.4	0	0	984.7	NA	0.0000		9999	5280	0	0	0
2017/06/04 10:09:00	BASE	13.75	355	16.20	350	0.6	81	-2.4	0	0	984.6	NA	0.0000		9999	4990	0	0	0
2017/06/04 10:10:00	BASE	14.05	357	16.20	350	0.5	81	-2.4	0	0	984.6	NA	0.0000		9999	4890	0	0	0
2017/06/04 10:11:00	BASE	14.60	358	16.72	354	0.5	81	-2.4	0	0	984.6	NA	0.0000		9999	5050	6070	0	0
2017/06/04 10:12:00	BASE	15.02	0	16.72	354	0.5	81	-2.4	0	0	984.6	NA	0.0000		9999	4890	6040	0	0
2017/06/04 10:13:00	BASE	14.64	359	16.72	354	0.5	81	-2.4	0	0	984.7	NA	0.0000		9999	4890	0	0	0
2017/06/04 10:14:00	BASE	14.07	358	16.72	354	0.5	81	-2.4	0	0	984.7	NA	0.0000		9999	5280	8240	0	0
2017/06/04 10:15:00	BASE	13.69	354	16.72	354	0.5	81	-2.4	0	0	984.7	NA	0.0000		9999	4860	0	0	0
2017/06/04 10:16:00	BASE	13.43	353	16.72	354	0.5	81	-2.4	0	0	984.7	NA	0.0000		9999	6330	8370	0	0
2017/06/04 10:17:00	BASE	13.46	356	16.72	354	0.5	81	-2.4	0	0	984.7	NA	0.0000		9999	6460	8400	0	0
2017/06/04 10:18:00	BASE	13.64	357	16.72	354	0.5	81	-2.4	0	0	984.7	NA	0.0000		9999	8430	10600	0	0
2017/06/04 10:19:00	BASE	13.70	359	16.72	354	0.5	81	-2.4	0	0	984.7	NA	0.0000		9999	8960	10560	0	0
2017/06/04 10:20:00	BASE	13.58	353	16.72	354	0.5	81	-2.4	0	0	984.7	NA	0.0000		9999	8990	0	0	0
2017/06/04 10:21:00	BASE	13.89	352	16.10	1	0.5	81	-2.4	0	0	984.6	NA	0.0000		9999	6500	8960	0	0
2017/06/04 10:22:00	BASE	14.43	355	16.05	2	0.5	81	-2.4	0	0	984.6	NA	0.0000		9999	6500	7320	0	0
2017/06/04 10:23:00	BASE	14.80	355	16.20	354	0.4	81	-2.4	0	0	984.6	NA	0.0000		9999	6530	0	0	0
2017/06/04 10:24:00	BASE	14.06	358	16.20	354	0.4	81	-2.5	0	0	984.7	NA	0.0000		9999	7020	0	0	0
2017/06/04 10:25:00	BASE	13.83	356	16.20	354	0.4	81	-2.5	0	0	984.6	NA	0.0000		9999	6960	0	0	0
2017/06/04 10:26:00	BASE	14.57	358	16.20	354	0.4	81	-2.5	0	0	984.6	NA	0.0000		9999	6960	0	0	0
2017/06/04 10:27:00	BASE	15.03	2	17.08	12	0.4	81	-2.5	0	0	984.5	NA	0.0000		9999	6560	7840	0	0
2017/06/04 10:28:00	BASE	15.31	0	17.08	12	0.4	81	-2.5	0	0	984.5	NA	0.0000		9999	7450	0	0	0
2017/06/04 10:29:00	BASE	15.09	1	17.08	12	0.4	81	-2.5	0	0	984.6	NA	0.0000		9999	6500	7280	0	0
2017/06/04 10:30:00	BASE	15.24	359	17.08	12	0.4	81	-2.5	0	0	984.5	NA	0.0000		9999	7280	0	0	0
2017/06/04 10:31:00	BASE	15.19	354	17.08	12	0.4	81	-2.5	0	0	984.6	NA	0.0000		9999	6790	7250	0	0
2017/06/04 10:32:00	BASE	14.74	353	17.08	12	0.4	81	-2.5	0	0	984.6	NA	0.0000		9999	6430	0	0	0
2017/06/04 10:33:00	BASE	15.11	355	17.18	1	0.4	81	-2.5	0	0	984.5	NA	0.0000		9999	6370	0	0	0
2017/06/04 10:34:00	BASE	15.41	353	17.18	1	0.4	80	-2.6	0	0	984.5	NA	0.0000		9999	6300	0	0	0
2017/06/04 10:35:00	BASE	15.05	349	17.18	1	0.4	80	-2.6	0	0	984.6	NA	0.0000		9999	6530	0	0	0
2017/06/04 10:36:00	BASE	14.77	357	17.18	1	0.4	80	-2.6	0	0	984.6	NA	0.0000		9999	6400	0	0	0
2017/06/04 10:37:00	BASE	14.39	356	17.18	1	0.4	80	-2.6	0	0	984.7	NA	0.0000		9999	6070	0	0	0
2017/06/04 10:38:00	BASE	14.14	352	17.18	1	0.4	80	-2.6	0	0	984.6	NA	0.0000		9999	5840	6400	7510	0
2017/06/04 10:39:00	BASE	14.45	353	17.18	1	0.4	80	-2.5	0	0	984.6	NA	0.0000		9999	5540	6400	0	0
2017/06/04 10:40:00	BASE	15.30	355	17.18	348	0.5	80	-2.5	0	0	984.6	NA	0.0000		9999	6000	0	0	0
2017/06/04 10:41:00	BASE	15.03	353	17.18	348	0.5	80	-2.5	0	0	984.7	NA	0.0000		9999	5970	0	0	0
2017/06/04 10:42:00	BASE	14.23	353	17.18	348	0.5	80	-2.5	0	0	984.7	NA	0.0000		9999	5220	0	0	0
2017/06/04 10:43:00	BASE	14.83	359	17.18	348	0.5	80	-2.5	0	0	984.6	NA	0.0000		9999	5770	0	0	0
2017/06/04 10:44:00	BASE	15.34	359	17.18	348	0.5	80	-2.5	0	0	984.6	NA	0.0000		9999	5940	0	0	0
2017/06/04 10:45:00	BASE	15.65	355	17.29	354	0.5	80	-2.5	0	0	984.6	NA	0.0000		9999	5280	0	0	0
2017/06/04 10:46:00	BASE	15.71	353	17.29	354	0.5	80	-2.5	0	0	984.7	NA	0.0000		9999	5250	0	0	0
2017/06/04 10:47:00	BASE	15.50	352	17.29	354	0.5	80	-2.5	0	0	984.7	NA	0.0000		9999	5180	0	0	0
2017/06/04 10:48:00	BASE	15.50	355	17.29	354	0.5	80	-2.5	0	0	984.7	NA	0.0000		9999	4690	0	0	0
2017/06/04 10:49:00	BASE	14.80	357	17.29	354	0.5	80	-2.5	0	0	984.8	NA	0.0000		9999	4430	0	0	0
2017/06/04 10:50:00	BASE	14.89	355	17.29	354	0.5	80	-2.4	0	0	984.7	NA	0.0000		9999	5610	0	0	0
2017/06/04 10:51:00	BASE	15.21	356	17.29	354	0.6	80	-2.5	0	0	984.8	NA	0.0000		9999	5320	0	0	0
2017/06/04 10:52:00	BASE	14.62	1	17.29	354	0.6	80	-2.5	0	0	984.8	NA	0.0000		9999	5280	0	0	0
2017/06/04 10:53:00	BASE	14.30	2	17.29	354	0.6	80	-2.5	0	0	984.7	NA	0.0000		9999	5810	0	0	0
2017/06/04 10:54:00	BASE	15.05	357	17.65	2	0.6	80	-2.5	0	0	984.6	NA	0.0000		9999	5940	7250	8010	0
2017/06/04 10:55:00	BASE	16.23	360	17.65	7	0.6	80	-2.5	0	0	984.5	NA	0.0000		9999	7090	7940	0	0
2017/06/04 10:56:00	BASE	17.28	4	19.70	4	0.6	80	-2.5	0	0	984.4	NA	0.0000		9999	6960	7840	0	0
2017/06/04 10:57:00	BASE	17.86	2	19.70	4	0.6	80	-2.5	0	0	984.4	NA	0.0000		9999	0	0	0	1310
2017/06/04 10:58:00	BASE	17.88	353	19.70	4	0.6	80	-2.4	0	0	984.4	NA	0.0000		9999	6560	0	0	0
2017/06/04 10:59:00	BASE	17.29	348	19.70	4	0.6	80	-2.4	0	0	984.5	NA	0.0000		9999	6460	0	0	0
2017/06/04 11:00:00	BASE	16.96	359	19.70	4	0.7	80	-2.4	0	0	984.5	NA	0.0000	UP	9999	6430	0	0	0
2017/06/04 11:01:00	BASE	17.09	3	19.70	4	0.7	80	-2.4	0	0	984.5	NA	0.0000	UP	9999	6460	0	0	0
2017/06/04 11:02:00	BASE	17.28	359	19.70	4	0.7	80	-2.4	0	0	984.4	NA	0.0000	UP	9999	6430	0	0	0
2017/06/04 11:03:00	BASE	18.11	0	19.70	4	0.7	80	-2.4	0	0	984.4	NA	0.0000	UP	9999	6460	0	0	0
2017/06/04 11:04:00	BASE	18.42	1	19.70	4	0.7	80	-2.4	0	0	984.4	NA	0.0000	UP	9999	6530	0	0	0
2017/06/04 11:05:00	BASE	18.38	2	19.70	4	0.6	80	-2.4	0	0	984.3	NA	0.0000	UP	9999	6560	0	0	0
2017/06/04 11:06:00	BASE	18.54	3	19.65	1	0.6	80	-2.4	0	0	984.4	NA	0.0000	UP	9999	6590	0	0	0
2017/06/04 11:07:00	BASE	17.87	2	19.65	1	0.6	80	-2.4	0	0	984.5	NA	0.0000	UP	9999	6660	0	0	0
2017/06/04 11:08:00	BASE	17.19	2	19.65	1	0.6	80	-2.4	0	0	984.5	NA	0.0000	UP	9999	7090	0	0	0
2017/06/04 11:09:00	BASE	17.53	3	19.65	1	0.6	80	-2.4	0	0	984.5	NA	0.0000	UP	9999	7020	0	0	0
2017/06/04 11:10:00	BASE	17.22	360	19.65	1	0.6	81	-2.4	0	0	984.5	NA	0.0000	UP	9999	7020	0	0	0
2017/06/04 11:11:00	BASE	16.16	356	19.65	1	0.6	81	-2.3	0	0	984.6	NA	0.0000	UP	9999	7020	0	0	0
2017/06/04 11:12:00	BASE	16.31	358	19.65	1	0.6	81	-2.2	0	0	984.5	NA	0.0000	UP	9999	7020	0	0	0
2017/06/04 11:13:00	BASE	16.87	359	19.65	1	0.6	82	-2.2	0	0	984.6	NA	0.0000	UP	9999	6990	0	0	0
2017/06/04 11:14:00	BASE	17.32	1	19.65	1	0.6	82	-2.1	0	0	984.5	NA	0.0000	UP	9999	7090	0	0	0
2017/06/04 11:15:00	BASE	17.92	1	19.65	1	0.6	82	-2.1	0	0	984.5	NA	0.0000	UP	9999	7090	0	0	0
2017/06/04 11:16:00	BASE	17.76	360	18.78	360	0.7	82	-2.1	0	0	984.6	NA	0.0000	UP	9999	7050	0	0	0
2017/06/04 11:17:00	BASE	16.86	359	18.78	360	0.7	82	-2.0	0	0	984.7	NA	0.0000	UP	9999	7090	0	0	0
2017/06/04 11:18:00	BASE	16.49	359	18.78	360	0.7	82	-2.0	0	0	984.6	NA	0.0000	UP	9999	7120	8240	0	0
2017/06/04 11:19:00	BASE	16.54	2	18.78	360	0.7	82	-2.0	0	0	984.7	NA	0.0000	UP	9999	7120	0	0	0
2017/06/04 11:20:00	BASE	16.46	353	18.78	360	0.7	82	-2.0	0	0	984.7	NA	0.0000		9999	7190	9910	0	0
2017/06/04 11:21:00	BASE	16.52	349	18.78	360	0.7	82	-2.1	0	0	984.7	NA	0.0000		9999	7190	8200	9550	0
2017/06/04 11:22:00	BASE	16.35	353	18.78	360	0.7	81	-2.1	0	0	984.7	NA	0.0000		9999	7020	9380	0	0
2017/06/04 11:23:00	BASE	16.19	354	18.78	360	0.7	81	-2.2	0	0	984.8	NA	0.0000		9999	7050	0	0	0
2017/06/04 11:24:00	BASE	16.36	353	18.78	360	0.7	81	-2.2	0	0	984.7	NA	0.0000		9999	6920	0	0	0
2017/06/04 11:25:00	BASE	16.52	351	18.31	352	0.7	81	-2.2	0	0	984.8	NA	0.0000		9999	7020	0	0	0
2017/06/04 11:26:00	BASE	16.71	352	18.78	343	0.6	81	-2.2	0	0	984.8	NA	0.0000		9999	7120	0	0	0
2017/06/04 11:27:00	BASE	16.96	353	18.78	343	0.6	81	-2.3	0	0	984.8	NA	0.0000		9999	7150	0	0	0
2017/06/04 11:28:00	BASE	16.34	351	18.78	343	0.6	81	-2.3	0	0	984.9	NA	0.0000		9999	7120	0	0	0
2017/06/04 11:29:00	BASE	15.41	351	18.78	343	0.6	81	-2.3	0	0	985.0	NA	0.0000		9999	7050	0	0	0
2017/06/04 11:30:00	BASE	15.29	347	18.78	343	0.6	81	-2.3	0	0	984.9	NA	0.0000		9999	6760	0	0	0
2017/06/04 11:31:00	BASE	15.66	346	18.78	343	0.5	81	-2.4	0	0	984.9	NA	0.0000		9999	6730	0	0	0
2017/06/04 11:32:00	BASE	15.42	350	18.78	343	0.5	81	-2.4	0	0	985.1	NA	0.0000		9999	6760	0	0	0
2017/06/04 11:33:00	BASE	15.24	351	18.78	343	0.5	81	-2.4	0	0	985.0	NA	0.0000		9999	6790	0	0	0
2017/06/04 11:34:00	BASE	15.28	348	18.78	343	0.5	81	-2.5	0	0	985.1	NA	0.0000		9999	6430	0	0	0
2017/06/04 11:35:00	BASE	14.83	349	18.78	343	0.5	80	-2.5	0	0	985.1	NA	0.0000		9999	6370	0	0	0
2017/06/04 11:36:00	BASE	14.48	350	18.01	342	0.5	80	-2.5	0	0	985.1	NA	0.0000		9999	5150	6430	0	0
2017/06/04 11:37:00	BASE	14.57	348	18.01	342	0.6	80	-2.5	0	0	985.1	NA	0.0000		9999	4790	0	0	0
2017/06/04 11:38:00	BASE	14.29	350	17.75	349	0.6	80	-2.5	0	0	985.2	NA	0.0000		9999	4790	0	0	0
2017/06/04 11:39:00	BASE	14.02	349	17.75	349	0.6	80	-2.5	0	0	985.2	NA	0.0000		9999	5090	0	0	0
2017/06/04 11:40:00	BASE	14.30	348	17.75	349	0.6	80	-2.5	0	0	985.2	NA	0.0000		9999	5090	5940	0	0
2017/06/04 11:41:00	BASE	14.28	347	17.75	349	0.6	80	-2.5	0	0	985.2	NA	0.0000		9999	6000	0	0	0
2017/06/04 11:42:00	BASE	13.56	346	17.75	349	0.6	80	-2.5	0	0	985.3	NA	0.0000		9999	5610	0	0	0
2017/06/04 11:43:00	BASE	13.56	345	16.67	349	0.6	80	-2.5	0	0	985.2	NA	0.0000		9999	5380	6000	0	0
2017/06/04 11:44:00	BASE	13.80	345	16.67	349	0.6	80	-2.5	0	0	985.3	NA	0.0000		9999	5380	5970	0	0
2017/06/04 11:45:00	BASE	13.06	344	16.67	349	0.6	80	-2.5	0	0	985.3	NA	0.0000		9999	6070	0	0	0
2017/06/04 11:46:00	BASE	12.83	344	16.67	349	0.6	80	-2.5	0	0	985.4	NA	0.0000		9999	5380	6040	0	0
2017/06/04 11:47:00	BASE	12.92	342	16.20	349	0.5	80	-2.4	0	0	985.3	NA	0.0000		9999	6070	0	0	0
2017/06/04 11:48:00	BASE	13.08	339	15.90	349	0.5	81	-2.5	0	0	985.4	NA	0.0000		9999	5410	6070	0	0
2017/06/04 11:49:00	BASE	13.38	339	15.79	347	0.5	81	-2.5	0	0	985.4	NA	0.0000		9999	6920	0	0	0
2017/06/04 11:50:00	BASE	13.01	337	15.79	347	0.4	81	-2.4	0	0	985.4	NA	0.0000		9999	5970	6960	9910	0
2017/06/04 11:51:00	BASE	12.78	336	15.79	347	0.4	81	-2.5	0	0	985.4	NA	0.0000		9999	5870	6890	9810	0
2017/06/04 11:52:00	BASE	13.39	338	15.79	347	0.4	81	-2.5	0	0	985.4	NA	0.0000		9999	5810	0	0	0
2017/06/04 11:53:00	BASE	13.68	338	15.79	347	0.4	81	-2.4	0	0	985.4	NA	0.0000		9999	5120	5810	6660	0
2017/06/04 11:54:00	BASE	13.24	337	15.07	337	0.4	81	-2.4	0	0	985.4	NA	0.0000		9999	5020	5680	0	0
2017/06/04 11:55:00	BASE	12.59	336	15.07	337	0.4	82	-2.4	0	0	985.5	NA	0.0000		9999	5510	6560	0	0
2017/06/04 11:56:00	BASE	12.43	338	15.07	337	0.4	82	-2.4	0	0	985.5	NA	0.0000		9999	6630	0	0	0
2017/06/04 11:57:00	BASE	12.46	339	15.07	337	0.4	82	-2.3	0	0	985.5	NA	0.0000		9999	6500	0	0	0
2017/06/04 11:58:00	BASE	12.45	340	15.07	337	0.3	82	-2.4	0	0	985.5	NA	0.0000		9999	6500	0	0	0
2017/06/04 11:59:00	BASE	12.85	341	15.07	347	0.3	82	-2.4	0	0	985.5	NA	0.0000		9999	0	0	0	0
2017/06/04 12:00:00	BASE	12.78	339	15.07	347	0.3	82	-2.4	0	0	985.6	NA	0.0000		9999	0	0	0	0
2017/06/04 12:01:00	BASE	12.17	339	15.07	347	0.3	82	-2.4	0	0	985.7	NA	0.0000		9999	0	0	0	0
2017/06/04 12:02:00	BASE	11.33	340	15.07	347	0.3	82	-2.4	0	0	985.8	NA	0.0000		9999	0	0	0	0
2017/06/04 12:03:00	BASE	10.55	338	15.07	347	0.3	82	-2.4	0	0	985.8	NA	0.0000		9999	0	0	0	0
2017/06/04 12:04:00	BASE	10.46	334	15.07	347	0.3	82	-2.4	0	0	985.8	NA	0.0000		9999	4860	6230	0	0
2017/06/04 12:05:00	BASE	11.21	328	15.07	347	0.3	82	-2.4	0	0	985.7	NA	0.0000		9999	6140	0	0	0
2017/06/04 12:06:00	BASE	11.55	329	15.07	347	0.3	82	-2.4	0	0	985.8	NA	0.0000		9999	4890	0	0	0
2017/06/04 12:07:00	BASE	11.49	330	15.07	347	0.3	82	-2.4	0	0	985.8	NA	0.0000		9999	0	0	0	0
2017/06/04 12:08:00	BASE	11.69	325	15.07	347	0.3	82	-2.4	0	0	985.8	NA	0.0000		9999	0	0	0	0
2017/06/04 12:09:00	BASE	12.18	326	14.51	323	0.3	82	-2.4	0	0	985.7	NA	0.0000		9999	0	0	0	0
2017/06/04 12:10:00	BASE	12.39	329	14.51	323	0.3	82	-2.3	0	0	985.7	NA	0.0000		9999	0	0	0	0
2017/06/04 12:11:00	BASE	12.00	333	14.51	323	0.3	83	-2.3	0	0	985.8	NA	0.0000		9999	0	0	0	0
2017/06/04 12:12:00	BASE	11.43	333	14.51	323	0.3	83	-2.3	0	0	985.9	NA	0.0000		9999	0	0	0	0
2017/06/04 12:13:00	BASE	10.96	330	14.51	323	0.4	83	-2.3	0	0	985.9	NA	0.0000		9999	0	0	0	0
2017/06/04 12:14:00	BASE	11.73	328	14.51	323	0.4	82	-2.3	0	0	985.9	NA	0.0000		9999	0	0	0	0
2017/06/04 12:15:00	BASE	13.03	325	15.69	328	0.4	82	-2.3	0	0	985.8	NA	0.0000		9999	0	0	0	0
2017/06/04 12:16:00	BASE	13.20	324	15.69	328	0.3	82	-2.3	0	0	985.9	NA	0.0000		9999	0	0	0	0
2017/06/04 12:17:00	BASE	12.06	325	15.69	328	0.3	83	-2.3	0	0	986.0	NA	0.0000		9999	0	0	0	0
2017/06/04 12:18:00	BASE	11.68	327	15.69	328	0.2	83	-2.3	0	0	986.0	NA	0.0000		9999	0	0	0	0
2017/06/04 12:19:00	BASE	11.96	329	15.69	328	0.2	83	-2.3	0	0	986.0	NA	0.0000		9999	6330	0	0	0
2017/06/04 12:20:00	BASE	11.95	327	15.69	328	0.2	84	-2.3	0	0	986.0	NA	0.0000		9999	6230	0	0	0
2017/06/04 12:21:00	BASE	11.72	326	15.69	328	0.1	84	-2.3	0	0	986.0	NA	0.0000		9999	6040	0	0	0
2017/06/04 12:22:00	BASE	11.53	326	15.69	328	0.1	84	-2.3	0	0	986.0	NA	0.0000		9999	5640	0	0	0
2017/06/04 12:23:00	BASE	11.47	324	15.69	328	0.1	84	-2.3	0	0	986.0	NA	0.0000		9999	3180	5770	0	0
2017/06/04 12:24:00	BASE	11.50	324	15.69	328	0.0	85	-2.2	0	0	986.1	NA	0.0000		9999	0	0	0	0
2017/06/04 12:25:00	BASE	11.99	325	13.99	327	0.0	85	-2.2	0	0	986.0	NA	0.0000		9999	0	0	0	0
2017/06/04 12:26:00	BASE	12.10	327	13.99	327	0.0	85	-2.2	0	0	986.0	NA	0.0000		9999	0	0	0	690
2017/06/04 12:27:00	BASE	11.79	327	13.99	327	0.0	85	-2.2	0	0	986.0	NA	0.0000		9999	0	0	0	850
2017/06/04 12:28:00	BASE	11.73	325	13.99	327	-0.0	86	-2.1	0	0	986.0	NA	0.0000		9999	0	0	0	690
2017/06/04 12:29:00	BASE	11.88	326	13.99	327	-0.0	86	-2.1	0	0	986.0	NA	0.0000		9999	0	0	0	620
2017/06/04 12:30:00	BASE	11.70	325	13.99	327	-0.0	86	-2.1	0	0	986.0	NA	0.0000		9999	3310	0	0	0
2017/06/04 12:31:00	BASE	11.31	325	13.99	327	-0.0	86	-2.0	0	0	986.1	NA	0.0000		9999	5020	0	0	0
2017/06/04 12:32:00	BASE	11.06	326	13.53	327	-0.0	86	-2.0	0	0	986.1	NA	0.0000		9999	5020	0	0	0
2017/06/04 12:33:00	BASE	10.94	325	13.53	327	-0.0	87	-2.0	0	0	986.2	NA	0.0000		9999	4690	0	0	0
2017/06/04 12:34:00	BASE	10.99	325	13.53	327	0.0	87	-1.9	0	0	986.2	NA	0.0000		9999	1640	0	0	0
2017/06/04 12:35:00	BASE	11.07	324	13.53	327	0.0	87	-1.9	0	0	986.2	NA	0.0000		9999	4400	0	0	0
2017/06/04 12:36:00	BASE	11.44	322	13.53	327	0.0	87	-1.9	0	0	986.1	NA	0.0000		9999	5250	0	0	0
2017/06/04 12:37:00	BASE	11.72	323	13.53	327	0.1	87	-1.8	0	0	986.1	NA	0.0000		9999	4170	0	0	0
2017/06/04 12:38:00	BASE	11.52	322	13.07	330	0.1	87	-1.8	0	0	986.2	NA	0.0000		9999	4200	0	0	0
2017/06/04 12:39:00	BASE	11.51	324	13.07	330	0.1	87	-1.8	0	0	986.2	NA	0.0000		9999	4330	0	0	0
2017/06/04 12:40:00	BASE	11.35	327	13.02	321	0.1	87	-1.8	0	0	986.2	NA	0.0000		9999	3310	0	0	0
2017/06/04 12:41:00	BASE	11.90	324	13.74	323	0.1	87	-1.8	0	0	986.1	NA	0.0000		9999	4430	0	0	0
2017/06/04 12:42:00	BASE	12.89	322	14.30	324	0.0	87	-1.9	0	0	986.1	NA	0.0000		9999	4690	0	0	0
2017/06/04 12:43:00	BASE	13.01	323	14.30	324	-0.0	87	-1.9	0	0	986.1	NA	0.0000		9999	4720	0	0	0
2017/06/04 12:44:00	BASE	12.67	324	14.30	324	-0.0	87	-1.9	0	0	986.2	NA	0.0000		9999	0	0	0	2460
2017/06/04 12:45:00	BASE	12.64	325	14.30	324	-0.1	88	-1.9	0	0	986.2	NA	0.0000		9999	0	0	0	620
2017/06/04 12:46:00	BASE	12.86	327	14.30	324	-0.1	88	-1.9	0	0	986.2	NA	0.0000		9999	3480	0	0	0
2017/06/04 12:47:00	BASE	12.48	328	14.30	324	-0.1	88	-1.8	0	0	986.2	NA	0.0000		9999	0	0	0	920
2017/06/04 12:48:00	BASE	12.59	329	14.30	324	-0.1	88	-1.8	0	0	986.2	NA	0.0000		9999	0	0	0	5610
2017/06/04 12:49:00	BASE	12.30	332	14.30	324	-0.1	88	-1.8	0	0	986.3	NA	0.0000		9999	5350	0	0	0
2017/06/04 12:50:00	BASE	11.72	335	14.30	324	-0.1	88	-1.8	0	0	986.4	NA	0.0000		9999	0	0	0	920
2017/06/04 12:51:00	BASE	11.71	333	14.30	324	-0.1	88	-1.8	0	0	986.4	NA	0.0000		9999	0	0	0	1080
2017/06/04 12:52:00	BASE	10.89	330	14.25	322	-0.1	88	-1.8	0	0	986.4	NA	0.0000		9999	1970	0	0	0
2017/06/04 12:53:00	BASE	10.47	330	14.25	322	-0.0	88	-1.8	0	0	986.5	NA	0.0000		9999	1900	0	0	0
2017/06/04 12:54:00	BASE	10.76	331	14.25	322	-0.0	88	-1.8	0	0	986.4	NA	0.0000		9999	1870	0	0	0
2017/06/04 12:55:00	BASE	10.34	330	14.25	322	-0.0	87	-1.9	0	0	986.5	NA	0.0000		9999	1940	0	0	0
2017/06/04 12:56:00	BASE	10.21	326	13.79	337	-0.0	87	-1.9	0	0	986.5	NA	0.0000		9999	1710	3120	0	0
2017/06/04 12:57:00	BASE	10.35	324	13.79	337	-0.0	87	-1.9	0	0	986.5	NA	0.0000		9999	1800	0	0	0
2017/06/04 12:58:01	BASE	9.75	323	13.79	337	-0.0	87	-1.9	0	0	986.6	NA	0.0000		9999	1900	0	0	0
2017/06/04 12:59:00	BASE	9.40	323	13.79	337	-0.0	87	-1.9	0	0	986.6	NA	0.0000		9999	1840	0	0	0
2017/06/04 13:00:00	BASE	9.61	323	13.79	337	-0.0	88	-1.8	0	0	986.6	NA	0.0000		9999	2070	0	0	0
2017/06/04 13:01:00	BASE	9.85	323	12.55	324	-0.1	88	-1.8	0	0	986.6	NA	0.0000		9999	2330	0	0	0
2017/06/04 13:02:00	BASE	10.37	324	12.55	324	-0.1	88	-1.8	0	0	986.6	NA	0.0000		9999	2260	0	0	0
2017/06/04 13:03:00	BASE	11.07	324	12.55	324	-0.1	88	-1.8	0	0	986.6	NA	0.0000		9999	3080	0	0	0
2017/06/04 13:04:00	BASE	11.19	325	12.30	327	-0.1	88	-1.8	0	0	986.6	NA	0.0000		9999	2920	0	0	0
2017/06/04 13:05:00	BASE	11.01	327	12.30	327	-0.1	89	-1.8	0	0	986.6	NA	0.0000		9999	2850	0	0	0
2017/06/04 13:06:00	BASE	10.93	328	12.30	327	-0.1	89	-1.8	0	0	986.6	NA	0.0000		9999	2950	0	0	0
2017/06/04 13:07:00	BASE	10.39	328	12.30	327	-0.2	89	-1.8	0	0	986.7	NA	0.0000		9999	3150	0	0	0
2017/06/04 13:08:00	BASE	9.80	327	12.30	327	-0.2	89	-1.8	0	0	986.7	NA	0.0000		9999	3020	3640	0	0
2017/06/04 13:09:00	BASE	10.07	326	12.30	327	-0.2	89	-1.8	0	0	986.7	NA	0.0000		9999	2950	0	0	0
2017/06/04 13:10:00	BASE	10.24	326	12.30	327	-0.2	89	-1.7	0	0	986.7	NA	0.0000		9999	3050	0	0	0
2017/06/04 13:11:00	BASE	9.94	326	12.30	327	-0.2	90	-1.7	0	0	986.8	NA	0.0000		9999	2720	0	0	0
2017/06/04 13:12:00	BASE	9.84	324	12.30	327	-0.2	90	-1.7	0	0	986.8	NA	0.0000		9999	2590	0	0	0
2017/06/04 13:13:00	BASE	9.43	324	11.94	323	-0.2	90	-1.6	0	0	986.8	NA	0.0000		9999	2530	0	0	0
2017/06/04 13:14:00	BASE	9.15	323	11.94	323	-0.2	90	-1.7	0	0	986.8	NA	0.0000		9999	2490	0	0	0
2017/06/04 13:15:00	BASE	9.41	319	11.78	326	-0.2	90	-1.7	0	0	986.9	NA	0.0000		9999	2590	0	0	0
2017/06/04 13:16:00	BASE	9.75	317	11.21	326	-0.3	90	-1.7	0	0	986.9	NA	0.0000		9999	2530	0	0	0
2017/06/04 13:17:00	BASE	9.95	319	11.21	326	-0.3	90	-1.7	0	0	986.9	NA	0.0000		9999	2660	0	0	0
2017/06/04 13:18:00	BASE	9.92	320	11.21	326	-0.3	90	-1.7	0	0	986.9	NA	0.0000		9999	460	2660	0	0
2017/06/04 13:19:00	BASE	9.78	318	11.16	319	-0.3	91	-1.7	0	0	986.9	NA	0.0000		9999	390	0	0	0
2017/06/04 13:20:00	BASE	9.64	320	11.16	319	-0.4	91	-1.7	0	0	986.9	NA	0.0000		9999	390	3350	0	0
2017/06/04 13:21:00	BASE	9.62	323	11.16	319	-0.4	91	-1.7	0	0	987.0	NA	0.0000		9999	430	2820	0	0
2017/06/04 13:22:00	BASE	9.56	323	11.16	319	-0.4	91	-1.7	0	0	987.0	NA	0.0000		9999	2920	0	0	0
2017/06/04 13:23:00	BASE	8.98	324	11.16	319	-0.5	91	-1.7	0	0	987.0	NA	0.0000		9999	2890	0	0	0
2017/06/04 13:24:00	BASE	8.22	323	11.16	319	-0.5	92	-1.7	0	0	987.1	NA	0.0000		9999	2430	0	0	0
2017/06/04 13:25:00	BASE	7.97	322	11.16	319	-0.5	92	-1.7	0	0	987.1	NA	0.0000		9999	2620	0	0	0
2017/06/04 13:26:00	BASE	7.80	323	11.16	319	-0.5	92	-1.6	0	0	987.1	NA	0.0000		9999	2720	0	0	0
2017/06/04 13:27:00	BASE	7.60	324	11.16	319	-0.5	92	-1.6	0	0	987.1	NA	0.0000		9999	2590	0	0	0
2017/06/04 13:28:00	BASE	7.99	324	11.16	319	-0.5	92	-1.6	1	0	987.2	NA	0.0000		9999	2360	0	0	0
2017/06/04 13:29:00	BASE	8.61	324	10.60	322	-0.5	92	-1.6	1	0	987.1	NA	0.0000		9999	2620	0	0	0
2017/06/04 13:30:00	BASE	9.03	326	10.19	328	-0.5	92	-1.6	1	0	987.1	NA	0.0000		9999	660	0	0	0
2017/06/04 13:31:00	BASE	9.08	327	10.19	328	-0.5	92	-1.6	1	0	987.1	NA	0.0000		9999	2620	0	0	0
2017/06/04 13:32:00	BASE	8.86	325	10.19	328	-0.4	92	-1.6	1	0	987.1	NA	0.0000		9999	2660	0	0	0
2017/06/04 13:33:00	BASE	8.36	323	10.19	328	-0.4	92	-1.6	1	0	987.2	NA	0.0000		9999	2530	0	0	0
2017/06/04 13:34:00	BASE	8.02	321	10.19	328	-0.4	92	-1.6	1	0	987.1	NA	0.0000		9999	2560	0	0	0
2017/06/04 13:35:00	BASE	7.92	321	10.19	328	-0.4	92	-1.6	1	0	987.1	NA	0.0000		9999	2560	4070	0	0
2017/06/04 13:36:00	BASE	7.79	320	10.19	328	-0.4	92	-1.6	1	0	987.2	NA	0.0000		9999	2490	0	0	0
2017/06/04 13:37:00	BASE	7.93	319	10.19	328	-0.4	92	-1.5	1	0	987.2	NA	0.0000		9999	2560	0	0	0
2017/06/04 13:38:00	BASE	7.86	320	10.19	328	-0.4	92	-1.5	1	0	987.2	NA	0.0000		9999	2660	0	0	0
2017/06/04 13:39:00	BASE	7.73	323	10.19	328	-0.4	92	-1.5	1	1	987.2	NA	0.0000		9999	2620	0	0	0
2017/06/04 13:40:00	BASE	7.53	321	9.77	326	-0.4	92	-1.5	1	1	987.2	NA	0.0000		9999	2590	0	0	0
2017/06/04 13:41:00	BASE	7.17	318	9.67	327	-0.4	92	-1.5	1	1	987.3	NA	0.0000		9999	2530	0	0	0
2017/06/04 13:42:00	BASE	7.14	318	8.80	312	-0.4	92	-1.5	1	1	987.3	NA	0.0000		9999	2360	0	0	0
2017/06/04 13:43:00	BASE	7.01	319	8.64	322	-0.4	92	-1.5	1	1	987.3	NA	0.0000		9999	2200	0	0	0
2017/06/04 13:44:00	BASE	6.78	320	8.64	322	-0.4	92	-1.5	1	1	987.3	NA	0.0000		9999	2590	0	0	0
2017/06/04 13:45:00	BASE	6.62	319	8.64	322	-0.4	92	-1.5	1	2	987.3	NA	0.0000		9999	2560	0	0	0
2017/06/04 13:46:00	BASE	6.66	318	8.64	322	-0.4	92	-1.5	1	2	987.3	NA	0.0000		9999	2490	0	0	0
2017/06/04 13:47:00	BASE	6.66	319	8.64	322	-0.4	92	-1.5	2	2	987.3	NA	0.0000		9999	2590	0	0	0
2017/06/04 13:48:00	BASE	6.50	323	8.28	330	-0.4	92	-1.5	2	2	987.3	NA	0.0000		9999	2560	0	0	0
2017/06/04 13:49:00	BASE	6.70	324	8.03	313	-0.4	92	-1.5	2	3	987.3	NA	0.0000		9999	2590	0	0	0
2017/06/04 13:50:00	BASE	6.93	327	7.92	322	-0.4	92	-1.5	2	3	987.3	NA	0.0000		9999	2460	0	0	0
2017/06/04 13:51:00	BASE	6.88	326	7.92	322	-0.4	92	-1.5	2	3	987.3	NA	0.0000		9999	2460	0	0	0
2017/06/04 13:52:00	BASE	6.75	324	7.92	322	-0.4	92	-1.5	2	3	987.2	NA	0.0000		9999	2620	4400	0	0
2017/06/04 13:53:00	BASE	6.34	326	7.92	322	-0.4	92	-1.5	2	4	987.3	NA	0.0000		9999	2530	4720	0	0
2017/06/04 13:54:00	BASE	6.38	326	8.13	330	-0.4	92	-1.5	2	4	987.2	NA	0.0000		9999	2690	4630	0	0
2017/06/04 13:55:00	BASE	7.29	323	8.23	321	-0.4	92	-1.5	2	4	987.2	NA	0.0000		9999	2690	0	0	0
2017/06/04 13:56:00	BASE	7.36	322	8.23	321	-0.4	92	-1.5	2	4	987.2	NA	0.0000		9999	2850	0	0	0
2017/06/04 13:57:00	BASE	7.05	322	8.23	321	-0.4	92	-1.5	2	4	987.2	NA	0.0000		9999	2790	0	0	0
2017/06/04 13:58:00	BASE	6.95	321	8.23	321	-0.4	92	-1.5	2	5	987.2	NA	0.0000		9999	2720	0	0	0
2017/06/04 13:59:00	BASE	6.78	321	8.23	321	-0.4	92	-1.5	2	5	987.2	NA	0.0000		9999	2720	0	0	0
2017/06/04 14:00:00	BASE	6.82	323	8.23	321	-0.4	92	-1.5	3	5	987.3	NA	0.0000		9999	2620	0	0	0
2017/06/04 14:01:00	BASE	6.74	324	8.23	321	-0.4	92	-1.5	3	5	987.3	NA	0.0000		9999	2560	0	0	0
2017/06/04 14:02:00	BASE	6.66	323	8.23	321	-0.4	92	-1.5	3	5	987.3	NA	0.0000		9999	2530	0	0	0
2017/06/04 14:03:00	BASE	6.53	317	8.23	321	-0.4	92	-1.5	3	5	987.3	NA	0.0000		9999	2690	0	0	0
2017/06/04 14:04:00	BASE	6.81	316	8.23	321	-0.4	92	-1.5	3	6	987.3	NA	0.0000		9999	2890	0	0	0
2017/06/04 14:05:00	BASE	7.58	315	8.80	311	-0.4	92	-1.5	3	6	987.2	NA	0.0000		9999	2490	0	0	0
2017/06/04 14:06:00	BASE	8.07	315	8.85	319	-0.4	92	-1.5	3	6	987.2	NA	0.0000		9999	2430	0	0	0
2017/06/04 14:07:00	BASE	7.71	316	8.85	319	-0.4	92	-1.5	3	6	987.2	NA	0.0000		9999	0	0	0	4040
2017/06/04 14:08:00	BASE	7.23	318	8.85	319	-0.4	92	-1.5	3	6	987.3	NA	0.0000		9999	590	0	0	0
2017/06/04 14:09:00	BASE	7.12	318	8.85	319	-0.4	92	-1.5	3	6	987.3	NA	0.0000		9999	0	0	0	3870
2017/06/04 14:10:00	BASE	7.17	315	8.85	319	-0.4	92	-1.5	3	7	987.2	NA	0.0000		9999	0	0	0	3810
2017/06/04 14:11:00	BASE	7.07	315	8.85	319	-0.4	92	-1.5	3	7	987.3	NA	0.0000		9999	3510	0	0	0
2017/06/04 14:12:00	BASE	7.52	318	8.85	319	-0.4	92	-1.5	3	7	987.3	NA	0.0000		9999	2990	0	0	0
2017/06/04 14:13:00	BASE	7.82	319	8.85	319	-0.3	92	-1.5	3	7	987.3	NA	0.0000		9999	1610	0	0	0
2017/06/04 14:14:00	BASE	7.33	317	8.85	319	-0.3	92	-1.5	3	7	987.3	NA	0.0000		9999	1510	0	0	0
2017/06/04 14:15:00	BASE	7.64	317	8.95	320	-0.4	92	-1.5	3	7	987.3	NA	0.0000		9999	2100	0	0	0
2017/06/04 14:16:00	BASE	7.47	316	8.95	320	-0.4	92	-1.5	3	8	987.3	NA	0.0000		9999	2560	0	0	0
2017/06/04 14:17:00	BASE	7.08	314	8.95	320	-0.4	92	-1.5	3	8	987.3	NA	0.0000		9999	2560	0	0	0
2017/06/04 14:18:00	BASE	7.42	313	8.95	320	-0.4	92	-1.5	4	8	987.3	NA	0.0000		9999	1510	0	0	0
2017/06/04 14:19:00	BASE	7.59	311	8.95	320	-0.4	92	-1.5	4	8	987.3	NA	0.0000		9999	0	0	0	4230
2017/06/04 14:20:00	BASE	7.31	314	8.95	320	-0.4	92	-1.5	4	9	987.3	NA	0.0000		9999	430	0	0	0
2017/06/04 14:21:00	BASE	7.10	316	8.95	320	-0.4	92	-1.5	4	9	987.3	NA	0.0000		9999	0	0	0	4400
2017/06/04 14:22:00	BASE	7.16	315	8.95	320	-0.4	92	-1.5	4	9	987.3	NA	0.0000		9999	430	0	0	0
2017/06/04 14:23:00	BASE	7.05	317	8.95	320	-0.4	92	-1.5	4	9	987.3	NA	0.0000		9999	430	0	0	0
2017/06/04 14:24:00	BASE	7.61	319	8.95	320	-0.4	92	-1.5	4	9	987.3	NA	0.0000		9999	0	0	0	2720
2017/06/04 14:25:00	BASE	7.95	319	8.90	316	-0.4	92	-1.5	4	10	987.3	NA	0.0000		9999	0	0	0	2760
2017/06/04 14:26:00	BASE	7.73	320	8.90	316	-0.4	92	-1.5	4	10	987.3	NA	0.0000		9999	0	0	0	2920
2017/06/04 14:27:00	BASE	7.60	320	8.90	316	-0.4	92	-1.5	5	10	987.4	NA	0.0000		9999	390	0	0	0
2017/06/04 14:28:00	BASE	7.17	321	8.90	316	-0.4	93	-1.5	5	11	987.4	NA	0.0000		9999	330	0	0	0
2017/06/04 14:29:00	BASE	6.60	321	8.90	316	-0.4	93	-1.4	5	13	987.4	NA	0.0000		9999	360	0	0	0
2017/06/04 14:30:00	BASE	6.45	319	8.90	316	-0.4	93	-1.4	6	14	987.4	NA	0.0000		9999	460	0	0	0
2017/06/04 14:31:00	BASE	6.39	319	8.90	316	-0.4	93	-1.4	7	15	987.4	NA	0.0000		9999	950	1900	0	0
2017/06/04 14:32:00	BASE	6.68	317	8.90	316	-0.4	93	-1.4	7	16	987.4	NA	0.0000		9999	2030	0	0	0
2017/06/04 14:33:00	BASE	6.86	316	8.90	316	-0.4	93	-1.4	8	17	987.5	NA	0.0000		9999	2170	0	0	0
2017/06/04 14:34:00	BASE	6.35	316	8.39	311	-0.4	93	-1.4	8	17	987.6	NA	0.0000		9999	1870	0	0	0
2017/06/04 14:35:00	BASE	6.13	315	8.39	311	-0.4	93	-1.4	8	18	987.6	NA	0.0000		9999	1940	0	0	0
2017/06/04 14:36:00	BASE	6.28	314	8.39	311	-0.4	93	-1.4	9	18	987.5	NA	0.0000		9999	820	1970	0	0
2017/06/04 14:37:00	BASE	6.37	311	7.77	320	-0.4	93	-1.4	9	18	987.5	NA	0.0000		9999	1150	2000	0	0
2017/06/04 14:38:00	BASE	6.24	311	7.77	320	-0.4	93	-1.4	9	19	987.6	NA	0.0000		9999	1350	2030	0	0
2017/06/04 14:39:00	BASE	6.07	312	7.77	320	-0.4	93	-1.4	9	19	987.6	NA	0.0000		9999	2000	0	0	0
2017/06/04 14:40:00	BASE	6.11	313	7.77	320	-0.4	93	-1.4	9	19	987.6	NA	0.0000		9999	2030	0	0	0
2017/06/04 14:41:00	BASE	6.52	313	7.77	320	-0.4	93	-1.4	9	20	987.6	NA	0.0000		9999	1410	2490	0	0
2017/06/04 14:42:00	BASE	6.67	312	7.25	308	-0.5	93	-1.5	9	20	987.6	NA	0.0000		9999	1210	0	0	0
2017/06/04 14:43:00	BASE	6.32	311	7.20	313	-0.5	93	-1.5	10	21	987.6	NA	0.0000		9999	0	0	0	3350
2017/06/04 14:44:00	BASE	5.97	310	7.20	313	-0.5	93	-1.5	10	21	987.7	NA	0.0000		9999	0	0	0	3350
2017/06/04 14:45:00	BASE	5.73	311	7.20	313	-0.5	93	-1.5	10	21	987.7	NA	0.0000		9999	1350	0	0	0
2017/06/04 14:46:00	BASE	5.21	310	7.20	313	-0.6	93	-1.5	10	21	987.7	NA	0.0000		9999	1280	0	0	0
2017/06/04 14:47:00	BASE	4.74	306	7.10	315	-0.6	93	-1.5	10	20	987.7	NA	0.0000		9999	430	0	0	0
2017/06/04 14:48:00	BASE	5.00	301	7.10	315	-0.6	93	-1.5	9	19	987.7	NA	0.0000		9999	360	0	0	0
2017/06/04 14:49:00	BASE	5.43	301	7.10	315	-0.6	94	-1.5	9	19	987.7	NA	0.0000		7000	330	0	0	0
2017/06/04 14:50:00	BASE	5.48	303	7.10	315	-0.6	94	-1.5	9	19	987.6	NA	0.0000		6000	360	0	0	0
2017/06/04 14:51:00	BASE	5.58	304	7.05	316	-0.6	94	-1.5	9	19	987.5	NA	0.0000	UP	8000	360	0	0	0
2017/06/04 14:52:00	BASE	5.57	303	6.69	316	-0.7	94	-1.5	10	20	987.6	NA	0.0000	UP BR	8000	260	0	0	0
2017/06/04 14:53:00	BASE	5.27	303	6.38	305	-0.7	94	-1.5	11	21	987.7	NA	0.0000	UP BR	5000	230	0	0	0
2017/06/04 14:54:00	BASE	5.20	301	6.38	305	-0.7	94	-1.5	10	21	987.7	NA	0.0000	UP BR	4700	330	0	0	0
2017/06/04 14:55:00	BASE	5.27	301	6.38	305	-0.7	94	-1.5	10	21	987.7	NA	0.0000	UP BR	6000	0	0	0	2920
2017/06/04 14:56:00	BASE	5.13	303	6.38	305	-0.7	94	-1.5	10	20	987.7	NA	0.0000	UP BR	7000	330	0	0	0
2017/06/04 14:57:00	BASE	5.31	303	6.38	305	-0.7	94	-1.6	10	20	987.7	NA	0.0000	UP BR	6000	300	0	0	0
2017/06/04 14:58:00	BASE	5.57	302	6.38	305	-0.7	94	-1.5	10	20	987.7	NA	0.0000	UP BR	5000	360	0	0	0
2017/06/04 14:59:00	BASE	5.28	302	6.38	305	-0.7	94	-1.5	11	21	987.7	NA	0.0000	UP BR	5000	330	0	0	0
2017/06/04 15:00:00	BASE	5.04	302	6.38	305	-0.8	95	-1.5	11	22	987.7	NA	0.0000	UP BR	5000	300	0	0	0
2017/06/04 15:01:00	BASE	4.83	303	6.17	301	-0.8	95	-1.5	11	22	987.7	NA	0.0000	UP BR	4900	330	0	0	0
2017/06/04 15:02:00	BASE	4.61	304	6.17	301	-0.8	95	-1.5	12	23	987.8	NA	0.0000	UP BR	5000	330	0	0	0
2017/06/04 15:03:00	BASE	4.68	305	6.17	301	-0.7	95	-1.4	12	23	987.7	NA	0.0000	UP BR	6000	330	0	0	0
2017/06/04 15:04:00	BASE	4.95	304	6.17	301	-0.7	95	-1.4	12	23	987.7	NA	0.0000	UP BR	5000	330	0	0	0
2017/06/04 15:05:00	BASE	5.13	302	6.17	301	-0.7	95	-1.4	12	23	987.7	NA	0.0000	UP BR	5000	300	1380	0	0
2017/06/04 15:06:00	BASE	5.26	303	6.17	301	-0.7	95	-1.4	12	22	987.7	NA	0.0000	UP BR	5000	360	0	0	0
2017/06/04 15:07:00	BASE	5.43	307	6.17	304	-0.8	95	-1.5	13	24	987.7	NA	0.0000	UP BR	5000	330	0	0	0
2017/06/04 15:08:00	BASE	5.17	307	6.17	304	-0.8	95	-1.5	13	24	987.7	NA	0.0000	UP BR	5000	300	0	0	0
2017/06/04 15:09:00	BASE	4.79	307	6.17	304	-0.8	95	-1.5	14	25	987.7	NA	0.0000	UP BR	6000	330	0	0	0
2017/06/04 15:10:00	BASE	4.90	308	6.17	304	-0.8	95	-1.5	15	26	987.7	NA	0.0000	UP BR	6000	330	0	0	0
2017/06/04 15:11:00	BASE	5.15	307	6.17	304	-0.8	95	-1.5	16	27	987.7	NA	0.0000	UP BR	6000	330	0	0	0
2017/06/04 15:12:00	BASE	5.38	306	6.17	304	-0.8	95	-1.5	16	27	987.7	NA	0.0000	UP BR	6000	330	0	0	0
2017/06/04 15:13:00	BASE	5.30	306	6.17	304	-0.8	95	-1.5	17	29	987.7	NA	0.0000	UP BR	5000	230	0	0	0
2017/06/04 15:14:00	BASE	5.12	304	6.17	304	-0.8	95	-1.5	18	30	987.7	NA	0.0000	UP BR	4300	230	0	0	0
2017/06/04 15:15:00	BASE	5.28	305	6.17	304	-0.8	95	-1.5	19	32	987.7	NA	0.0000	UP BR	4100	330	0	0	0
2017/06/04 15:16:00	BASE	5.22	307	6.17	304	-0.8	95	-1.4	21	33	987.7	NA	0.0000	UP BR	5000	300	0	0	0
2017/06/04 15:17:00	BASE	5.01	308	5.71	307	-0.8	96	-1.4	22	35	987.7	NA	0.0000	UP BR	6000	360	0	0	0
2017/06/04 15:18:00	BASE	4.87	308	5.71	307	-0.8	96	-1.4	23	37	987.7	NA	0.0000	UP BR	6000	360	0	0	0
2017/06/04 15:19:00	BASE	4.72	309	5.71	307	-0.8	96	-1.4	24	38	987.7	NA	0.0000	UP BR	6000	430	0	0	0
2017/06/04 15:20:00	BASE	4.68	309	5.71	307	-0.8	96	-1.4	26	40	987.7	NA	0.0000	UP BR	6000	430	0	0	0
2017/06/04 15:21:00	BASE	4.79	311	5.71	307	-0.8	96	-1.4	26	41	987.7	NA	0.0000	UP BR	6000	430	0	0	0
2017/06/04 15:22:00	BASE	4.86	312	5.61	312	-0.8	96	-1.4	26	41	987.7	NA	0.0000	UP BR	6000	390	0	0	0
2017/06/04 15:23:00	BASE	4.82	310	5.61	312	-0.8	96	-1.4	27	42	987.7	NA	0.0000	UP BR	6000	330	0	0	0
2017/06/04 15:24:00	BASE	4.55	308	5.61	312	-0.8	96	-1.4	27	42	987.8	NA	0.0000	UP BR	6000	590	0	0	0
2017/06/04 15:25:00	BASE	4.42	307	5.56	318	-0.8	96	-1.4	27	42	987.8	NA	0.0000	UP BR	6000	560	1640	0	0
2017/06/04 15:26:00	BASE	4.39	307	5.56	318	-0.8	96	-1.4	27	43	987.6	NA	0.0000	UP BR	6000	390	0	0	0
2017/06/04 15:27:00	BASE	3.95	309	5.56	318	-0.8	96	-1.4	28	44	987.8	NA	0.0000	UP BR	6000	560	0	0	0
2017/06/04 15:28:00	BASE	3.67	310	5.56	318	-0.8	96	-1.4	28	44	987.8	NA	0.0000	UP BR	6000	490	0	0	0
2017/06/04 15:29:00	BASE	3.85	310	5.56	318	-0.8	96	-1.4	29	46	987.8	NA	0.0000	UP BR	6000	390	0	0	0
2017/06/04 15:30:00	BASE	3.97	312	5.56	318	-0.8	96	-1.4	30	48	987.8	NA	0.0000	UP BR	6000	430	0	0	0
2017/06/04 15:31:00	BASE	3.67	312	5.35	311	-0.8	96	-1.3	31	49	987.8	NA	0.0000	UP BR	6000	620	1440	0	0
2017/06/04 15:32:00	BASE	3.17	318	5.04	307	-0.8	96	-1.3	32	50	987.7	NA	0.0000	UP BR	6000	720	1280	0	0
2017/06/04 15:33:00	BASE	2.78	321	4.89	306	-0.8	96	-1.3	33	51	987.7	NA	0.0000	BR	6000	1310	0	0	0
2017/06/04 15:34:00	BASE	2.75	321	4.89	306	-0.8	96	-1.3	33	52	987.6	NA	0.0000	UP BR	7000	520	1640	0	0
2017/06/04 15:35:00	BASE	3.18	323	4.89	306	-0.8	96	-1.3	34	52	987.7	NA	0.0000	UP BR	9000	520	1610	0	0
2017/06/04 15:36:00	BASE	3.46	322	4.27	306	-0.8	96	-1.4	34	53	987.7	NA	0.0000	UP BR	9000	1480	0	0	0
2017/06/04 15:37:00	BASE	3.29	321	4.27	306	-0.8	96	-1.4	34	53	987.7	NA	0.0000	UP BR	9999	1180	2760	0	0
2017/06/04 15:38:00	BASE	3.05	319	4.27	306	-0.8	96	-1.4	34	53	987.7	NA	0.0000	UP BR	9999	0	0	0	4560
2017/06/04 15:39:00	BASE	2.95	319	4.12	311	-0.8	96	-1.4	35	53	987.7	NA	0.0000	UP BR	9999	1150	0	0	0
2017/06/04 15:40:00	BASE	3.02	318	3.96	319	-0.8	96	-1.4	35	53	987.7	NA	0.0000	UP BR	9999	1080	2430	0	0
2017/06/04 15:41:00	BASE	2.97	317	3.96	319	-0.8	96	-1.4	35	53	987.7	NA	0.0000	UP BR	9999	790	2460	0	0
2017/06/04 15:42:00	BASE	2.97	318	3.96	319	-0.8	96	-1.4	34	52	987.7	NA	0.0000	UP BR	9999	750	1440	0	0
2017/06/04 15:43:00	BASE	3.40	317	4.22	318	-0.8	96	-1.4	33	51	987.7	NA	0.0000	UP BR	9999	750	1380	0	0
2017/06/04 15:44:00	BASE	3.67	315	4.22	318	-0.8	96	-1.4	32	50	987.7	NA	0.0000	UP	9999	690	1380	0	0
2017/06/04 15:45:00	BASE	3.64	310	4.22	318	-0.8	96	-1.4	32	50	987.6	NA	0.0000		9999	1380	0	0	0
2017/06/04 15:46:00	BASE	3.55	310	4.22	318	-0.8	96	-1.4	31	49	987.6	NA	0.0000		9999	1350	0	0	0
2017/06/04 15:47:00	BASE	3.33	313	4.22	318	-0.8	96	-1.4	31	49	987.7	NA	0.0000		9999	1350	2030	0	0
2017/06/04 15:48:00	BASE	3.04	313	4.22	318	-0.8	96	-1.3	31	49	987.7	NA	0.0000		9999	1410	0	0	0
2017/06/04 15:49:00	BASE	3.06	314	4.22	318	-0.8	96	-1.3	31	50	987.7	NA	0.0000		9999	1540	0	0	0
2017/06/04 15:50:00	BASE	3.20	315	4.22	318	-0.8	96	-1.3	32	50	987.7	NA	0.0000		9999	1740	0	0	0
2017/06/04 15:51:00	BASE	3.15	317	4.22	318	-0.8	96	-1.3	32	51	987.7	NA	0.0000		9999	1310	0	0	0
2017/06/04 15:52:00	BASE	3.04	318	4.22	318	-0.7	96	-1.3	33	52	987.7	NA	0.0000		9999	1350	2530	0	0
2017/06/04 15:53:00	BASE	2.97	315	3.91	309	-0.7	96	-1.3	34	52	987.7	NA	0.0000		9999	1410	0	0	0
2017/06/04 15:54:00	BASE	3.07	314	3.91	309	-0.7	96	-1.3	34	52	987.7	NA	0.0000		9999	1610	0	0	0
2017/06/04 15:55:00	BASE	3.05	315	3.91	309	-0.7	96	-1.3	33	52	987.7	NA	0.0000		9999	1670	0	0	0
2017/06/04 15:56:00	BASE	3.30	317	4.27	323	-0.7	96	-1.3	32	51	987.6	NA	0.0000		9999	1740	0	0	0
2017/06/04 15:57:00	BASE	3.48	316	4.27	323	-0.7	96	-1.3	31	50	987.6	NA	0.0000		9999	1840	0	0	0
2017/06/04 15:58:00	BASE	3.83	314	4.68	320	-0.7	95	-1.3	30	49	987.6	NA	0.0000		9999	1940	2560	0	0
2017/06/04 15:59:00	BASE	4.15	317	4.68	320	-0.7	95	-1.4	29	48	987.6	NA	0.0000		9999	1970	0	0	0
2017/06/04 16:00:00	BASE	4.11	318	4.68	320	-0.7	95	-1.4	28	47	987.6	NA	0.0000		9999	2030	0	0	0
2017/06/04 16:01:00	BASE	3.91	316	4.68	320	-0.7	95	-1.4	27	46	987.6	NA	0.0000		9999	2070	0	0	0
2017/06/04 16:02:00	BASE	3.75	315	4.68	320	-0.7	95	-1.4	26	45	987.6	NA	0.0000		9999	1610	2230	0	0
2017/06/04 16:03:00	BASE	4.04	316	4.84	308	-0.7	95	-1.4	26	44	987.6	NA	0.0000		9999	1480	2300	0	0
2017/06/04 16:04:00	BASE	4.16	315	4.84	308	-0.7	95	-1.4	26	44	987.6	NA	0.0000		9999	2330	0	0	0
2017/06/04 16:05:00	BASE	4.42	314	5.04	311	-0.7	95	-1.4	26	45	987.6	NA	0.0000		9999	1480	2360	0	0
2017/06/04 16:06:00	BASE	4.63	316	5.04	311	-0.6	95	-1.3	26	45	987.6	NA	0.0000		9999	1480	2430	0	0
2017/06/04 16:07:00	BASE	4.61	314	5.25	306	-0.6	95	-1.3	27	46	987.6	NA	0.0000		9999	1280	2360	0	0
2017/06/04 16:08:00	BASE	4.85	310	5.35	310	-0.6	95	-1.4	27	46	987.6	NA	0.0000		9999	1150	2260	0	0
2017/06/04 16:09:00	BASE	5.06	303	5.45	302	-0.6	95	-1.4	27	45	987.6	NA	0.0000		9999	1150	0	0	0
2017/06/04 16:10:00	BASE	5.19	293	5.56	290	-0.6	94	-1.4	26	43	987.6	NA	0.0000		9999	390	1080	0	0
2017/06/04 16:11:00	BASE	5.10	287	5.56	290	-0.6	94	-1.4	24	40	987.6	NA	0.0000		9999	330	0	0	0
2017/06/04 16:12:00	BASE	5.02	287	5.56	290	-0.7	94	-1.5	23	39	987.6	NA	0.0000		9000	300	0	0	0
2017/06/04 16:13:00	BASE	4.83	284	5.56	290	-0.7	94	-1.5	22	38	987.6	NA	0.0000		7000	300	0	0	0
2017/06/04 16:14:00	BASE	4.62	281	5.56	290	-0.7	94	-1.6	21	36	987.6	NA	0.0000		6000	230	590	0	0
2017/06/04 16:15:00	BASE	4.48	281	5.56	290	-0.8	94	-1.6	20	35	987.7	NA	0.0000	BR	6000	200	0	0	0
2017/06/04 16:16:00	BASE	4.79	282	6.17	283	-0.8	94	-1.6	19	34	987.6	NA	0.0000	BR	5000	230	690	0	0
2017/06/04 16:17:00	BASE	5.54	284	6.17	283	-0.8	94	-1.7	19	34	987.6	NA	0.0000	BR	5000	230	950	0	0
2017/06/04 16:18:00	BASE	5.83	286	6.17	283	-0.8	94	-1.7	17	31	987.6	NA	0.0000	BR	5000	260	980	0	0
2017/06/04 16:19:00	BASE	5.77	288	6.17	283	-0.9	94	-1.6	15	27	987.6	NA	0.0000	BR	5000	230	0	0	0
2017/06/04 16:20:00	BASE	5.52	289	6.17	283	-0.9	95	-1.6	14	26	987.6	NA	0.0000	BR	4000	0	0	0	1150
2017/06/04 16:21:00	BASE	5.40	287	6.28	282	-0.9	95	-1.6	13	25	987.6	NA	0.0000	UP BR	2400	0	0	0	1210
2017/06/04 16:22:00	BASE	5.73	287	6.33	291	-0.9	95	-1.6	13	25	987.6	NA	0.0000	UP BR	1900	0	0	0	1640
2017/06/04 16:23:00	BASE	6.13	287	6.43	288	-0.9	95	-1.6	12	25	987.6	NA	0.0000	UP BR	2300	260	0	0	0
2017/06/04 16:24:00	BASE	6.10	287	6.43	288	-0.9	95	-1.6	12	25	987.6	NA	0.0000	UP BR	2900	230	0	0	0
2017/06/04 16:25:00	BASE	6.03	289	6.64	294	-1.0	95	-1.7	11	23	987.6	NA	0.0000	UP BR	2900	160	950	0	0
2017/06/04 16:26:00	BASE	5.86	289	6.64	294	-1.0	95	-1.7	11	23	987.6	NA	0.0000	UP BR	2300	0	0	0	1410
2017/06/04 16:27:00	BASE	5.53	288	6.64	294	-1.0	95	-1.7	10	22	987.6	NA	0.0000	UP BR	2100	0	0	0	1410
2017/06/04 16:28:00	BASE	5.74	289	6.64	294	-1.0	95	-1.7	10	22	987.6	NA	0.0000	UP BR	2300	230	1020	0	0
2017/06/04 16:29:00	BASE	5.98	288	6.64	294	-1.0	95	-1.7	10	22	987.6	NA	0.0000	UP BR	2000	0	0	0	1280
2017/06/04 16:30:00	BASE	6.02	287	6.64	294	-1.0	95	-1.7	10	22	987.6	NA	0.0000	UP BR	1500	0	0	0	1480
2017/06/04 16:31:00	BASE	6.03	288	6.64	294	-1.1	96	-1.7	10	22	987.6	NA	0.0000	UP BR	1400	0	0	0	1380
2017/06/04 16:32:00	BASE	5.87	289	6.64	294	-1.1	96	-1.7	10	23	987.6	NA	0.0000	UP BR	1400	0	0	0	1610
2017/06/04 16:33:00	BASE	5.62	291	6.64	294	-1.1	96	-1.7	10	23	987.6	NA	0.0000	UP BR	1300	0	0	0	1540
2017/06/04 16:34:00	BASE	5.36	293	6.64	294	-1.1	96	-1.7	11	23	987.6	NA	0.0000	UP BR	1700	0	0	0	1440
2017/06/04 16:35:00	BASE	5.39	292	6.38	288	-1.2	96	-1.7	11	23	987.6	NA	0.0000	UP BR	3500	230	0	0	0
2017/06/04 16:36:00	BASE	5.26	291	6.38	288	-1.2	96	-1.7	11	23	987.6	NA	0.0000	UP BR	7000	230	0	0	0
2017/06/04 16:37:00	BASE	5.06	291	6.38	288	-1.2	96	-1.7	11	25	987.6	NA	0.0000	UP BR	8000	200	0	0	0
2017/06/04 16:38:00	BASE	5.21	291	6.38	288	-1.2	96	-1.7	12	26	987.6	NA	0.0000	UP BR	8000	230	0	0	0
2017/06/04 16:39:00	BASE	5.16	294	6.38	288	-1.2	96	-1.7	13	27	987.5	NA	0.0000	UP BR	8000	200	0	0	0
2017/06/04 16:40:00	BASE	5.14	293	6.17	288	-1.2	96	-1.7	13	27	987.5	NA	0.0000	UP BR	8000	230	0	0	0
2017/06/04 16:41:00	BASE	5.52	290	6.02	289	-1.2	96	-1.7	14	28	987.6	NA	0.0000	UP BR	8000	160	0	0	0
2017/06/04 16:42:00	BASE	5.57	292	5.86	292	-1.2	96	-1.7	16	31	987.6	NA	0.0000	UP BR	8000	200	0	0	0
2017/06/04 16:43:00	BASE	5.33	293	5.86	292	-1.2	96	-1.7	17	33	987.6	NA	0.0000	UP BR	8000	260	0	0	0
2017/06/04 16:44:00	BASE	5.07	294	5.86	292	-1.2	96	-1.7	18	36	987.6	NA	0.0000	UP BR	8000	260	2330	0	0
2017/06/04 16:45:00	BASE	4.93	294	5.86	292	-1.2	96	-1.8	19	37	987.6	NA	0.0000	BR	8000	230	2360	0	0
2017/06/04 16:46:00	BASE	5.13	295	5.86	292	-1.2	96	-1.8	20	38	987.6	NA	0.0000	BR	8000	260	2230	0	0
2017/06/04 16:47:00	BASE	5.20	296	5.86	292	-1.2	96	-1.8	20	38	987.6	NA	0.0000	BR	9999	260	2660	0	0
2017/06/04 16:48:00	BASE	5.21	295	5.86	292	-1.2	96	-1.7	20	39	987.6	NA	0.0000	BR	9999	230	0	0	0
2017/06/04 16:49:00	BASE	5.19	296	5.86	292	-1.2	96	-1.7	21	39	987.6	NA	0.0000	BR	9999	260	0	0	0
2017/06/04 16:50:00	BASE	4.95	299	5.86	292	-1.2	97	-1.7	21	40	987.6	NA	0.0000	BR	9999	230	950	0	0
2017/06/04 16:51:00	BASE	4.78	301	5.61	298	-1.2	97	-1.6	21	40	987.6	NA	0.0000	BR	9999	260	0	0	0
2017/06/04 16:52:00	BASE	4.79	300	5.61	298	-1.2	97	-1.6	21	39	987.5	NA	0.0000	BR	9999	230	0	0	0
2017/06/04 16:53:00	BASE	4.86	297	5.61	298	-1.2	97	-1.6	21	39	987.5	NA	0.0000	BR	9999	260	2360	0	0
2017/06/04 16:54:00	BASE	4.78	296	5.61	298	-1.2	97	-1.6	20	37	987.5	NA	0.0000		9999	260	2360	0	0
2017/06/04 16:55:00	BASE	5.07	295	5.71	297	-1.2	97	-1.6	19	35	987.5	NA	0.0000		9999	230	0	0	0
2017/06/04 16:56:00	BASE	5.41	295	5.86	295	-1.2	97	-1.6	18	34	987.5	NA	0.0000		9999	300	2360	0	0
2017/06/04 16:57:00	BASE	5.39	295	5.86	295	-1.2	97	-1.7	17	33	987.5	NA	0.0000		9999	260	0	0	0
2017/06/04 16:58:00	BASE	5.53	293	5.86	293	-1.3	97	-1.7	17	32	987.5	NA	0.0000		9999	300	920	0	0
2017/06/04 16:59:00	BASE	5.41	291	5.86	293	-1.3	97	-1.7	16	31	987.5	NA	0.0000		9999	300	0	0	0
2017/06/04 17:00:00	BASE	5.23	289	5.86	293	-1.3	97	-1.7	15	30	987.4	NA	0.0000		9999	360	0	0	0
2017/06/04 17:01:00	BASE	5.24	291	5.86	293	-1.3	97	-1.7	15	30	987.5	NA	0.0000		9999	390	790	0	0
2017/06/04 17:02:00	BASE	5.23	293	5.86	293	-1.3	97	-1.7	15	29	987.5	NA	0.0000		9999	430	850	0	0
2017/06/04 17:03:00	BASE	5.17	295	5.86	293	-1.3	97	-1.7	15	29	987.5	NA	0.0000		9999	750	1710	0	0
2017/06/04 17:04:00	BASE	5.18	298	5.86	293	-1.3	97	-1.7	15	29	987.5	NA	0.0000		9999	790	1740	0	0
2017/06/04 17:05:00	BASE	5.19	298	5.86	293	-1.3	97	-1.7	14	28	987.5	NA	0.0000		9999	790	2030	0	0
2017/06/04 17:06:00	BASE	4.85	295	5.86	293	-1.3	97	-1.7	14	28	987.5	NA	0.0000		9999	720	2130	0	0
2017/06/04 17:07:00	BASE	4.77	292	5.86	293	-1.3	97	-1.7	13	27	987.6	NA	0.0000		9999	430	0	0	0
2017/06/04 17:08:00	BASE	4.89	291	5.56	292	-1.3	97	-1.7	13	26	987.5	NA	0.0000		9999	390	790	0	0
2017/06/04 17:09:00	BASE	5.04	291	5.56	292	-1.3	97	-1.7	13	26	987.5	NA	0.0000		9999	330	0	0	0
2017/06/04 17:10:00	BASE	5.15	292	5.61	292	-1.3	97	-1.7	13	26	987.5	NA	0.0000		9999	300	750	0	0
2017/06/04 17:11:00	BASE	5.10	294	5.61	292	-1.3	97	-1.7	12	25	987.4	NA	0.0000		9999	330	820	0	0
2017/06/04 17:12:00	BASE	5.04	293	5.61	292	-1.3	97	-1.7	12	24	987.4	NA	0.0000		9999	1970	0	0	0
2017/06/04 17:13:00	BASE	4.77	291	5.61	292	-1.3	97	-1.7	11	23	987.4	NA	0.0000		9999	750	2100	0	0
2017/06/04 17:14:00	BASE	4.71	294	5.61	292	-1.3	97	-1.7	11	23	987.4	NA	0.0000		9999	300	690	0	0
2017/06/04 17:15:00	BASE	4.80	296	5.61	292	-1.3	97	-1.7	10	21	987.4	NA	0.0000		9999	620	1540	0	0
2017/06/04 17:16:00	BASE	4.89	297	5.61	292	-1.3	97	-1.7	9	20	987.4	NA	0.0000		9999	360	0	0	0
2017/06/04 17:17:00	BASE	5.04	297	5.61	292	-1.3	97	-1.7	9	20	987.4	NA	0.0000		9999	390	1480	0	0
2017/06/04 17:18:00	BASE	5.24	297	5.86	299	-1.3	97	-1.7	9	19	987.4	NA	0.0000		9999	850	1440	0	0
2017/06/04 17:19:00	BASE	5.25	298	5.86	296	-1.3	97	-1.7	8	18	987.4	NA	0.0000		9999	790	0	0	0
2017/06/04 17:20:00	BASE	5.30	298	5.86	296	-1.3	97	-1.7	8	18	987.4	NA	0.0000		9999	790	1440	0	0
2017/06/04 17:21:00	BASE	5.36	298	5.86	296	-1.3	97	-1.7	8	17	987.4	NA	0.0000		9999	520	1380	0	0
2017/06/04 17:22:00	BASE	5.29	298	5.86	296	-1.3	97	-1.7	8	17	987.5	NA	0.0000		9999	790	0	0	0
2017/06/04 17:23:00	BASE	5.00	300	5.86	296	-1.3	97	-1.7	8	17	987.5	NA	0.0000		9999	590	1440	0	0
2017/06/04 17:24:00	BASE	4.55	297	5.86	296	-1.3	97	-1.7	8	16	987.5	NA	0.0000		9999	460	0	0	0
2017/06/04 17:25:00	BASE	4.26	293	5.86	296	-1.3	97	-1.7	8	16	987.5	NA	0.0000		9999	390	0	0	0
2017/06/04 17:26:00	BASE	4.38	291	5.86	296	-1.3	97	-1.7	7	16	987.5	NA	0.0000		9999	390	0	0	0
2017/06/04 17:27:00	BASE	4.60	293	5.86	296	-1.3	97	-1.7	7	15	987.5	NA	0.0000		9999	520	1350	0	0
2017/06/04 17:28:00	BASE	4.47	295	5.86	296	-1.3	97	-1.7	7	15	987.5	NA	0.0000		9999	520	1480	0	0
2017/06/04 17:29:00	BASE	4.39	296	5.76	299	-1.3	97	-1.7	7	15	987.5	NA	0.0000		9999	820	1440	0	0
2017/06/04 17:30:00	BASE	4.31	296	5.61	301	-1.3	97	-1.7	7	15	987.6	NA	0.0000		9999	820	1480	0	0
2017/06/04 17:31:00	BASE	4.49	295	5.61	301	-1.3	97	-1.7	7	15	987.5	NA	0.0000		9999	560	1480	0	0
2017/06/04 17:32:00	BASE	4.86	295	5.20	295	-1.3	97	-1.7	7	15	987.5	NA	0.0000		9999	460	1510	0	0
2017/06/04 17:33:00	BASE	5.01	295	5.30	295	-1.3	97	-1.7	7	15	987.5	NA	0.0000		9999	490	1510	0	0
2017/06/04 17:34:00	BASE	5.10	295	5.35	291	-1.3	97	-1.7	8	15	987.5	NA	0.0000		9999	660	1480	0	0
2017/06/04 17:35:00	BASE	4.93	294	5.35	291	-1.3	97	-1.7	8	15	987.5	NA	0.0000		9999	620	1410	0	0
2017/06/04 17:36:00	BASE	4.66	294	5.35	291	-1.3	97	-1.7	8	15	987.5	NA	0.0000		9999	690	0	0	0
2017/06/04 17:37:00	BASE	4.72	291	5.35	291	-1.3	97	-1.7	8	15	987.6	NA	0.0000		9999	590	0	0	0
2017/06/04 17:38:00	BASE	4.95	291	5.45	295	-1.3	97	-1.7	9	15	987.5	NA	0.0000		9999	660	0	0	0
2017/06/04 17:39:00	BASE	4.79	292	5.45	295	-1.3	97	-1.7	9	15	987.6	NA	0.0000		9999	690	1540	0	0
2017/06/04 17:40:00	BASE	4.49	291	5.45	295	-1.3	97	-1.7	9	15	987.5	NA	0.0000		9999	720	0	0	0
2017/06/04 17:41:00	BASE	4.63	290	5.45	295	-1.3	97	-1.7	10	15	987.5	NA	0.0000		9999	750	0	0	0
2017/06/04 17:42:00	BASE	5.01	291	5.45	293	-1.3	97	-1.7	10	15	987.4	NA	0.0000		9999	790	0	0	0
2017/06/04 17:43:00	BASE	5.08	292	5.45	293	-1.3	97	-1.7	11	16	987.4	NA	0.0000		9999	790	0	0	0
2017/06/04 17:44:00	BASE	4.88	293	5.45	293	-1.3	97	-1.7	12	18	987.4	NA	0.0000		9999	820	0	0	0
2017/06/04 17:45:00	BASE	4.99	295	5.56	296	-1.3	97	-1.7	13	19	987.4	NA	0.0000		9999	890	1380	0	0
2017/06/04 17:46:00	BASE	5.12	294	5.56	296	-1.3	97	-1.7	14	20	987.4	NA	0.0000		9999	890	1380	0	0
2017/06/04 17:47:00	BASE	4.92	292	5.56	296	-1.3	97	-1.7	14	20	987.4	NA	0.0000		9999	1120	0	0	0
2017/06/04 17:48:00	BASE	4.88	293	5.56	296	-1.3	97	-1.7	14	20	987.4	NA	0.0000		9999	890	0	0	0
2017/06/04 17:49:00	BASE	4.81	293	5.56	296	-1.3	97	-1.7	13	19	987.4	NA	0.0000		9999	790	0	0	0
2017/06/04 17:50:00	BASE	4.41	291	5.56	296	-1.3	97	-1.7	13	18	987.4	NA	0.0000		9999	390	0	0	0
2017/06/04 17:51:00	BASE	4.29	289	5.56	296	-1.3	97	-1.7	13	18	987.4	NA	0.0000		9999	430	0	0	0
2017/06/04 17:52:00	BASE	4.34	287	5.56	296	-1.3	97	-1.7	12	17	987.4	NA	0.0000		9999	360	0	0	0
2017/06/04 17:53:00	BASE	4.32	286	5.56	296	-1.3	97	-1.8	11	15	987.4	NA	0.0000		9999	360	0	0	0
2017/06/04 17:54:00	BASE	4.47	286	5.56	296	-1.3	97	-1.8	10	14	987.4	NA	0.0000		9999	360	0	0	0
2017/06/04 17:55:00	BASE	4.75	287	5.25	286	-1.4	97	-1.8	9	14	987.4	NA	0.0000		9999	360	0	0	0
2017/06/04 17:56:00	BASE	4.86	287	5.25	286	-1.4	97	-1.8	9	13	987.4	NA	0.0000		9999	460	0	0	0
2017/06/04 17:57:00	BASE	4.75	286	5.25	286	-1.4	97	-1.8	8	13	987.4	NA	0.0000		9999	390	0	0	0
2017/06/04 17:58:00	BASE	4.83	286	5.35	294	-1.4	97	-1.8	8	12	987.4	NA	0.0000		9999	920	1610	0	0
2017/06/04 17:59:00	BASE	4.84	287	5.40	287	-1.4	97	-1.8	7	12	987.4	NA	0.0000		9000	660	0	0	0
2017/06/04 18:00:00	BASE	4.83	289	5.45	293	-1.4	97	-1.8	7	11	987.4	NA	0.0000		9999	790	0	0	0
2017/06/04 18:01:00	BASE	4.85	291	5.45	293	-1.4	97	-1.8	6	10	987.4	NA	0.0000		9999	1020	1570	0	0
2017/06/04 18:02:00	BASE	4.83	292	5.45	293	-1.4	97	-1.8	6	10	987.4	NA	0.0000		9999	850	1570	0	0
2017/06/04 18:03:00	BASE	4.74	293	5.45	293	-1.4	97	-1.8	5	9	987.4	NA	0.0000		9999	790	1540	0	0
2017/06/04 18:04:00	BASE	4.68	292	5.45	293	-1.4	97	-1.8	5	9	987.4	NA	0.0000		9999	660	1610	0	0
2017/06/04 18:05:00	BASE	4.70	292	5.45	293	-1.4	97	-1.8	5	8	987.4	NA	0.0000		9999	850	1670	0	0
2017/06/04 18:06:00	BASE	4.78	292	5.45	293	-1.4	97	-1.8	5	8	987.4	NA	0.0000		9999	720	1670	0	0
2017/06/04 18:07:00	BASE	4.86	293	5.45	293	-1.4	97	-1.8	4	7	987.4	NA	0.0000		9999	520	0	0	0
2017/06/04 18:08:00	BASE	4.56	294	5.45	293	-1.4	97	-1.8	4	7	987.4	NA	0.0000		9999	520	0	0	0
2017/06/04 18:09:00	BASE	4.36	294	5.45	293	-1.4	97	-1.8	4	6	987.4	NA	0.0000		9999	390	0	0	0
2017/06/04 18:10:00	BASE	4.33	293	5.35	290	-1.4	97	-1.8	3	6	987.4	NA	0.0000		9000	360	0	0	0
2017/06/04 18:11:00	BASE	4.27	293	5.30	292	-1.4	97	-1.8	3	5	987.5	NA	0.0000		7000	360	0	0	0
2017/06/04 18:12:00	BASE	4.16	290	5.30	292	-1.4	97	-1.8	3	5	987.5	NA	0.0000	BR	6000	330	0	0	0
2017/06/04 18:13:00	BASE	4.30	288	5.30	292	-1.4	97	-1.8	3	4	987.5	NA	0.0000	UP BR	4700	300	0	0	0
2017/06/04 18:14:00	BASE	4.47	289	5.20	296	-1.4	97	-1.8	3	4	987.4	NA	0.0000	UP BR	4000	300	0	0	0
2017/06/04 18:15:00	BASE	4.44	291	5.20	296	-1.4	97	-1.8	2	4	987.4	NA	0.0000	UP BR	4600	330	0	0	0
2017/06/04 18:16:00	BASE	4.31	289	5.04	295	-1.4	97	-1.8	2	4	987.4	NA	0.0000	UP BR	4800	330	1020	0	0
2017/06/04 18:17:00	BASE	4.19	288	4.89	292	-1.4	97	-1.8	2	4	987.4	NA	0.0000	UP BR	5000	330	1080	0	0
2017/06/04 18:18:00	BASE	4.29	290	4.89	292	-1.4	97	-1.8	2	4	987.4	NA	0.0000	UP BR	6000	390	1020	0	0
2017/06/04 18:19:00	BASE	4.21	290	4.89	292	-1.4	97	-1.8	2	4	987.4	NA	0.0000	UP BR	8000	390	0	0	0
2017/06/04 18:20:00	BASE	4.12	289	4.89	292	-1.4	97	-1.8	2	4	987.4	NA	0.0000	UP BR	9000	430	0	0	0
2017/06/04 18:21:00	BASE	4.27	289	4.89	292	-1.4	97	-1.8	2	4	987.4	NA	0.0000	UP BR	9999	460	0	0	0
2017/06/04 18:22:00	BASE	4.40	287	4.89	292	-1.4	97	-1.8	2	4	987.4	NA	0.0000	UP BR	9999	590	0	0	0
2017/06/04 18:23:00	BASE	4.49	286	4.89	292	-1.4	97	-1.8	2	4	987.4	NA	0.0000	UP BR	9999	490	0	0	0
2017/06/04 18:24:00	BASE	4.52	286	4.84	295	-1.4	97	-1.8	2	4	987.4	NA	0.0000	UP BR	9999	460	950	0	0
2017/06/04 18:25:00	BASE	4.52	286	4.78	288	-1.4	97	-1.8	2	3	987.4	NA	0.0000	UP BR	9999	430	0	0	0
2017/06/04 18:26:00	BASE	4.57	286	4.78	285	-1.4	97	-1.8	2	3	987.4	NA	0.0000	UP BR	9999	390	0	0	0
2017/06/04 18:27:00	BASE	4.59	286	4.78	285	-1.4	97	-1.8	2	3	987.4	NA	0.0000	UP BR	9999	360	0	0	0
2017/06/04 18:28:00	BASE	4.59	287	4.89	289	-1.4	97	-1.8	2	3	987.4	NA	0.0000	UP	9999	430	0	0	0
2017/06/04 18:29:00	BASE	4.57	288	4.89	289	-1.4	97	-1.8	2	3	987.3	NA	0.0000	UP	9999	390	0	0	0
2017/06/04 18:30:00	BASE	4.43	288	4.89	289	-1.4	97	-1.8	2	3	987.3	NA	0.0000	UP	9999	430	950	0	0
2017/06/04 18:31:00	BASE	4.23	287	4.89	289	-1.4	97	-1.8	2	3	987.3	NA	0.0000	UP	9999	360	3540	0	0
2017/06/04 18:32:00	BASE	4.14	286	4.89	289	-1.4	97	-1.8	2	3	987.3	NA	0.0000	UP	9999	3540	0	0	0
2017/06/04 18:33:00	BASE	4.09	285	4.89	289	-1.4	97	-1.8	2	3	987.3	NA	0.0000		9999	3450	0	0	0
2017/06/04 18:34:00	BASE	4.06	284	4.89	289	-1.4	97	-1.8	2	2	987.3	NA	0.0000		9999	390	3380	0	0
2017/06/04 18:35:00	BASE	4.03	283	4.89	289	-1.4	97	-1.8	2	2	987.3	NA	0.0000		9999	3410	0	0	0
2017/06/04 18:36:00	BASE	3.97	284	4.89	289	-1.4	97	-1.8	2	2	987.3	NA	0.0000		9999	0	0	0	1120
2017/06/04 18:37:00	BASE	4.19	285	4.89	289	-1.4	97	-1.8	2	2	987.3	NA	0.0000		9999	4170	6500	0	0
2017/06/04 18:38:00	BASE	4.47	285	4.89	281	-1.4	97	-1.8	2	1	987.3	NA	0.0000		9999	3410	5840	0	0
2017/06/04 18:39:00	BASE	4.60	285	4.99	288	-1.4	97	-1.8	1	1	987.3	NA	0.0000		9999	1180	3380	0	0
2017/06/04 18:40:00	BASE	4.44	285	4.99	288	-1.4	97	-1.8	1	1	987.3	NA	0.0000		9999	1120	0	0	0
2017/06/04 18:41:00	BASE	4.43	286	4.99	288	-1.4	97	-1.8	1	1	987.3	NA	0.0000		9999	430	1080	0	0
2017/06/04 18:42:00	BASE	4.34	286	4.99	288	-1.4	97	-1.8	1	0	987.4	NA	0.0000		9999	330	0	0	0
2017/06/04 18:43:00	BASE	4.06	287	4.99	288	-1.4	97	-1.8	1	0	987.4	NA	0.0000		9999	330	1180	0	0
2017/06/04 18:44:00	BASE	4.04	287	4.99	288	-1.4	97	-1.8	1	0	987.4	NA	0.0000		9999	360	0	0	0
2017/06/04 18:45:00	BASE	4.16	289	4.99	288	-1.4	98	-1.7	1	0	987.3	NA	0.0000		9999	1080	0	0	0
2017/06/04 18:46:00	BASE	4.40	295	4.99	288	-1.4	98	-1.7	1	0	987.3	NA	0.0000		9999	1050	0	0	0
2017/06/04 18:47:00	BASE	4.48	298	4.99	288	-1.4	98	-1.7	1	0	987.3	NA	0.0000		9999	0	0	0	6460
2017/06/04 18:48:00	BASE	4.47	300	4.99	288	-1.4	98	-1.7	1	0	987.3	NA	0.0000		9999	0	0	0	5810
2017/06/04 18:49:00	BASE	4.41	300	4.89	287	-1.4	98	-1.7	1	0	987.3	NA	0.0000		9999	0	0	0	6200
2017/06/04 18:50:00	BASE	4.24	301	4.89	287	-1.4	98	-1.7	1	0	987.3	NA	0.0000		9999	0	0	0	5910
2017/06/04 18:51:00	BASE	4.26	302	4.84	298	-1.4	98	-1.7	1	0	987.3	NA	0.0000		9999	0	0	0	5580
2017/06/04 18:52:00	BASE	4.40	302	4.84	298	-1.4	98	-1.7	1	0	987.3	NA	0.0000		9999	0	0	0	5680
2017/06/04 18:53:00	BASE	4.26	304	4.84	298	-1.4	98	-1.7	1	0	987.3	NA	0.0000		9999	0	0	0	5840
2017/06/04 18:54:00	BASE	4.32	304	4.84	298	-1.4	98	-1.7	1	0	987.3	NA	0.0000		9999	0	0	0	5450
2017/06/04 18:55:00	BASE	4.58	303	4.84	302	-1.4	98	-1.7	1	0	987.3	NA	0.0000		9999	0	0	0	5480
2017/06/04 18:56:00	BASE	4.66	303	4.84	302	-1.4	98	-1.7	1	0	987.3	NA	0.0000		9999	0	0	0	5540
2017/06/04 18:57:00	BASE	4.46	303	4.84	302	-1.4	98	-1.7	1	0	987.3	NA	0.0000	UP	9999	0	0	0	5410
2017/06/04 18:58:00	BASE	4.45	302	4.94	300	-1.4	98	-1.7	1	0	987.3	NA	0.0000	UP	9999	0	0	0	5540
2017/06/04 18:59:00	BASE	4.60	302	4.94	300	-1.5	98	-1.7	1	0	987.3	NA	0.0000	UP	9999	0	0	0	5350
2017/06/04 19:00:00	BASE	4.57	302	4.94	300	-1.5	98	-1.7	1	0	987.3	NA	0.0000	UP	8000	0	0	0	5410
2017/06/04 19:01:00	BASE	4.62	301	4.94	300	-1.4	98	-1.7	1	0	987.3	NA	0.0000	UP	9000	0	0	0	5320
2017/06/04 19:02:00	BASE	4.56	299	4.94	300	-1.4	98	-1.7	0	0	987.2	NA	0.0000	UP	9999	0	0	0	5280
2017/06/04 19:03:00	BASE	4.56	298	4.99	296	-1.4	98	-1.7	0	0	987.2	NA	0.0000	UP	9999	0	0	0	5090
2017/06/04 19:04:00	BASE	4.67	298	5.14	298	-1.4	98	-1.7	0	0	987.2	NA	0.0000	UP	9999	0	0	0	5480
2017/06/04 19:05:00	BASE	4.50	297	5.14	298	-1.4	98	-1.7	0	0	987.2	NA	0.0000	UP BR	9000	0	0	0	5250
2017/06/04 19:06:00	BASE	4.48	295	5.14	298	-1.4	98	-1.7	0	0	987.2	NA	0.0000	UP BR	7000	0	0	0	5250
2017/06/04 19:07:00	BASE	4.66	295	5.14	298	-1.4	98	-1.7	0	0	987.2	NA	0.0000	UP BR	7000	0	0	0	5510
2017/06/04 19:08:00	BASE	4.77	294	5.25	291	-1.4	97	-1.7	0	0	987.2	NA	0.0000	UP BR	8000	0	0	0	5540
2017/06/04 19:09:00	BASE	4.91	294	5.25	294	-1.4	97	-1.8	0	0	987.2	NA	0.0000	UP BR	8000	0	0	0	6370
2017/06/04 19:10:00	BASE	4.82	294	5.25	294	-1.4	97	-1.8	0	0	987.2	NA	0.0000	UP BR	7000	0	0	0	5540
2017/06/04 19:11:00	BASE	4.79	295	5.25	294	-1.4	97	-1.8	0	0	987.2	NA	0.0000	UP BR	8000	6590	0	0	0
2017/06/04 19:12:00	BASE	4.94	295	5.25	294	-1.4	97	-1.8	0	0	987.2	NA	0.0000	UP BR	9000	6530	0	0	0
2017/06/04 19:13:00	BASE	5.05	295	5.35	295	-1.4	97	-1.8	0	0	987.2	NA	0.0000	UP BR	9000	6460	0	0	0
2017/06/04 19:14:00	BASE	5.24	295	5.45	295	-1.4	97	-1.8	0	0	987.2	NA	0.0000	UP BR	8000	390	0	0	0
2017/06/04 19:15:00	BASE	5.26	295	5.45	295	-1.4	97	-1.8	0	0	987.2	NA	0.0000	UP BR	8000	390	0	0	0
2017/06/04 19:16:00	BASE	5.10	296	5.45	295	-1.4	97	-1.8	0	0	987.2	NA	0.0000	UP BR	9000	390	0	0	0
2017/06/04 19:17:00	BASE	4.97	297	5.45	295	-1.4	97	-1.8	0	0	987.2	NA	0.0000	UP BR	9000	360	0	0	0
2017/06/04 19:18:00	BASE	4.86	296	5.45	295	-1.4	97	-1.8	0	0	987.2	NA	0.0000	UP BR	9000	360	0	0	0
2017/06/04 19:19:00	BASE	4.77	296	5.45	295	-1.4	97	-1.8	0	0	987.2	NA	0.0000	UP BR	9000	1020	0	0	0
2017/06/04 19:20:00	BASE	4.60	297	5.45	295	-1.4	97	-1.8	0	0	987.2	NA	0.0000	UP BR	9000	1120	6270	0	0
2017/06/04 19:21:00	BASE	4.59	299	5.45	306	-1.3	97	-1.8	0	0	987.2	NA	0.0000	UP BR	9000	8600	0	0	0
2017/06/04 19:22:00	BASE	4.87	302	5.45	306	-1.3	97	-1.7	0	0	987.2	NA	0.0000	UP BR	9000	1050	8500	0	0
2017/06/04 19:23:00	BASE	4.92	301	5.45	306	-1.3	97	-1.7	0	0	987.2	NA	0.0000	UP BR	9000	1020	0	0	0
2017/06/04 19:24:00	BASE	5.13	298	5.61	297	-1.3	97	-1.7	0	0	987.2	NA	0.0000	UP BR	9000	1020	0	0	0
2017/06/04 19:25:00	BASE	5.30	296	5.66	298	-1.3	97	-1.7	0	0	987.2	NA	0.0000	BR	9000	850	0	0	0
2017/06/04 19:26:00	BASE	5.29	295	5.76	296	-1.3	97	-1.7	0	0	987.2	NA	0.0000	BR	9000	950	0	0	0
2017/06/04 19:27:00	BASE	5.20	295	5.76	296	-1.3	97	-1.7	0	0	987.2	NA	0.0000	BR	9000	920	0	0	0
2017/06/04 19:28:00	BASE	5.35	295	5.92	296	-1.3	97	-1.7	0	0	987.2	NA	0.0000	BR	9000	920	0	0	0
2017/06/04 19:29:00	BASE	5.53	294	5.92	296	-1.4	97	-1.8	0	0	987.2	NA	0.0000	BR	9000	980	0	0	0
2017/06/04 19:30:00	BASE	5.48	294	5.92	296	-1.4	97	-1.8	0	0	987.2	NA	0.0000	BR	9000	890	0	0	0
2017/06/04 19:31:00	BASE	5.62	296	5.92	296	-1.4	97	-1.8	0	0	987.2	NA	0.0000	BR	9000	850	0	0	0
2017/06/04 19:32:00	BASE	5.29	298	5.92	296	-1.4	97	-1.8	0	0	987.2	NA	0.0000	BR	9000	920	0	0	0
2017/06/04 19:33:00	BASE	5.03	297	5.92	296	-1.4	97	-1.8	0	0	987.1	NA	0.0000	BR	9000	920	0	0	0
2017/06/04 19:34:00	BASE	5.19	296	5.92	296	-1.4	97	-1.8	0	0	987.1	NA	0.0000	BR	9000	1080	0	0	0
2017/06/04 19:35:00	BASE	5.19	295	5.92	296	-1.4	97	-1.8	0	0	987.2	NA	0.0000	UP BR	9000	1050	0	0	0
2017/06/04 19:36:00	BASE	5.13	296	5.92	296	-1.4	97	-1.8	0	0	987.1	NA	0.0000	UP BR	9999	1050	0	0	0
2017/06/04 19:37:00	BASE	4.93	297	5.92	296	-1.4	97	-1.8	0	0	987.2	NA	0.0000	UP BR	9999	1050	0	0	0
2017/06/04 19:38:00	BASE	4.44	294	5.86	295	-1.4	97	-1.8	0	0	987.2	NA	0.0000	UP BR	9999	260	1080	0	0
2017/06/04 19:39:00	BASE	4.42	293	5.86	295	-1.4	97	-1.8	0	0	987.2	NA	0.0000	BR	9999	330	1020	0	0
2017/06/04 19:40:00	BASE	4.89	295	5.86	295	-1.4	97	-1.8	0	0	987.1	NA	0.0000	BR	9999	330	1050	0	0
2017/06/04 19:41:00	BASE	4.91	296	5.56	295	-1.4	97	-1.9	0	0	987.2	NA	0.0000	BR	9999	360	950	0	0
2017/06/04 19:42:00	BASE	4.76	296	5.56	295	-1.5	97	-1.9	0	0	987.1	NA	0.0000	BR	9999	360	1050	0	0
2017/06/04 19:43:00	BASE	5.01	297	5.81	296	-1.5	97	-1.9	0	0	987.2	NA	0.0000	BR	9999	1120	8140	0	0
2017/06/04 19:44:00	BASE	5.26	299	5.81	296	-1.5	97	-1.9	0	0	987.1	NA	0.0000	BR	9999	790	8270	0	0
2017/06/04 19:45:00	BASE	5.19	298	5.81	296	-1.5	97	-1.9	0	0	987.1	NA	0.0000	BR	9999	750	8300	0	0
2017/06/04 19:46:00	BASE	4.96	297	5.81	296	-1.6	97	-2.0	0	0	987.1	NA	0.0000		9999	820	8200	0	0
2017/06/04 19:47:00	BASE	4.79	301	5.81	296	-1.6	97	-2.0	0	0	987.1	NA	0.0000		9999	690	8200	0	0
2017/06/04 19:48:00	BASE	4.72	301	5.81	296	-1.6	97	-2.0	0	0	987.1	NA	0.0000		9999	820	8200	0	0
2017/06/04 19:49:00	BASE	4.69	302	5.81	296	-1.6	97	-2.0	0	0	987.1	NA	0.0000		9999	790	8300	0	0
2017/06/04 19:50:00	BASE	4.62	304	5.81	296	-1.6	97	-2.0	0	0	987.1	NA	0.0000		9999	620	8330	0	0
2017/06/04 19:51:00	BASE	4.50	303	5.81	296	-1.6	97	-2.0	0	0	987.2	NA	0.0000		9999	1250	8100	0	0
2017/06/04 19:52:00	BASE	4.29	302	5.81	296	-1.6	97	-2.0	0	0	987.2	NA	0.0000		9999	820	1350	0	0
2017/06/04 19:53:00	BASE	4.24	302	5.71	299	-1.6	97	-2.0	0	0	987.2	NA	0.0000		9999	1180	8200	0	0
2017/06/04 19:54:00	BASE	4.09	303	5.30	298	-1.6	97	-2.0	0	0	987.2	NA	0.0000		9999	820	8300	0	0
2017/06/04 19:55:00	BASE	3.93	304	5.20	303	-1.6	97	-2.0	0	0	987.2	NA	0.0000		9999	1250	8070	0	0
2017/06/04 19:56:00	BASE	4.03	303	5.20	303	-1.6	97	-2.0	0	0	987.2	NA	0.0000		9999	1210	8240	0	0
2017/06/04 19:57:00	BASE	3.95	303	5.14	294	-1.6	97	-2.0	0	0	987.2	NA	0.0000		9999	1350	8100	0	0
2017/06/04 19:58:00	BASE	3.68	305	5.14	294	-1.6	97	-2.0	0	0	987.2	NA	0.0000		9999	8200	0	0	0
2017/06/04 19:59:00	BASE	3.77	303	5.14	294	-1.7	97	-2.1	0	0	987.2	NA	0.0000		9999	8100	0	0	0
2017/06/04 20:00:00	BASE	3.98	302	4.89	305	-1.7	97	-2.1	0	0	987.2	NA	0.0000		9999	0	0	0	0
2017/06/04 20:01:00	BASE	3.89	302	4.89	305	-1.7	97	-2.1	0	0	987.2	NA	0.0000		9999	0	0	0	0
2017/06/04 20:02:00	BASE	3.73	301	4.89	305	-1.7	97	-2.1	0	0	987.2	NA	0.0000		9999	0	0	0	690
2017/06/04 20:03:00	BASE	3.51	300	4.68	304	-1.7	97	-2.1	0	0	987.2	NA	0.0000		9999	0	0	0	590
2017/06/04 20:04:00	BASE	3.47	300	4.68	304	-1.7	97	-2.1	0	0	987.2	NA	0.0000		9999	0	0	0	0
2017/06/04 20:05:00	BASE	3.52	302	4.68	304	-1.7	97	-2.1	0	0	987.2	NA	0.0000		9999	8070	0	0	0
2017/06/04 20:06:00	BASE	3.34	304	4.68	304	-1.7	97	-2.1	0	0	987.2	NA	0.0000		9999	1050	0	0	0
2017/06/04 20:07:00	BASE	3.36	303	4.68	304	-1.7	97	-2.1	0	0	987.2	NA	0.0000		9999	1020	0	0	0
2017/06/04 20:08:00	BASE	3.48	304	4.68	304	-1.7	97	-2.1	0	0	987.2	NA	0.0000		9999	980	0	0	0
2017/06/04 20:09:00	BASE	3.32	304	4.68	304	-1.7	97	-2.1	0	0	987.2	NA	0.0000		9999	1020	0	0	0
2017/06/04 20:10:00	BASE	3.10	304	4.37	301	-1.7	97	-2.1	0	0	987.2	NA	0.0000		9999	0	0	0	0
2017/06/04 20:11:00	BASE	2.97	307	4.17	299	-1.7	97	-2.1	0	0	987.2	NA	0.0000		9999	1020	3220	0	0
2017/06/04 20:12:00	BASE	2.63	306	4.17	299	-1.7	97	-2.1	0	0	987.2	NA	0.0000		9999	980	0	0	0
2017/06/04 20:13:00	BASE	2.44	306	4.17	299	-1.7	97	-2.1	0	0	987.2	NA	0.0000		9999	980	3150	0	0
2017/06/04 20:14:00	BASE	2.56	312	3.91	308	-1.7	97	-2.1	0	0	987.2	NA	0.0000		9999	980	0	0	0
2017/06/04 20:15:00	BASE	2.38	315	3.81	304	-1.7	97	-2.1	0	0	987.2	NA	0.0000		9999	950	0	0	0
2017/06/04 20:16:00	BASE	2.03	319	3.81	304	-1.7	97	-2.1	0	0	987.2	NA	0.0000		9999	920	0	0	0
2017/06/04 20:17:00	BASE	1.66	330	3.81	304	-1.7	97	-2.1	0	0	987.2	NA	0.0000		9999	890	0	0	0
2017/06/04 20:18:00	BASE	1.64	345	3.55	308	-1.7	97	-2.1	0	0	987.2	NA	0.0000		9999	950	0	0	0
2017/06/04 20:19:00	BASE	1.67	354	3.50	314	-1.7	97	-2.1	0	0	987.2	NA	0.0000		9999	920	0	0	0
2017/06/04 20:20:00	BASE	1.47	358	3.50	314	-1.7	97	-2.1	0	0	987.2	NA	0.0000		9999	890	0	0	0
2017/06/04 20:21:00	BASE	1.14	3	2.98	307	-1.7	97	-2.1	0	0	987.2	NA	0.0000		9999	790	0	0	0
2017/06/04 20:22:00	BASE	0.44	17	2.98	307	-1.7	97	-2.1	0	0	987.2	NA	0.0000		9999	720	0	0	0
2017/06/04 20:23:00	BASE	0.00	43	2.93	317	-1.7	97	-2.1	0	0	987.2	NA	0.0000		9999	660	0	0	0
2017/06/04 20:24:00	BASE	0.13	59	2.52	313	-1.7	97	-2.1	0	0	987.2	NA	0.0000		9999	590	0	0	0
2017/06/04 20:25:00	BASE	0.61	50	2.11	319	-1.7	97	-2.1	0	0	987.3	NA	0.0000		9999	520	0	0	0
2017/06/04 20:26:00	BASE	0.70	48	2.06	345	-1.7	97	-2.1	0	0	987.3	NA	0.0000		9999	520	0	0	0
2017/06/04 20:27:00	BASE	0.33	60	2.06	345	-1.6	97	-2.1	0	0	987.3	NA	0.0000		9999	520	0	0	0
2017/06/04 20:28:00	BASE	0.72	66	1.75	349	-1.6	97	-2.1	0	0	987.3	NA	0.0000		9999	520	0	0	0
2017/06/04 20:29:00	BASE	1.38	67	1.70	76	-1.6	97	-2.0	0	0	987.3	NA	0.0000		9999	520	0	0	0
2017/06/04 20:30:00	BASE	1.46	58	1.70	76	-1.6	97	-2.0	0	0	987.3	NA	0.0000		9999	560	0	0	0
2017/06/04 20:31:00	BASE	1.41	57	1.70	76	-1.6	97	-2.0	0	0	987.2	NA	0.0000		9999	560	0	0	0
2017/06/04 20:32:00	BASE	1.49	63	1.85	67	-1.6	97	-2.0	0	0	987.2	NA	0.0000		9999	560	0	0	0
2017/06/04 20:33:00	BASE	1.66	60	2.06	56	-1.6	97	-2.0	0	0	987.2	NA	0.0000		9999	560	0	0	0
2017/06/04 20:34:00	BASE	1.98	59	2.52	65	-1.7	97	-2.1	0	0	987.2	NA	0.0000		9999	590	0	0	0
2017/06/04 20:35:00	BASE	2.19	62	2.57	61	-1.7	97	-2.1	0	0	987.2	NA	0.0000		9999	590	0	0	0
2017/06/04 20:36:00	BASE	2.31	60	2.57	61	-1.7	97	-2.1	0	0	987.2	NA	0.0000		9999	590	0	0	0
2017/06/04 20:37:00	BASE	2.38	55	2.62	52	-1.8	97	-2.2	0	0	987.2	NA	0.0000		9999	560	0	0	0
2017/06/04 20:38:00	BASE	2.23	54	2.62	52	-1.8	97	-2.3	0	0	987.3	NA	0.0000		9999	520	0	0	0
2017/06/04 20:39:00	BASE	2.09	56	2.62	52	-1.9	96	-2.4	0	0	987.3	NA	0.0000		9999	430	0	0	0
2017/06/04 20:40:00	BASE	2.08	51	2.62	52	-1.9	96	-2.4	0	0	987.3	NA	0.0000		9999	430	0	0	0
2017/06/04 20:41:00	BASE	2.19	48	2.62	52	-1.9	96	-2.5	0	0	987.3	NA	0.0000		9999	460	0	0	0
2017/06/04 20:42:00	BASE	2.20	52	2.62	52	-1.9	96	-2.5	0	0	987.3	NA	0.0000		9999	460	0	0	0
2017/06/04 20:43:01	BASE	2.08	50	2.62	52	-1.9	96	-2.5	0	0	987.3	NA	0.0000		9999	460	0	0	0
2017/06/04 20:44:00	BASE	2.17	47	2.62	52	-1.9	96	-2.5	0	0	987.3	NA	0.0000		9999	460	0	0	0
2017/06/04 20:45:00	BASE	2.20	51	2.62	52	-1.9	96	-2.5	0	0	987.3	NA	0.0000		9999	460	0	0	0
2017/06/04 20:46:00	BASE	2.09	52	2.62	52	-1.9	96	-2.5	0	0	987.3	NA	0.0000		9999	460	0	0	0
2017/06/04 20:47:00	BASE	2.09	54	2.52	47	-1.9	96	-2.5	0	0	987.3	NA	0.0000		9999	490	0	0	0
2017/06/04 20:48:00	BASE	2.12	56	2.52	47	-1.9	96	-2.5	0	0	987.3	NA	0.0000		9999	560	0	0	0
2017/06/04 20:49:00	BASE	2.06	58	2.52	47	-1.9	96	-2.5	0	0	987.3	NA	0.0000		9999	520	0	0	0
2017/06/04 20:50:00	BASE	1.97	60	2.52	47	-1.9	96	-2.5	0	0	987.3	NA	0.0000		9999	520	0	0	0
2017/06/04 20:51:00	BASE	2.05	57	2.52	47	-1.9	96	-2.5	0	0	987.3	NA	0.0000		9999	490	0	0	0
2017/06/04 20:52:00	BASE	2.17	54	2.52	47	-1.9	96	-2.5	0	0	987.3	NA	0.0000		9999	490	0	0	0
2017/06/04 20:53:00	BASE	2.09	54	2.52	47	-2.0	96	-2.5	0	0	987.3	NA	0.0000		9999	490	0	0	0
2017/06/04 20:54:00	BASE	1.95	53	2.42	54	-2.0	96	-2.5	0	0	987.3	NA	0.0000		9999	490	0	0	0
2017/06/04 20:55:00	BASE	1.83	51	2.42	54	-2.0	96	-2.5	0	0	987.3	NA	0.0000		9999	460	0	0	0
2017/06/04 20:56:00	BASE	1.77	51	2.42	54	-2.0	96	-2.6	0	0	987.2	NA	0.0000		9999	460	0	0	0
2017/06/04 20:57:00	BASE	1.88	52	2.42	54	-2.0	96	-2.6	0	0	987.2	NA	0.0000		9999	490	0	0	0
2017/06/04 20:58:00	BASE	2.03	55	2.42	54	-2.0	96	-2.6	0	0	987.2	NA	0.0000		9999	520	0	0	0
2017/06/04 20:59:00	BASE	2.04	60	2.42	54	-2.0	96	-2.6	0	0	987.2	NA	0.0000		9999	490	0	0	0
2017/06/04 21:00:00	BASE	1.97	61	2.42	54	-2.0	96	-2.6	0	0	987.2	NA	0.0000		9999	590	0	0	0
2017/06/04 21:01:00	BASE	2.02	60	2.37	57	-2.0	96	-2.6	0	0	987.2	NA	0.0000		9999	560	0	0	0
2017/06/04 21:02:00	BASE	1.91	60	2.37	57	-2.0	96	-2.6	0	0	987.2	NA	0.0000		9999	560	0	0	0
2017/06/04 21:03:00	BASE	1.89	59	2.37	57	-2.0	96	-2.6	0	0	987.1	NA	0.0000		9999	490	0	0	0
2017/06/04 21:04:00	BASE	1.95	59	2.37	57	-2.0	96	-2.6	0	0	987.1	NA	0.0000		9999	460	0	0	0
2017/06/04 21:05:00	BASE	1.82	59	2.37	57	-2.0	96	-2.6	0	0	987.1	NA	0.0000		9999	660	0	0	0
2017/06/04 21:06:00	BASE	1.92	58	2.47	62	-2.0	96	-2.6	0	0	987.1	NA	0.0000		9999	690	0	0	0
2017/06/04 21:07:00	BASE	2.21	60	2.52	59	-2.0	96	-2.6	0	0	987.1	NA	0.0000		9999	720	0	0	0
2017/06/04 21:08:00	BASE	2.21	61	2.52	59	-2.0	96	-2.6	0	0	987.1	NA	0.0000		9999	720	0	0	0
2017/06/04 21:09:00	BASE	1.94	59	2.52	59	-2.0	95	-2.7	0	0	987.1	NA	0.0000		9999	790	0	0	0
2017/06/04 21:10:00	BASE	1.63	59	2.52	59	-2.0	95	-2.7	0	0	987.1	NA	0.0000		9999	820	2170	0	0
2017/06/04 21:11:00	BASE	1.55	56	2.52	59	-2.0	95	-2.7	0	0	987.1	NA	0.0000		9999	820	2360	0	0
2017/06/04 21:12:00	BASE	1.67	54	2.52	59	-2.0	95	-2.7	0	0	987.1	NA	0.0000		9999	850	2560	0	0
2017/06/04 21:13:01	BASE	1.61	50	2.52	59	-2.0	95	-2.7	0	0	987.1	NA	0.0000		9999	920	2430	0	0
2017/06/04 21:14:00	BASE	1.58	44	2.52	59	-2.0	95	-2.7	0	0	987.1	NA	0.0000		9999	890	2260	0	0
2017/06/04 21:15:00	BASE	1.54	42	2.52	59	-2.0	95	-2.7	0	0	987.1	NA	0.0000		9999	790	2100	0	0
2017/06/04 21:16:00	BASE	1.39	38	2.52	59	-2.0	95	-2.7	0	0	987.1	NA	0.0000		9999	790	2100	0	0
2017/06/04 21:17:00	BASE	1.40	30	2.42	63	-2.0	95	-2.7	0	0	987.1	NA	0.0000		9999	850	2130	0	0
2017/06/04 21:18:00	BASE	1.44	21	1.95	55	-2.0	95	-2.7	0	0	987.1	NA	0.0000		9999	890	2560	0	0
2017/06/04 21:19:00	BASE	1.45	12	1.95	55	-2.0	95	-2.7	0	0	987.1	NA	0.0000		9999	920	2620	0	0
2017/06/04 21:20:00	BASE	1.30	1	1.95	55	-2.0	95	-2.7	0	0	987.1	NA	0.0000		9999	850	2620	0	0
2017/06/04 21:21:00	BASE	1.04	2	1.95	55	-2.0	95	-2.6	0	0	987.0	NA	0.0000		9999	890	2690	0	0
2017/06/04 21:22:00	BASE	0.54	8	1.75	41	-1.9	95	-2.6	0	0	987.0	NA	0.0000		9999	2590	0	0	0
2017/06/04 21:23:00	BASE	0.05	5	1.75	41	-1.9	95	-2.6	0	0	987.0	NA	0.0000		9999	2720	0	0	0
2017/06/04 21:24:00	BASE	0.00	4	1.65	42	-1.9	95	-2.6	0	0	987.0	NA	0.0000		9999	790	2720	0	0
2017/06/04 21:25:00	BASE	0.00	4	1.59	5	-1.9	95	-2.6	0	0	987.0	NA	0.0000		9999	720	0	0	0
2017/06/04 21:26:00	BASE	0.00	4	1.59	5	-1.9	95	-2.6	0	0	987.0	NA	0.0000		9999	720	0	0	0
2017/06/04 21:27:00	BASE	0.00	4	1.59	5	-1.9	95	-2.6	0	0	987.0	NA	0.0000		9999	820	0	0	0
2017/06/04 21:28:00	BASE	0.00	4	1.59	5	-1.8	95	-2.6	0	0	987.0	NA	0.0000		9999	850	0	0	0
2017/06/04 21:29:00	BASE	0.00	4	1.39	2	-1.8	94	-2.6	0	0	987.0	NA	0.0000		9999	890	0	0	0
2017/06/04 21:30:00	BASE	0.00	4	1.23	18	-1.8	94	-2.6	0	0	987.0	NA	0.0000		9999	920	0	0	0
2017/06/04 21:31:00	BASE	0.00	4	1.08	14	-1.8	94	-2.6	0	0	987.0	NA	0.0000		9999	950	0	0	0
2017/06/04 21:32:00	BASE	0.09	354	1.08	335	-1.8	94	-2.6	0	0	987.0	NA	0.0000		9999	980	0	0	0
2017/06/04 21:33:00	BASE	0.14	333	1.18	328	-1.8	94	-2.6	0	0	987.0	NA	0.0000		9999	920	0	0	0
2017/06/04 21:34:00	BASE	0.26	331	1.39	339	-1.8	94	-2.6	0	0	987.0	NA	0.0000		9999	0	0	0	0
2017/06/04 21:35:00	BASE	0.21	337	1.39	339	-1.8	94	-2.6	0	0	987.0	NA	0.0000		9999	0	0	0	0
2017/06/04 21:36:00	BASE	0.00	324	1.39	339	-1.8	94	-2.6	0	0	987.0	NA	0.0000		9999	0	0	0	0
2017/06/04 21:37:00	BASE	0.00	313	1.39	339	-1.8	94	-2.6	0	0	987.0	NA	0.0000		9999	0	0	0	0
2017/06/04 21:38:00	BASE	0.00	311	1.39	339	-1.8	94	-2.6	0	0	987.0	NA	0.0000		9999	0	0	0	0
2017/06/04 21:39:00	BASE	0.00	312	1.39	339	-1.8	94	-2.7	0	0	987.0	NA	0.0000		9999	0	0	0	0
2017/06/04 21:40:00	BASE	0.00	312	1.39	339	-1.8	94	-2.7	0	0	987.0	NA	0.0000		9999	3120	0	0	0
2017/06/04 21:41:00	BASE	0.00	312	1.39	339	-1.8	93	-2.7	0	0	986.9	NA	0.0000		9999	2820	0	0	0
2017/06/04 21:42:00	BASE	0.00	327	1.39	339	-1.8	93	-2.7	0	0	986.9	NA	0.0000		9999	2820	0	0	0
2017/06/04 21:43:00	BASE	0.00	3	1.39	339	-1.8	93	-2.8	0	0	986.9	NA	0.0000		9999	2760	0	0	0
2017/06/04 21:44:00	BASE	0.00	19	M	M	-1.8	93	-2.8	0	0	986.9	NA	0.0000		9999	2660	0	0	0
2017/06/04 21:45:00	BASE	0.00	23	M	M	-1.8	93	-2.8	0	0	986.8	NA	0.0000		9999	2560	0	0	0
2017/06/04 21:46:00	BASE	0.00	69	M	M	-1.8	93	-2.8	0	0	986.8	NA	0.0000		9999	2660	0	0	0
2017/06/04 21:47:00	BASE	0.00	116	M	M	-1.9	93	-2.9	0	0	986.8	NA	0.0000		9999	2660	0	0	0
2017/06/04 21:48:00	BASE	0.00	128	M	M	-2.0	93	-3.0	0	0	986.8	NA	0.0000		9999	2620	0	0	0
2017/06/04 21:49:00	BASE	0.00	131	M	M	-2.1	93	-3.1	0	0	986.9	NA	0.0000		9999	0	0	0	0
2017/06/04 21:50:00	BASE	0.00	131	M	M	-2.2	93	-3.1	0	0	986.9	NA	0.0000		9999	0	0	0	0
2017/06/04 21:51:00	BASE	0.10	124	1.18	129	-2.2	93	-3.2	0	0	986.8	NA	0.0000		9999	0	0	0	0
2017/06/04 21:52:00	BASE	0.18	124	1.18	129	-2.2	93	-3.2	0	0	986.8	NA	0.0000		9999	0	0	0	0
2017/06/04 21:53:00	BASE	0.14	147	1.23	152	-2.2	93	-3.2	0	0	986.8	NA	0.0000		9999	0	0	0	0
2017/06/04 21:54:00	BASE	0.05	149	1.23	152	-2.1	93	-3.1	0	0	986.9	NA	0.0000		9999	0	0	0	0
2017/06/04 21:55:00	BASE	0.48	139	1.23	148	-2.1	93	-3.1	0	0	986.9	NA	0.0000		9999	0	0	0	0
2017/06/04 21:56:00	BASE	0.93	142	1.29	148	-2.1	93	-3.1	0	0	987.0	NA	0.0000		9999	0	0	0	0
2017/06/04 21:57:00	BASE	0.53	138	1.29	148	-2.1	93	-3.1	0	0	987.0	NA	0.0000		9999	0	0	0	0
2017/06/04 21:58:00	BASE	0.09	133	1.29	148	-2.1	93	-3.1	0	0	987.0	NA	0.0000		9999	1050	2460	0	0
2017/06/04 21:59:00	BASE	0.29	140	1.29	141	-2.1	93	-3.1	0	0	986.9	NA	0.0000		9999	1020	0	0	0
2017/06/04 22:00:00	BASE	1.11	148	1.95	146	-2.1	93	-3.1	0	0	987.0	NA	0.0000		9999	1020	2850	0	0
2017/06/04 22:01:00	BASE	1.81	144	2.06	138	-2.1	93	-3.1	0	0	987.0	NA	0.0000		9999	980	0	0	0
2017/06/04 22:02:00	BASE	1.84	140	2.06	139	-2.1	93	-3.1	0	0	986.9	NA	0.0000		9999	1020	2790	0	0
2017/06/04 22:03:00	BASE	1.61	139	2.06	139	-2.1	93	-3.1	0	0	986.9	NA	0.0000		9999	920	0	0	0
2017/06/04 22:04:39	BASE	M	M	2.06	139	-2.1	93	-3.1	0	0	M	NA	0.0000		M	920	0	0	0
2017/06/04 22:05:00	BASE	M	M	2.06	139	-2.1	93	-3.1	0	0	M	NA	0.0000		M	920	2260	2890	0
2017/06/04 22:06:01	BASE	M	M	2.06	139	-2.1	93	-3.1	0	0	986.8	NA	0.0000		9999	920	0	0	0
2017/06/04 22:07:00	BASE	1.29	133	2.06	139	-2.1	93	-3.1	0	0	986.8	NA	0.0000		9999	920	0	0	0
2017/06/04 22:08:00	BASE	1.28	130	2.06	139	-2.1	93	-3.1	0	0	986.8	NA	0.0000		9999	920	0	0	0
2017/06/04 22:09:00	BASE	1.26	130	2.06	139	-1.9	93	-2.9	0	0	986.8	NA	0.0000		9999	890	0	0	0
2017/06/04 22:10:00	BASE	1.16	130	2.06	139	-2.0	93	-2.9	0	0	986.8	NA	0.0000		9999	920	0	0	0
2017/06/04 22:11:00	BASE	1.16	131	2.06	139	-2.0	93	-3.0	0	0	986.7	NA	0.0000		9999	850	0	0	0
2017/06/04 22:12:00	BASE	1.26	133	1.75	138	-2.0	93	-3.0	0	0	986.7	NA	0.0000		9999	820	0	0	0
2017/06/04 22:13:00	BASE	1.36	133	1.75	138	-2.0	93	-3.0	0	0	986.7	NA	0.0000		9999	820	0	0	0
2017/06/04 22:14:00	BASE	1.35	133	1.54	133	-2.0	93	-3.0	0	0	986.8	NA	0.0000		9999	820	0	0	0
2017/06/04 22:15:00	BASE	1.28	133	1.54	133	-2.0	93	-3.0	0	0	986.8	NA	0.0000		9999	850	0	0	0
2017/06/04 22:16:00	BASE	1.19	133	1.54	133	-2.0	93	-3.0	0	0	986.8	NA	0.0000		9999	920	0	0	0
2017/06/04 22:17:00	BASE	0.65	133	1.54	133	-2.0	93	-3.0	0	0	986.8	NA	0.0000		9999	950	0	0	0
2017/06/04 22:18:01	BASE	0.09	131	1.54	133	-2.0	93	-3.0	0	0	986.8	NA	0.0000		9999	1020	0	0	0
2017/06/04 22:19:00	BASE	0.00	122	1.54	133	-2.0	93	-3.0	0	0	986.8	NA	0.0000		9999	1020	0	0	0
2017/06/04 22:20:00	BASE	0.00	106	1.54	133	-2.0	93	-3.0	0	0	986.8	NA	0.0000		9999	980	0	0	0
2017/06/04 22:21:00	BASE	0.00	95	1.54	133	-2.0	93	-3.0	0	0	986.8	NA	0.0000		9999	920	0	0	0
2017/06/04 22:22:00	BASE	0.05	92	1.54	133	-2.0	93	-3.0	0	0	986.8	NA	0.0000		9999	890	0	0	0
2017/06/04 22:23:00	BASE	0.05	89	1.44	133	-2.0	93	-3.0	0	0	986.9	NA	0.0000		9999	890	0	0	0
2017/06/04 22:24:00	BASE	0.00	86	1.44	133	-2.0	93	-3.0	0	0	986.9	NA	0.0000		9999	850	0	0	0
2017/06/04 22:25:00	BASE	0.00	86	1.23	133	-2.0	93	-3.0	0	0	986.9	NA	0.0000		9999	850	0	0	0
2017/06/04 22:26:00	BASE	0.00	83	1.08	91	-2.0	93	-3.0	0	0	986.9	NA	0.0000		9999	750	0	0	0
2017/06/04 22:27:00	BASE	0.13	78	1.08	80	-2.0	93	-3.0	0	0	986.8	NA	0.0000		9999	720	0	0	0
2017/06/04 22:28:00	BASE	0.52	70	1.29	64	-2.0	93	-3.0	0	0	986.8	NA	0.0000		9999	560	0	0	0
2017/06/04 22:29:00	BASE	0.99	64	1.34	64	-2.0	93	-3.0	0	0	986.8	NA	0.0000		9999	660	0	0	0
2017/06/04 22:30:00	BASE	1.10	62	1.34	64	-2.0	93	-3.0	0	0	986.8	NA	0.0000		9999	690	0	0	0
2017/06/04 22:31:00	BASE	0.67	54	1.34	64	-2.1	93	-3.0	0	0	986.8	NA	0.0000		9999	660	0	0	0
2017/06/04 22:32:00	BASE	0.17	49	1.34	64	-2.1	93	-3.0	0	0	986.8	NA	0.0000		9999	660	0	0	0
2017/06/04 22:33:00	BASE	0.00	49	1.34	64	-2.1	93	-3.0	0	0	986.8	NA	0.0000		9999	660	0	0	0
2017/06/04 22:34:00	BASE	0.00	49	1.34	64	-2.0	93	-3.0	0	0	986.8	NA	0.0000		9999	660	0	0	0
2017/06/04 22:35:00	BASE	0.00	49	1.34	64	-2.0	93	-3.0	0	0	986.8	NA	0.0000		9999	720	0	0	0
2017/06/04 22:36:00	BASE	0.00	49	1.34	64	-2.0	93	-3.0	0	0	986.8	NA	0.0000		9999	750	0	0	0
2017/06/04 22:37:00	BASE	0.00	49	1.34	64	-2.0	93	-3.0	0	0	986.8	NA	0.0000		9999	790	0	0	0
2017/06/04 22:38:00	BASE	0.00	49	1.34	64	-2.0	93	-3.0	0	0	986.8	NA	0.0000		9999	750	0	0	0
2017/06/04 22:39:00	BASE	0.00	49	1.13	49	-2.0	93	-3.0	0	0	986.8	NA	0.0000		9999	820	1610	0	0
2017/06/04 22:40:00	BASE	0.00	49	1.08	49	-2.0	93	-3.0	0	0	986.8	NA	0.0000		9999	890	0	0	0
2017/06/04 22:41:00	BASE	0.00	49	M	M	-1.9	92	-3.0	0	0	986.8	NA	0.0000		9999	890	0	0	0
2017/06/04 22:42:00	BASE	0.00	46	M	M	-1.9	92	-3.0	0	0	986.8	NA	0.0000		9999	920	0	0	0
2017/06/04 22:43:00	BASE	0.00	37	M	M	-1.9	92	-3.0	0	0	986.8	NA	0.0000		9999	920	0	0	0
2017/06/04 22:44:00	BASE	0.00	31	M	M	-1.9	92	-3.0	0	0	986.8	NA	0.0000		9999	890	0	0	0
2017/06/04 22:45:00	BASE	0.00	30	M	M	-1.9	92	-3.0	0	0	986.8	NA	0.0000		9999	850	0	0	0
2017/06/04 22:46:00	BASE	0.00	30	M	M	-1.9	92	-3.0	0	0	986.8	NA	0.0000		9999	820	0	0	0
2017/06/04 22:47:00	BASE	0.00	30	M	M	-1.9	92	-3.0	0	0	986.8	NA	0.0000		9999	790	1350	0	0
2017/06/04 22:48:00	BASE	0.00	30	M	M	-1.9	92	-3.0	0	0	986.8	NA	0.0000		9999	790	0	0	0
2017/06/04 22:49:00	BASE	0.00	30	M	M	-1.8	92	-3.0	0	0	986.8	NA	0.0000		9999	950	0	0	0
2017/06/04 22:50:00	BASE	0.23	34	1.18	32	-1.8	91	-3.0	0	0	986.8	NA	0.0000		9999	850	0	0	0
2017/06/04 22:51:00	BASE	0.75	32	1.29	32	-1.8	91	-3.1	0	0	986.7	NA	0.0000		9999	950	0	0	0
2017/06/04 22:52:00	BASE	1.04	26	1.29	26	-1.8	91	-3.1	0	0	986.7	NA	0.0000		9999	950	0	0	0
2017/06/04 22:53:00	BASE	1.29	25	1.75	20	-1.8	91	-3.1	0	0	986.7	NA	0.0000		9999	1020	0	0	0
2017/06/04 22:54:00	BASE	1.67	24	1.95	22	-1.9	91	-3.2	0	0	986.7	NA	0.0000		9999	1120	0	0	0
2017/06/04 22:55:00	BASE	1.83	21	1.95	19	-2.0	91	-3.2	0	0	986.7	NA	0.0000		9999	1080	0	0	0
2017/06/04 22:56:00	BASE	1.93	24	2.11	30	-2.0	91	-3.3	0	0	986.7	NA	0.0000		9999	1080	0	0	0
2017/06/04 22:57:01	BASE	1.89	32	2.11	30	-2.1	91	-3.4	0	0	986.7	NA	0.0000		9999	1020	0	0	0
2017/06/04 22:58:00	BASE	1.79	33	2.11	30	-2.1	91	-3.4	0	0	986.7	NA	0.0000		9999	980	0	0	0
2017/06/04 22:59:00	BASE	1.72	28	2.11	30	-2.2	91	-3.5	0	0	986.7	NA	0.0000		9999	980	0	0	0
2017/06/04 23:00:00	BASE	1.71	24	2.11	30	-2.2	90	-3.5	0	0	986.7	NA	0.0000		9999	950	0	0	0
2017/06/04 23:01:00	BASE	1.79	20	2.11	30	-2.2	90	-3.6	0	0	986.7	NA	0.0000		9999	950	0	0	0
2017/06/04 23:02:00	BASE	1.66	20	2.11	30	-2.2	90	-3.6	0	0	986.7	NA	0.0000		9999	920	0	0	0
2017/06/04 23:03:00	BASE	1.43	24	2.11	30	-2.2	90	-3.6	0	0	986.7	NA	0.0000		9999	920	0	0	0
2017/06/04 23:04:00	BASE	1.28	25	2.11	30	-2.2	90	-3.6	0	0	986.7	NA	0.0000		9999	950	0	0	0
2017/06/04 23:05:00	BASE	1.10	21	2.11	30	-2.2	90	-3.6	0	0	986.7	NA	0.0000		9999	920	0	0	0
2017/06/04 23:06:00	BASE	0.83	21	2.01	42	-2.2	90	-3.6	0	0	986.7	NA	0.0000		9999	920	1840	0	0
2017/06/04 23:07:00	BASE	0.75	25	1.95	18	-2.1	90	-3.6	0	0	986.6	NA	0.0000		9999	890	1770	0	0
2017/06/04 23:08:00	BASE	0.57	15	1.95	18	-2.1	90	-3.6	0	0	986.6	NA	0.0000		9999	1020	1710	0	0
2017/06/04 23:09:00	BASE	0.68	357	1.95	18	-2.1	90	-3.6	0	0	986.6	NA	0.0000		9999	1020	1770	0	0
2017/06/04 23:10:00	BASE	1.43	349	2.11	348	-2.1	89	-3.6	0	0	986.6	NA	0.0000		9999	1020	1800	0	0
2017/06/04 23:11:00	BASE	1.90	347	2.11	354	-2.1	89	-3.6	0	0	986.6	NA	0.0000		9999	1020	1740	0	0
2017/06/04 23:12:00	BASE	1.86	338	2.11	354	-2.1	89	-3.7	0	0	986.6	NA	0.0000		9999	980	1800	0	0
2017/06/04 23:13:00	BASE	1.62	328	2.11	354	-2.1	89	-3.7	0	0	986.6	NA	0.0000		9999	920	2200	0	0
2017/06/04 23:14:00	BASE	1.65	326	2.11	354	-2.1	89	-3.7	0	0	986.6	NA	0.0000		9999	890	0	0	0
2017/06/04 23:15:00	BASE	1.86	327	2.11	328	-2.1	89	-3.7	0	0	986.6	NA	0.0000		9999	890	2100	0	0
2017/06/04 23:16:00	BASE	1.91	329	2.11	328	-2.1	89	-3.7	0	0	986.6	NA	0.0000		9999	980	2100	0	0
2017/06/04 23:17:01	BASE	1.99	328	2.47	329	-2.1	89	-3.7	0	0	986.6	NA	0.0000		9999	1180	0	0	0
2017/06/04 23:18:00	BASE	2.15	328	2.47	329	-2.2	89	-3.7	0	0	986.6	NA	0.0000		9999	980	1840	0	0
2017/06/04 23:19:00	BASE	2.28	328	2.47	329	-2.2	89	-3.8	0	0	986.6	NA	0.0000		9999	1050	1800	0	0
2017/06/04 23:20:00	BASE	2.31	329	2.47	329	-2.2	89	-3.8	0	0	986.6	NA	0.0000		9999	1050	0	0	0
2017/06/04 23:21:00	BASE	2.20	331	2.47	329	-2.2	89	-3.8	0	0	986.6	NA	0.0000		9999	1020	0	0	0
2017/06/04 23:22:00	BASE	2.05	334	2.47	329	-2.2	89	-3.8	0	0	986.6	NA	0.0000		9999	0	0	0	0
2017/06/04 23:23:00	BASE	1.92	334	2.47	329	-2.2	89	-3.8	0	0	986.6	NA	0.0000		9999	0	0	0	0
2017/06/04 23:24:00	BASE	1.84	332	2.47	329	-2.2	89	-3.8	0	0	986.6	NA	0.0000		9999	0	0	0	0
2017/06/04 23:25:00	BASE	1.77	332	2.47	329	-2.3	89	-3.8	0	0	986.6	NA	0.0000		9999	0	0	0	0
2017/06/04 23:26:00	BASE	1.66	334	2.47	329	-2.3	89	-3.8	0	0	986.6	NA	0.0000		9999	0	0	0	0
2017/06/04 23:27:00	BASE	1.57	337	2.47	329	-2.3	89	-3.9	0	0	986.6	NA	0.0000		9999	0	0	0	0
2017/06/04 23:28:00	BASE	1.56	339	2.47	329	-2.3	89	-3.9	0	0	986.6	NA	0.0000		9999	0	0	0	0
2017/06/04 23:29:00	BASE	1.68	348	2.31	329	-2.3	89	-3.9	0	0	986.6	NA	0.0000		9999	0	0	0	0
2017/06/04 23:30:00	BASE	1.85	360	2.26	332	-2.4	89	-3.9	0	0	986.6	NA	0.0000		9999	0	0	0	0
2017/06/04 23:31:01	BASE	2.14	10	2.57	19	-2.4	89	-3.9	0	0	986.6	NA	0.0000		9999	0	0	0	0
2017/06/04 23:32:00	BASE	2.50	24	2.78	32	-2.4	90	-3.9	0	0	986.6	NA	0.0000		9999	0	0	0	0
2017/06/04 23:33:00	BASE	2.42	34	2.78	32	-2.5	90	-3.9	0	0	986.6	NA	0.0000		9999	1250	0	0	0
2017/06/04 23:34:00	BASE	2.24	46	2.78	32	-2.5	90	-4.0	0	0	986.6	NA	0.0000		9999	1870	0	0	0
2017/06/04 23:35:00	BASE	2.20	55	2.78	32	-2.6	90	-4.0	0	0	986.6	NA	0.0000		9999	1740	0	0	0
2017/06/04 23:36:00	BASE	2.15	57	2.78	32	-2.7	90	-4.1	0	0	986.6	NA	0.0000		9999	1770	0	0	0
2017/06/04 23:37:00	BASE	2.05	63	2.78	32	-2.8	90	-4.2	0	0	986.6	NA	0.0000		9999	1870	0	0	0
2017/06/04 23:38:00	BASE	1.93	67	2.78	32	-2.8	90	-4.2	0	0	986.6	NA	0.0000		9999	1610	2430	0	0
2017/06/04 23:39:00	BASE	1.73	66	2.78	32	-2.9	90	-4.3	0	0	986.6	NA	0.0000		9999	1540	2330	0	0
2017/06/04 23:40:00	BASE	1.45	68	2.78	32	-2.8	90	-4.3	0	0	986.6	NA	0.0000		9999	2400	0	0	0
2017/06/04 23:41:00	BASE	1.11	72	2.78	32	-2.8	90	-4.2	0	0	986.6	NA	0.0000		9999	1540	0	0	0
2017/06/04 23:42:00	BASE	1.26	77	2.52	52	-2.7	90	-4.2	0	0	986.6	NA	0.0000		9999	1440	0	0	0
2017/06/04 23:43:00	BASE	1.58	79	2.52	52	-2.7	90	-4.1	0	0	986.6	NA	0.0000		9999	1610	0	0	0
2017/06/04 23:44:00	BASE	1.31	63	2.52	52	-2.7	90	-4.1	0	0	986.6	NA	0.0000		9999	0	0	0	0
2017/06/04 23:45:00	BASE	0.69	43	2.31	67	-2.6	90	-4.1	0	0	986.6	NA	0.0000		9999	0	0	0	0
2017/06/04 23:46:00	BASE	0.13	34	2.26	75	-2.6	90	-4.0	0	0	986.6	NA	0.0000		9999	0	0	0	0
2017/06/04 23:47:00	BASE	0.00	34	2.21	63	-2.5	90	-3.9	0	0	986.6	NA	0.0000		9999	0	0	0	0
2017/06/04 23:48:00	BASE	0.00	34	1.90	59	-2.4	90	-3.8	0	0	986.6	NA	0.0000		9999	0	0	0	0
2017/06/04 23:49:00	BASE	0.00	34	1.75	75	-2.4	90	-3.8	0	0	986.6	NA	0.0000		9999	0	0	0	0
2017/06/04 23:50:00	BASE	0.00	34	1.75	75	-2.4	90	-3.8	0	0	986.6	NA	0.0000		9999	0	0	0	0
2017/06/04 23:51:00	BASE	0.33	45	1.75	75	-2.4	89	-3.9	0	0	986.6	NA	0.0000		9999	0	0	0	0
2017/06/04 23:52:00	BASE	0.91	60	1.75	75	-2.5	89	-4.0	0	0	986.6	NA	0.0000		9999	0	0	0	0
2017/06/04 23:53:00	BASE	1.27	65	1.65	68	-2.5	89	-4.1	0	0	986.6	NA	0.0000		9999	0	0	0	0
2017/06/04 23:54:00	BASE	1.67	69	2.11	72	-2.6	89	-4.2	0	0	986.6	NA	0.0000		9999	0	0	0	0
2017/06/04 23:55:00	BASE	1.93	72	2.11	72	-2.7	89	-4.3	0	0	986.6	NA	0.0000		9999	0	0	0	0
2017/06/04 23:56:00	BASE	1.83	73	2.11	72	-2.8	88	-4.4	0	0	986.6	NA	0.0000		9999	0	0	0	0
2017/06/04 23:57:00	BASE	1.65	68	2.11	72	-2.8	88	-4.5	0	0	986.6	NA	0.0000		9999	0	0	0	0
2017/06/04 23:58:00	BASE	1.70	61	2.11	72	-2.8	88	-4.5	0	0	986.6	NA	0.0000		9999	0	0	0	0
2017/06/04 23:59:01	BASE	2.00	50	2.26	40	-2.8	88	-4.5	0	0	986.6	NA	0.0000		9999	0	0	0	0